<?xml version="1.0" encoding="UTF-8" standalone="no" ?>
<gpx xmlns="http://www.topografix.com/GPX/1/1" xmlns:xsi="http://www.w3.org/2001/XMLSchema-instance" xsi:schemaLocation="http://www.topografix.com/GPX/1/1 http://www.topografix.com/GPX/1/1/gpx.xsd" version="1.1" creator="VisuGPX - https://www.visugpx.com">
  <metadata>
    <name>passenans 2</name>
    <desc><![CDATA[Belle première rando à la journée]]></desc>
  </metadata>
  <trk>
    <name><![CDATA[ACTIVE LOG 003]]></name>
    <trkseg>
      <trkpt lat="46.79996" lon="5.6131">
        <ele>203.93689</ele>
        <time>2013-06-06T07:12:58Z</time>
      </trkpt>
      <trkpt lat="46.7999" lon="5.61304">
        <ele>209.704834</ele>
        <time>2013-06-06T07:13:08Z</time>
      </trkpt>
      <trkpt lat="46.79991" lon="5.61302">
        <ele>214.03064</ele>
        <time>2013-06-06T07:13:10Z</time>
      </trkpt>
      <trkpt lat="46.7999" lon="5.61301">
        <ele>216.43396</ele>
        <time>2013-06-06T07:13:11Z</time>
      </trkpt>
      <trkpt lat="46.79988" lon="5.61302">
        <ele>223.163208</ele>
        <time>2013-06-06T07:13:14Z</time>
      </trkpt>
      <trkpt lat="46.79987" lon="5.61302">
        <ele>227.489136</ele>
        <time>2013-06-06T07:13:16Z</time>
      </trkpt>
      <trkpt lat="46.79985" lon="5.61302">
        <ele>229.411743</ele>
        <time>2013-06-06T07:13:17Z</time>
      </trkpt>
      <trkpt lat="46.79982" lon="5.613">
        <ele>236.621704</ele>
        <time>2013-06-06T07:13:20Z</time>
      </trkpt>
      <trkpt lat="46.79981" lon="5.613">
        <ele>237.102295</ele>
        <time>2013-06-06T07:13:21Z</time>
      </trkpt>
      <trkpt lat="46.79977" lon="5.61292">
        <ele>242.870239</ele>
        <time>2013-06-06T07:13:25Z</time>
      </trkpt>
      <trkpt lat="46.79976" lon="5.61291">
        <ele>244.312256</ele>
        <time>2013-06-06T07:13:26Z</time>
      </trkpt>
      <trkpt lat="46.79968" lon="5.61287">
        <ele>250.0802</ele>
        <time>2013-06-06T07:13:30Z</time>
      </trkpt>
      <trkpt lat="46.79965" lon="5.61285">
        <ele>253.925415</ele>
        <time>2013-06-06T07:13:33Z</time>
      </trkpt>
      <trkpt lat="46.79962" lon="5.61281">
        <ele>257.770752</ele>
        <time>2013-06-06T07:13:36Z</time>
      </trkpt>
      <trkpt lat="46.79962" lon="5.61281">
        <ele>258.731934</ele>
        <time>2013-06-06T07:13:37Z</time>
      </trkpt>
      <trkpt lat="46.79958" lon="5.61274">
        <ele>263.057861</ele>
        <time>2013-06-06T07:13:42Z</time>
      </trkpt>
      <trkpt lat="46.79954" lon="5.61269">
        <ele>265.461304</ele>
        <time>2013-06-06T07:13:45Z</time>
      </trkpt>
      <trkpt lat="46.79952" lon="5.61265">
        <ele>267.383911</ele>
        <time>2013-06-06T07:13:48Z</time>
      </trkpt>
      <trkpt lat="46.79946" lon="5.61259">
        <ele>270.2677</ele>
        <time>2013-06-06T07:13:52Z</time>
      </trkpt>
      <trkpt lat="46.79941" lon="5.61255">
        <ele>271.709717</ele>
        <time>2013-06-06T07:13:55Z</time>
      </trkpt>
      <trkpt lat="46.79938" lon="5.61253">
        <ele>273.151855</ele>
        <time>2013-06-06T07:13:57Z</time>
      </trkpt>
      <trkpt lat="46.79935" lon="5.6125">
        <ele>274.113037</ele>
        <time>2013-06-06T07:14:00Z</time>
      </trkpt>
      <trkpt lat="46.79931" lon="5.61248">
        <ele>275.074463</ele>
        <time>2013-06-06T07:14:02Z</time>
      </trkpt>
      <trkpt lat="46.79924" lon="5.61245">
        <ele>276.99707</ele>
        <time>2013-06-06T07:14:07Z</time>
      </trkpt>
      <trkpt lat="46.7992" lon="5.61244">
        <ele>278.438965</ele>
        <time>2013-06-06T07:14:10Z</time>
      </trkpt>
      <trkpt lat="46.79916" lon="5.61241">
        <ele>279.400269</ele>
        <time>2013-06-06T07:14:13Z</time>
      </trkpt>
      <trkpt lat="46.79907" lon="5.61238">
        <ele>281.322998</ele>
        <time>2013-06-06T07:14:19Z</time>
      </trkpt>
      <trkpt lat="46.79896" lon="5.61233">
        <ele>282.765015</ele>
        <time>2013-06-06T07:14:25Z</time>
      </trkpt>
      <trkpt lat="46.7989" lon="5.61234">
        <ele>283.726196</ele>
        <time>2013-06-06T07:14:29Z</time>
      </trkpt>
      <trkpt lat="46.79888" lon="5.61234">
        <ele>284.206909</ele>
        <time>2013-06-06T07:14:31Z</time>
      </trkpt>
      <trkpt lat="46.79878" lon="5.61247">
        <ele>287.571411</ele>
        <time>2013-06-06T07:14:41Z</time>
      </trkpt>
      <trkpt lat="46.79875" lon="5.61256">
        <ele>289.974854</ele>
        <time>2013-06-06T07:14:48Z</time>
      </trkpt>
      <trkpt lat="46.7987" lon="5.61266">
        <ele>291.416748</ele>
        <time>2013-06-06T07:14:53Z</time>
      </trkpt>
      <trkpt lat="46.79869" lon="5.61295">
        <ele>294.300781</ele>
        <time>2013-06-06T07:15:08Z</time>
      </trkpt>
      <trkpt lat="46.79868" lon="5.61304">
        <ele>294.781372</ele>
        <time>2013-06-06T07:15:13Z</time>
      </trkpt>
      <trkpt lat="46.79869" lon="5.61335">
        <ele>295.742676</ele>
        <time>2013-06-06T07:15:30Z</time>
      </trkpt>
      <trkpt lat="46.79867" lon="5.6134">
        <ele>295.742676</ele>
        <time>2013-06-06T07:15:33Z</time>
      </trkpt>
      <trkpt lat="46.79858" lon="5.61369">
        <ele>297.184692</ele>
        <time>2013-06-06T07:15:49Z</time>
      </trkpt>
      <trkpt lat="46.79858" lon="5.61374">
        <ele>297.184692</ele>
        <time>2013-06-06T07:15:53Z</time>
      </trkpt>
      <trkpt lat="46.7985" lon="5.61391">
        <ele>298.146118</ele>
        <time>2013-06-06T07:16:08Z</time>
      </trkpt>
      <trkpt lat="46.79844" lon="5.61404">
        <ele>298.626709</ele>
        <time>2013-06-06T07:16:20Z</time>
      </trkpt>
      <trkpt lat="46.79835" lon="5.61425">
        <ele>299.588013</ele>
        <time>2013-06-06T07:16:35Z</time>
      </trkpt>
      <trkpt lat="46.79828" lon="5.61446">
        <ele>300.549316</ele>
        <time>2013-06-06T07:16:51Z</time>
      </trkpt>
      <trkpt lat="46.7982" lon="5.61465">
        <ele>301.029907</ele>
        <time>2013-06-06T07:17:02Z</time>
      </trkpt>
      <trkpt lat="46.79819" lon="5.61466">
        <ele>301.029907</ele>
        <time>2013-06-06T07:17:03Z</time>
      </trkpt>
      <trkpt lat="46.79815" lon="5.61482">
        <ele>301.991333</ele>
        <time>2013-06-06T07:17:16Z</time>
      </trkpt>
      <trkpt lat="46.79817" lon="5.61485">
        <ele>301.991333</ele>
        <time>2013-06-06T07:17:18Z</time>
      </trkpt>
      <trkpt lat="46.79821" lon="5.61494">
        <ele>301.991333</ele>
        <time>2013-06-06T07:17:25Z</time>
      </trkpt>
      <trkpt lat="46.7982" lon="5.61498">
        <ele>302.471924</ele>
        <time>2013-06-06T07:17:27Z</time>
      </trkpt>
      <trkpt lat="46.79828" lon="5.61511">
        <ele>303.433228</ele>
        <time>2013-06-06T07:17:40Z</time>
      </trkpt>
      <trkpt lat="46.79824" lon="5.61524">
        <ele>303.91394</ele>
        <time>2013-06-06T07:17:48Z</time>
      </trkpt>
      <trkpt lat="46.79823" lon="5.6153">
        <ele>304.394653</ele>
        <time>2013-06-06T07:17:51Z</time>
      </trkpt>
      <trkpt lat="46.79815" lon="5.61557">
        <ele>305.83667</ele>
        <time>2013-06-06T07:18:08Z</time>
      </trkpt>
      <trkpt lat="46.79808" lon="5.61587">
        <ele>307.278564</ele>
        <time>2013-06-06T07:18:25Z</time>
      </trkpt>
      <trkpt lat="46.79809" lon="5.61613">
        <ele>308.720459</ele>
        <time>2013-06-06T07:18:41Z</time>
      </trkpt>
      <trkpt lat="46.79808" lon="5.61628">
        <ele>309.681885</ele>
        <time>2013-06-06T07:18:52Z</time>
      </trkpt>
      <trkpt lat="46.79799" lon="5.6163">
        <ele>309.681885</ele>
        <time>2013-06-06T07:19:02Z</time>
      </trkpt>
      <trkpt lat="46.79793" lon="5.61628">
        <ele>314.007812</ele>
        <time>2013-06-06T07:19:06Z</time>
      </trkpt>
      <trkpt lat="46.79792" lon="5.61627">
        <ele>310.162476</ele>
        <time>2013-06-06T07:19:07Z</time>
      </trkpt>
      <trkpt lat="46.79788" lon="5.61625">
        <ele>309.201172</ele>
        <time>2013-06-06T07:19:09Z</time>
      </trkpt>
      <trkpt lat="46.7977" lon="5.61613">
        <ele>309.201172</ele>
        <time>2013-06-06T07:19:24Z</time>
      </trkpt>
      <trkpt lat="46.79759" lon="5.61605">
        <ele>308.720459</ele>
        <time>2013-06-06T07:19:35Z</time>
      </trkpt>
      <trkpt lat="46.79753" lon="5.61605">
        <ele>309.201172</ele>
        <time>2013-06-06T07:19:40Z</time>
      </trkpt>
      <trkpt lat="46.7975" lon="5.61608">
        <ele>309.201172</ele>
        <time>2013-06-06T07:19:44Z</time>
      </trkpt>
      <trkpt lat="46.79744" lon="5.6162">
        <ele>309.681885</ele>
        <time>2013-06-06T07:19:52Z</time>
      </trkpt>
      <trkpt lat="46.79736" lon="5.61638">
        <ele>310.162476</ele>
        <time>2013-06-06T07:20:06Z</time>
      </trkpt>
      <trkpt lat="46.79732" lon="5.61657">
        <ele>311.123779</ele>
        <time>2013-06-06T07:20:19Z</time>
      </trkpt>
      <trkpt lat="46.7973" lon="5.61664">
        <ele>311.604492</ele>
        <time>2013-06-06T07:20:24Z</time>
      </trkpt>
      <trkpt lat="46.79722" lon="5.61692">
        <ele>313.046509</ele>
        <time>2013-06-06T07:20:44Z</time>
      </trkpt>
      <trkpt lat="46.79721" lon="5.61695">
        <ele>313.046509</ele>
        <time>2013-06-06T07:20:46Z</time>
      </trkpt>
      <trkpt lat="46.7971" lon="5.61741">
        <ele>314.969116</ele>
        <time>2013-06-06T07:21:11Z</time>
      </trkpt>
      <trkpt lat="46.79709" lon="5.61757">
        <ele>315.449829</ele>
        <time>2013-06-06T07:21:19Z</time>
      </trkpt>
      <trkpt lat="46.7971" lon="5.61769">
        <ele>315.93042</ele>
        <time>2013-06-06T07:21:26Z</time>
      </trkpt>
      <trkpt lat="46.79707" lon="5.61774">
        <ele>315.93042</ele>
        <time>2013-06-06T07:21:29Z</time>
      </trkpt>
      <trkpt lat="46.79708" lon="5.61782">
        <ele>316.411011</ele>
        <time>2013-06-06T07:21:34Z</time>
      </trkpt>
      <trkpt lat="46.79709" lon="5.61788">
        <ele>316.411011</ele>
        <time>2013-06-06T07:21:37Z</time>
      </trkpt>
      <trkpt lat="46.79711" lon="5.61793">
        <ele>316.891724</ele>
        <time>2013-06-06T07:21:40Z</time>
      </trkpt>
      <trkpt lat="46.79713" lon="5.61799">
        <ele>316.891724</ele>
        <time>2013-06-06T07:21:44Z</time>
      </trkpt>
      <trkpt lat="46.79712" lon="5.61828">
        <ele>317.853027</ele>
        <time>2013-06-06T07:22:00Z</time>
      </trkpt>
      <trkpt lat="46.79711" lon="5.61851">
        <ele>319.775635</ele>
        <time>2013-06-06T07:22:15Z</time>
      </trkpt>
      <trkpt lat="46.79713" lon="5.61853">
        <ele>319.775635</ele>
        <time>2013-06-06T07:22:18Z</time>
      </trkpt>
      <trkpt lat="46.79714" lon="5.61863">
        <ele>321.698364</ele>
        <time>2013-06-06T07:22:30Z</time>
      </trkpt>
      <trkpt lat="46.79712" lon="5.61864">
        <ele>321.698364</ele>
        <time>2013-06-06T07:22:32Z</time>
      </trkpt>
      <trkpt lat="46.79709" lon="5.6187">
        <ele>321.698364</ele>
        <time>2013-06-06T07:22:36Z</time>
      </trkpt>
      <trkpt lat="46.79702" lon="5.61872">
        <ele>322.178955</ele>
        <time>2013-06-06T07:22:43Z</time>
      </trkpt>
      <trkpt lat="46.79691" lon="5.61887">
        <ele>322.178955</ele>
        <time>2013-06-06T07:22:56Z</time>
      </trkpt>
      <trkpt lat="46.7969" lon="5.61889">
        <ele>322.178955</ele>
        <time>2013-06-06T07:22:58Z</time>
      </trkpt>
      <trkpt lat="46.79671" lon="5.61904">
        <ele>321.698364</ele>
        <time>2013-06-06T07:23:14Z</time>
      </trkpt>
      <trkpt lat="46.7967" lon="5.61905">
        <ele>321.698364</ele>
        <time>2013-06-06T07:23:15Z</time>
      </trkpt>
      <trkpt lat="46.79654" lon="5.61919">
        <ele>323.140381</ele>
        <time>2013-06-06T07:23:32Z</time>
      </trkpt>
      <trkpt lat="46.79647" lon="5.61929">
        <ele>324.101562</ele>
        <time>2013-06-06T07:23:45Z</time>
      </trkpt>
      <trkpt lat="46.79643" lon="5.61956">
        <ele>325.543579</ele>
        <time>2013-06-06T07:24:02Z</time>
      </trkpt>
      <trkpt lat="46.79633" lon="5.61981">
        <ele>326.504883</ele>
        <time>2013-06-06T07:24:16Z</time>
      </trkpt>
      <trkpt lat="46.79619" lon="5.61994">
        <ele>327.946777</ele>
        <time>2013-06-06T07:24:30Z</time>
      </trkpt>
      <trkpt lat="46.79609" lon="5.62006">
        <ele>330.35022</ele>
        <time>2013-06-06T07:24:45Z</time>
      </trkpt>
      <trkpt lat="46.79598" lon="5.62016">
        <ele>332.75354</ele>
        <time>2013-06-06T07:25:02Z</time>
      </trkpt>
      <trkpt lat="46.79593" lon="5.62041">
        <ele>335.637329</ele>
        <time>2013-06-06T07:25:20Z</time>
      </trkpt>
      <trkpt lat="46.7959" lon="5.62067">
        <ele>339.002075</ele>
        <time>2013-06-06T07:25:39Z</time>
      </trkpt>
      <trkpt lat="46.79587" lon="5.62073">
        <ele>339.963379</ele>
        <time>2013-06-06T07:25:45Z</time>
      </trkpt>
      <trkpt lat="46.79584" lon="5.62078">
        <ele>339.963379</ele>
        <time>2013-06-06T07:25:47Z</time>
      </trkpt>
      <trkpt lat="46.79575" lon="5.62087">
        <ele>341.405273</ele>
        <time>2013-06-06T07:25:55Z</time>
      </trkpt>
      <trkpt lat="46.79568" lon="5.62105">
        <ele>344.77002</ele>
        <time>2013-06-06T07:26:14Z</time>
      </trkpt>
      <trkpt lat="46.79558" lon="5.62121">
        <ele>347.173218</ele>
        <time>2013-06-06T07:26:31Z</time>
      </trkpt>
      <trkpt lat="46.79553" lon="5.62128">
        <ele>348.615234</ele>
        <time>2013-06-06T07:26:38Z</time>
      </trkpt>
      <trkpt lat="46.79537" lon="5.62141">
        <ele>351.018433</ele>
        <time>2013-06-06T07:26:53Z</time>
      </trkpt>
      <trkpt lat="46.79534" lon="5.62142">
        <ele>351.979858</ele>
        <time>2013-06-06T07:26:56Z</time>
      </trkpt>
      <trkpt lat="46.7953" lon="5.62142">
        <ele>352.460571</ele>
        <time>2013-06-06T07:27:02Z</time>
      </trkpt>
      <trkpt lat="46.79527" lon="5.62143">
        <ele>353.421875</ele>
        <time>2013-06-06T07:27:06Z</time>
      </trkpt>
      <trkpt lat="46.79516" lon="5.62145">
        <ele>356.305786</ele>
        <time>2013-06-06T07:27:21Z</time>
      </trkpt>
      <trkpt lat="46.79505" lon="5.62151">
        <ele>358.708984</ele>
        <time>2013-06-06T07:27:37Z</time>
      </trkpt>
      <trkpt lat="46.79499" lon="5.62159">
        <ele>360.151123</ele>
        <time>2013-06-06T07:27:52Z</time>
      </trkpt>
      <trkpt lat="46.79494" lon="5.62165">
        <ele>361.59314</ele>
        <time>2013-06-06T07:28:01Z</time>
      </trkpt>
      <trkpt lat="46.79486" lon="5.62177">
        <ele>363.996338</ele>
        <time>2013-06-06T07:28:16Z</time>
      </trkpt>
      <trkpt lat="46.7948" lon="5.62183">
        <ele>365.918945</ele>
        <time>2013-06-06T07:28:28Z</time>
      </trkpt>
      <trkpt lat="46.79469" lon="5.6218">
        <ele>366.880249</ele>
        <time>2013-06-06T07:28:42Z</time>
      </trkpt>
      <trkpt lat="46.79463" lon="5.62175">
        <ele>366.880249</ele>
        <time>2013-06-06T07:28:49Z</time>
      </trkpt>
      <trkpt lat="46.79459" lon="5.62171">
        <ele>366.880249</ele>
        <time>2013-06-06T07:28:54Z</time>
      </trkpt>
      <trkpt lat="46.79457" lon="5.62169">
        <ele>367.360962</ele>
        <time>2013-06-06T07:28:56Z</time>
      </trkpt>
      <trkpt lat="46.79454" lon="5.62167">
        <ele>366.880249</ele>
        <time>2013-06-06T07:28:59Z</time>
      </trkpt>
      <trkpt lat="46.79437" lon="5.62157">
        <ele>368.322266</ele>
        <time>2013-06-06T07:29:16Z</time>
      </trkpt>
      <trkpt lat="46.79411" lon="5.62137">
        <ele>368.802979</ele>
        <time>2013-06-06T07:29:38Z</time>
      </trkpt>
      <trkpt lat="46.79387" lon="5.62121">
        <ele>369.764282</ele>
        <time>2013-06-06T07:30:01Z</time>
      </trkpt>
      <trkpt lat="46.79363" lon="5.62105">
        <ele>371.206299</ele>
        <time>2013-06-06T07:30:22Z</time>
      </trkpt>
      <trkpt lat="46.79342" lon="5.62092">
        <ele>372.16748</ele>
        <time>2013-06-06T07:30:42Z</time>
      </trkpt>
      <trkpt lat="46.7933" lon="5.62086">
        <ele>372.16748</ele>
        <time>2013-06-06T07:30:58Z</time>
      </trkpt>
      <trkpt lat="46.79315" lon="5.62075">
        <ele>373.128906</ele>
        <time>2013-06-06T07:31:16Z</time>
      </trkpt>
      <trkpt lat="46.79298" lon="5.62066">
        <ele>373.609497</ele>
        <time>2013-06-06T07:31:31Z</time>
      </trkpt>
      <trkpt lat="46.79278" lon="5.62048">
        <ele>373.609497</ele>
        <time>2013-06-06T07:31:48Z</time>
      </trkpt>
      <trkpt lat="46.79259" lon="5.6203">
        <ele>370.725586</ele>
        <time>2013-06-06T07:32:04Z</time>
      </trkpt>
      <trkpt lat="46.79255" lon="5.62029">
        <ele>370.725586</ele>
        <time>2013-06-06T07:32:08Z</time>
      </trkpt>
      <trkpt lat="46.79249" lon="5.62022">
        <ele>369.764282</ele>
        <time>2013-06-06T07:32:16Z</time>
      </trkpt>
      <trkpt lat="46.79246" lon="5.62021">
        <ele>369.764282</ele>
        <time>2013-06-06T07:32:19Z</time>
      </trkpt>
      <trkpt lat="46.79231" lon="5.62015">
        <ele>369.764282</ele>
        <time>2013-06-06T07:32:36Z</time>
      </trkpt>
      <trkpt lat="46.7922" lon="5.62012">
        <ele>369.764282</ele>
        <time>2013-06-06T07:32:51Z</time>
      </trkpt>
      <trkpt lat="46.792" lon="5.62004">
        <ele>370.244873</ele>
        <time>2013-06-06T07:33:06Z</time>
      </trkpt>
      <trkpt lat="46.79171" lon="5.61995">
        <ele>370.244873</ele>
        <time>2013-06-06T07:33:29Z</time>
      </trkpt>
      <trkpt lat="46.79149" lon="5.61985">
        <ele>370.244873</ele>
        <time>2013-06-06T07:33:47Z</time>
      </trkpt>
      <trkpt lat="46.79144" lon="5.6198">
        <ele>370.244873</ele>
        <time>2013-06-06T07:33:52Z</time>
      </trkpt>
      <trkpt lat="46.7914" lon="5.61967">
        <ele>369.283691</ele>
        <time>2013-06-06T07:34:03Z</time>
      </trkpt>
      <trkpt lat="46.79142" lon="5.61942">
        <ele>366.880249</ele>
        <time>2013-06-06T07:34:23Z</time>
      </trkpt>
      <trkpt lat="46.79141" lon="5.61925">
        <ele>364.957642</ele>
        <time>2013-06-06T07:34:34Z</time>
      </trkpt>
      <trkpt lat="46.79137" lon="5.61926">
        <ele>364.957642</ele>
        <time>2013-06-06T07:34:39Z</time>
      </trkpt>
      <trkpt lat="46.79125" lon="5.6193">
        <ele>366.399536</ele>
        <time>2013-06-06T07:34:51Z</time>
      </trkpt>
      <trkpt lat="46.7911" lon="5.61933">
        <ele>366.399536</ele>
        <time>2013-06-06T07:35:07Z</time>
      </trkpt>
      <trkpt lat="46.79094" lon="5.61933">
        <ele>366.880249</ele>
        <time>2013-06-06T07:35:25Z</time>
      </trkpt>
      <trkpt lat="46.79083" lon="5.61933">
        <ele>367.360962</ele>
        <time>2013-06-06T07:35:44Z</time>
      </trkpt>
      <trkpt lat="46.79076" lon="5.61937">
        <ele>367.841553</ele>
        <time>2013-06-06T07:36:05Z</time>
      </trkpt>
      <trkpt lat="46.7907" lon="5.61939">
        <ele>368.322266</ele>
        <time>2013-06-06T07:36:22Z</time>
      </trkpt>
      <trkpt lat="46.79057" lon="5.61946">
        <ele>368.802979</ele>
        <time>2013-06-06T07:36:38Z</time>
      </trkpt>
      <trkpt lat="46.79041" lon="5.61952">
        <ele>369.764282</ele>
        <time>2013-06-06T07:36:55Z</time>
      </trkpt>
      <trkpt lat="46.79034" lon="5.61954">
        <ele>370.725586</ele>
        <time>2013-06-06T07:37:03Z</time>
      </trkpt>
      <trkpt lat="46.79012" lon="5.61965">
        <ele>372.648193</ele>
        <time>2013-06-06T07:37:28Z</time>
      </trkpt>
      <trkpt lat="46.78999" lon="5.61973">
        <ele>373.609497</ele>
        <time>2013-06-06T07:37:42Z</time>
      </trkpt>
      <trkpt lat="46.78983" lon="5.61979">
        <ele>374.570801</ele>
        <time>2013-06-06T07:37:56Z</time>
      </trkpt>
      <trkpt lat="46.78973" lon="5.61983">
        <ele>375.051514</ele>
        <time>2013-06-06T07:38:05Z</time>
      </trkpt>
      <trkpt lat="46.7896" lon="5.61984">
        <ele>375.532104</ele>
        <time>2013-06-06T07:38:19Z</time>
      </trkpt>
      <trkpt lat="46.78955" lon="5.61986">
        <ele>376.012817</ele>
        <time>2013-06-06T07:38:37Z</time>
      </trkpt>
      <trkpt lat="46.78944" lon="5.61988">
        <ele>376.49353</ele>
        <time>2013-06-06T07:38:54Z</time>
      </trkpt>
      <trkpt lat="46.7893" lon="5.61988">
        <ele>377.454834</ele>
        <time>2013-06-06T07:39:07Z</time>
      </trkpt>
      <trkpt lat="46.78915" lon="5.61986">
        <ele>377.935425</ele>
        <time>2013-06-06T07:39:21Z</time>
      </trkpt>
      <trkpt lat="46.7889" lon="5.61987">
        <ele>380.338745</ele>
        <time>2013-06-06T07:39:44Z</time>
      </trkpt>
      <trkpt lat="46.78877" lon="5.61981">
        <ele>381.300049</ele>
        <time>2013-06-06T07:39:58Z</time>
      </trkpt>
      <trkpt lat="46.78856" lon="5.61979">
        <ele>381.78064</ele>
        <time>2013-06-06T07:40:16Z</time>
      </trkpt>
      <trkpt lat="46.78843" lon="5.61975">
        <ele>383.222656</ele>
        <time>2013-06-06T07:40:29Z</time>
      </trkpt>
      <trkpt lat="46.78839" lon="5.61975">
        <ele>383.703247</ele>
        <time>2013-06-06T07:40:33Z</time>
      </trkpt>
      <trkpt lat="46.78814" lon="5.61967">
        <ele>384.184082</ele>
        <time>2013-06-06T07:40:53Z</time>
      </trkpt>
      <trkpt lat="46.78807" lon="5.61963">
        <ele>384.184082</ele>
        <time>2013-06-06T07:41:04Z</time>
      </trkpt>
      <trkpt lat="46.78791" lon="5.61955">
        <ele>383.703247</ele>
        <time>2013-06-06T07:41:19Z</time>
      </trkpt>
      <trkpt lat="46.78785" lon="5.61951">
        <ele>383.703247</ele>
        <time>2013-06-06T07:41:24Z</time>
      </trkpt>
      <trkpt lat="46.78774" lon="5.61943">
        <ele>383.703247</ele>
        <time>2013-06-06T07:41:33Z</time>
      </trkpt>
      <trkpt lat="46.78766" lon="5.61935">
        <ele>381.78064</ele>
        <time>2013-06-06T07:41:40Z</time>
      </trkpt>
      <trkpt lat="46.78764" lon="5.61931">
        <ele>383.222656</ele>
        <time>2013-06-06T07:41:42Z</time>
      </trkpt>
      <trkpt lat="46.78745" lon="5.61924">
        <ele>383.222656</ele>
        <time>2013-06-06T07:41:56Z</time>
      </trkpt>
      <trkpt lat="46.7873" lon="5.61923">
        <ele>385.145386</ele>
        <time>2013-06-06T07:42:11Z</time>
      </trkpt>
      <trkpt lat="46.78722" lon="5.61926">
        <ele>386.587402</ele>
        <time>2013-06-06T07:42:20Z</time>
      </trkpt>
      <trkpt lat="46.7871" lon="5.61927">
        <ele>388.51001</ele>
        <time>2013-06-06T07:42:36Z</time>
      </trkpt>
      <trkpt lat="46.787" lon="5.61917">
        <ele>391.874512</ele>
        <time>2013-06-06T07:42:56Z</time>
      </trkpt>
      <trkpt lat="46.78692" lon="5.61917">
        <ele>393.316528</ele>
        <time>2013-06-06T07:43:25Z</time>
      </trkpt>
      <trkpt lat="46.78689" lon="5.61915">
        <ele>394.277954</ele>
        <time>2013-06-06T07:43:30Z</time>
      </trkpt>
      <trkpt lat="46.78674" lon="5.61897">
        <ele>397.161743</ele>
        <time>2013-06-06T07:43:53Z</time>
      </trkpt>
      <trkpt lat="46.78664" lon="5.6188">
        <ele>400.045898</ele>
        <time>2013-06-06T07:44:18Z</time>
      </trkpt>
      <trkpt lat="46.78655" lon="5.61868">
        <ele>400.526489</ele>
        <time>2013-06-06T07:44:37Z</time>
      </trkpt>
      <trkpt lat="46.78655" lon="5.61864">
        <ele>400.526489</ele>
        <time>2013-06-06T07:45:08Z</time>
      </trkpt>
      <trkpt lat="46.78654" lon="5.61866">
        <ele>400.045898</ele>
        <time>2013-06-06T07:45:52Z</time>
      </trkpt>
      <trkpt lat="46.78654" lon="5.61866">
        <ele>399.565063</ele>
        <time>2013-06-06T07:46:36Z</time>
      </trkpt>
      <trkpt lat="46.78656" lon="5.6188">
        <ele>400.045898</ele>
        <time>2013-06-06T07:46:49Z</time>
      </trkpt>
      <trkpt lat="46.78661" lon="5.61895">
        <ele>401.00708</ele>
        <time>2013-06-06T07:47:08Z</time>
      </trkpt>
      <trkpt lat="46.78669" lon="5.61916">
        <ele>402.929688</ele>
        <time>2013-06-06T07:47:35Z</time>
      </trkpt>
      <trkpt lat="46.78675" lon="5.61935">
        <ele>402.449097</ele>
        <time>2013-06-06T07:47:56Z</time>
      </trkpt>
      <trkpt lat="46.78678" lon="5.61947">
        <ele>401.968506</ele>
        <time>2013-06-06T07:48:06Z</time>
      </trkpt>
      <trkpt lat="46.78686" lon="5.61983">
        <ele>401.00708</ele>
        <time>2013-06-06T07:48:31Z</time>
      </trkpt>
      <trkpt lat="46.78692" lon="5.6202">
        <ele>401.487793</ele>
        <time>2013-06-06T07:48:52Z</time>
      </trkpt>
      <trkpt lat="46.78702" lon="5.62042">
        <ele>404.852295</ele>
        <time>2013-06-06T07:49:11Z</time>
      </trkpt>
      <trkpt lat="46.78698" lon="5.62072">
        <ele>407.736328</ele>
        <time>2013-06-06T07:49:31Z</time>
      </trkpt>
      <trkpt lat="46.787" lon="5.62091">
        <ele>409.178345</ele>
        <time>2013-06-06T07:49:48Z</time>
      </trkpt>
      <trkpt lat="46.78692" lon="5.62077">
        <ele>410.139648</ele>
        <time>2013-06-06T07:50:03Z</time>
      </trkpt>
      <trkpt lat="46.78686" lon="5.62075">
        <ele>410.139648</ele>
        <time>2013-06-06T07:50:09Z</time>
      </trkpt>
      <trkpt lat="46.78671" lon="5.62041">
        <ele>409.659058</ele>
        <time>2013-06-06T07:50:25Z</time>
      </trkpt>
      <trkpt lat="46.78666" lon="5.6203">
        <ele>409.659058</ele>
        <time>2013-06-06T07:50:32Z</time>
      </trkpt>
      <trkpt lat="46.78665" lon="5.62028">
        <ele>409.659058</ele>
        <time>2013-06-06T07:50:35Z</time>
      </trkpt>
      <trkpt lat="46.78663" lon="5.62019">
        <ele>409.659058</ele>
        <time>2013-06-06T07:50:40Z</time>
      </trkpt>
      <trkpt lat="46.78661" lon="5.62015">
        <ele>409.659058</ele>
        <time>2013-06-06T07:50:42Z</time>
      </trkpt>
      <trkpt lat="46.78648" lon="5.61989">
        <ele>410.139648</ele>
        <time>2013-06-06T07:51:02Z</time>
      </trkpt>
      <trkpt lat="46.78643" lon="5.61991">
        <ele>410.139648</ele>
        <time>2013-06-06T07:51:08Z</time>
      </trkpt>
      <trkpt lat="46.7862" lon="5.62003">
        <ele>408.217041</ele>
        <time>2013-06-06T07:51:29Z</time>
      </trkpt>
      <trkpt lat="46.78612" lon="5.62">
        <ele>407.255615</ele>
        <time>2013-06-06T07:51:35Z</time>
      </trkpt>
      <trkpt lat="46.78589" lon="5.62005">
        <ele>404.852295</ele>
        <time>2013-06-06T07:51:51Z</time>
      </trkpt>
      <trkpt lat="46.78573" lon="5.62013">
        <ele>402.929688</ele>
        <time>2013-06-06T07:52:03Z</time>
      </trkpt>
      <trkpt lat="46.78561" lon="5.62021">
        <ele>401.487793</ele>
        <time>2013-06-06T07:52:13Z</time>
      </trkpt>
      <trkpt lat="46.78556" lon="5.62027">
        <ele>401.00708</ele>
        <time>2013-06-06T07:52:18Z</time>
      </trkpt>
      <trkpt lat="46.78557" lon="5.62035">
        <ele>400.526489</ele>
        <time>2013-06-06T07:52:24Z</time>
      </trkpt>
      <trkpt lat="46.78554" lon="5.6204">
        <ele>400.045898</ele>
        <time>2013-06-06T07:52:28Z</time>
      </trkpt>
      <trkpt lat="46.78553" lon="5.62042">
        <ele>399.565063</ele>
        <time>2013-06-06T07:52:30Z</time>
      </trkpt>
      <trkpt lat="46.78547" lon="5.62051">
        <ele>399.565063</ele>
        <time>2013-06-06T07:52:37Z</time>
      </trkpt>
      <trkpt lat="46.78545" lon="5.62064">
        <ele>398.60376</ele>
        <time>2013-06-06T07:52:45Z</time>
      </trkpt>
      <trkpt lat="46.78546" lon="5.62078">
        <ele>397.161743</ele>
        <time>2013-06-06T07:52:54Z</time>
      </trkpt>
      <trkpt lat="46.78547" lon="5.62081">
        <ele>397.161743</ele>
        <time>2013-06-06T07:52:56Z</time>
      </trkpt>
      <trkpt lat="46.78547" lon="5.62086">
        <ele>396.681152</ele>
        <time>2013-06-06T07:52:59Z</time>
      </trkpt>
      <trkpt lat="46.78546" lon="5.62092">
        <ele>396.200562</ele>
        <time>2013-06-06T07:53:03Z</time>
      </trkpt>
      <trkpt lat="46.78544" lon="5.621">
        <ele>395.719849</ele>
        <time>2013-06-06T07:53:08Z</time>
      </trkpt>
      <trkpt lat="46.78544" lon="5.62105">
        <ele>395.719849</ele>
        <time>2013-06-06T07:53:11Z</time>
      </trkpt>
      <trkpt lat="46.78537" lon="5.62129">
        <ele>394.277954</ele>
        <time>2013-06-06T07:53:26Z</time>
      </trkpt>
      <trkpt lat="46.78531" lon="5.62151">
        <ele>393.316528</ele>
        <time>2013-06-06T07:53:39Z</time>
      </trkpt>
      <trkpt lat="46.78524" lon="5.62167">
        <ele>392.355347</ele>
        <time>2013-06-06T07:53:51Z</time>
      </trkpt>
      <trkpt lat="46.78523" lon="5.62171">
        <ele>392.355347</ele>
        <time>2013-06-06T07:53:55Z</time>
      </trkpt>
      <trkpt lat="46.78512" lon="5.62196">
        <ele>391.874512</ele>
        <time>2013-06-06T07:54:10Z</time>
      </trkpt>
      <trkpt lat="46.78511" lon="5.6222">
        <ele>391.874512</ele>
        <time>2013-06-06T07:54:29Z</time>
      </trkpt>
      <trkpt lat="46.78501" lon="5.62233">
        <ele>390.913208</ele>
        <time>2013-06-06T07:54:48Z</time>
      </trkpt>
      <trkpt lat="46.78485" lon="5.62248">
        <ele>390.913208</ele>
        <time>2013-06-06T07:55:15Z</time>
      </trkpt>
      <trkpt lat="46.78483" lon="5.6225">
        <ele>391.874512</ele>
        <time>2013-06-06T07:55:56Z</time>
      </trkpt>
      <trkpt lat="46.78502" lon="5.62277">
        <ele>392.835938</ele>
        <time>2013-06-06T07:57:47Z</time>
      </trkpt>
      <trkpt lat="46.78513" lon="5.62253">
        <ele>394.758545</ele>
        <time>2013-06-06T08:00:36Z</time>
      </trkpt>
      <trkpt lat="46.78518" lon="5.62241">
        <ele>395.719849</ele>
        <time>2013-06-06T08:00:46Z</time>
      </trkpt>
      <trkpt lat="46.7852" lon="5.62209">
        <ele>395.719849</ele>
        <time>2013-06-06T08:01:01Z</time>
      </trkpt>
      <trkpt lat="46.78533" lon="5.62184">
        <ele>396.200562</ele>
        <time>2013-06-06T08:01:17Z</time>
      </trkpt>
      <trkpt lat="46.78535" lon="5.62174">
        <ele>396.200562</ele>
        <time>2013-06-06T08:01:23Z</time>
      </trkpt>
      <trkpt lat="46.78536" lon="5.62162">
        <ele>396.681152</ele>
        <time>2013-06-06T08:01:31Z</time>
      </trkpt>
      <trkpt lat="46.78544" lon="5.62142">
        <ele>397.642456</ele>
        <time>2013-06-06T08:01:46Z</time>
      </trkpt>
      <trkpt lat="46.78548" lon="5.62106">
        <ele>399.565063</ele>
        <time>2013-06-06T08:02:07Z</time>
      </trkpt>
      <trkpt lat="46.78556" lon="5.6207">
        <ele>402.929688</ele>
        <time>2013-06-06T08:02:30Z</time>
      </trkpt>
      <trkpt lat="46.78557" lon="5.62063">
        <ele>402.929688</ele>
        <time>2013-06-06T08:02:34Z</time>
      </trkpt>
      <trkpt lat="46.78568" lon="5.62043">
        <ele>404.852295</ele>
        <time>2013-06-06T08:02:52Z</time>
      </trkpt>
      <trkpt lat="46.78574" lon="5.6204">
        <ele>405.813721</ele>
        <time>2013-06-06T08:02:59Z</time>
      </trkpt>
      <trkpt lat="46.7859" lon="5.62028">
        <ele>408.697632</ele>
        <time>2013-06-06T08:03:16Z</time>
      </trkpt>
      <trkpt lat="46.78601" lon="5.62006">
        <ele>411.100952</ele>
        <time>2013-06-06T08:03:35Z</time>
      </trkpt>
      <trkpt lat="46.78617" lon="5.61996">
        <ele>414.465454</ele>
        <time>2013-06-06T08:03:51Z</time>
      </trkpt>
      <trkpt lat="46.78641" lon="5.61985">
        <ele>415.42688</ele>
        <time>2013-06-06T08:04:18Z</time>
      </trkpt>
      <trkpt lat="46.78641" lon="5.61977">
        <ele>415.907471</ele>
        <time>2013-06-06T08:04:35Z</time>
      </trkpt>
      <trkpt lat="46.78638" lon="5.6197">
        <ele>415.907471</ele>
        <time>2013-06-06T08:04:40Z</time>
      </trkpt>
      <trkpt lat="46.78635" lon="5.61955">
        <ele>416.388184</ele>
        <time>2013-06-06T08:04:57Z</time>
      </trkpt>
      <trkpt lat="46.7863" lon="5.61945">
        <ele>417.349609</ele>
        <time>2013-06-06T08:05:21Z</time>
      </trkpt>
      <trkpt lat="46.78628" lon="5.61929">
        <ele>417.349609</ele>
        <time>2013-06-06T08:05:50Z</time>
      </trkpt>
      <trkpt lat="46.78626" lon="5.61904">
        <ele>417.8302</ele>
        <time>2013-06-06T08:06:13Z</time>
      </trkpt>
      <trkpt lat="46.7861" lon="5.61906">
        <ele>417.8302</ele>
        <time>2013-06-06T08:06:20Z</time>
      </trkpt>
      <trkpt lat="46.78613" lon="5.61886">
        <ele>417.8302</ele>
        <time>2013-06-06T08:06:35Z</time>
      </trkpt>
      <trkpt lat="46.78619" lon="5.61876">
        <ele>418.310791</ele>
        <time>2013-06-06T08:06:57Z</time>
      </trkpt>
      <trkpt lat="46.78616" lon="5.61866">
        <ele>420.714111</ele>
        <time>2013-06-06T08:11:04Z</time>
      </trkpt>
      <trkpt lat="46.78592" lon="5.61882">
        <ele>420.233398</ele>
        <time>2013-06-06T08:11:25Z</time>
      </trkpt>
      <trkpt lat="46.78578" lon="5.61869">
        <ele>418.310791</ele>
        <time>2013-06-06T08:11:38Z</time>
      </trkpt>
      <trkpt lat="46.78576" lon="5.6186">
        <ele>417.349609</ele>
        <time>2013-06-06T08:11:45Z</time>
      </trkpt>
      <trkpt lat="46.78564" lon="5.61842">
        <ele>416.388184</ele>
        <time>2013-06-06T08:12:00Z</time>
      </trkpt>
      <trkpt lat="46.78569" lon="5.61823">
        <ele>415.907471</ele>
        <time>2013-06-06T08:12:16Z</time>
      </trkpt>
      <trkpt lat="46.7857" lon="5.6182">
        <ele>415.907471</ele>
        <time>2013-06-06T08:12:19Z</time>
      </trkpt>
      <trkpt lat="46.7858" lon="5.61824">
        <ele>415.907471</ele>
        <time>2013-06-06T08:12:23Z</time>
      </trkpt>
      <trkpt lat="46.78587" lon="5.61826">
        <ele>415.42688</ele>
        <time>2013-06-06T08:12:34Z</time>
      </trkpt>
      <trkpt lat="46.78587" lon="5.61817">
        <ele>414.465454</ele>
        <time>2013-06-06T08:12:46Z</time>
      </trkpt>
      <trkpt lat="46.78588" lon="5.61818">
        <ele>413.984863</ele>
        <time>2013-06-06T08:12:51Z</time>
      </trkpt>
      <trkpt lat="46.78601" lon="5.61811">
        <ele>412.062256</ele>
        <time>2013-06-06T08:13:06Z</time>
      </trkpt>
      <trkpt lat="46.78608" lon="5.61811">
        <ele>411.100952</ele>
        <time>2013-06-06T08:13:29Z</time>
      </trkpt>
      <trkpt lat="46.78609" lon="5.61809">
        <ele>409.659058</ele>
        <time>2013-06-06T08:13:46Z</time>
      </trkpt>
      <trkpt lat="46.78606" lon="5.61806">
        <ele>409.659058</ele>
        <time>2013-06-06T08:13:51Z</time>
      </trkpt>
      <trkpt lat="46.78599" lon="5.61791">
        <ele>409.178345</ele>
        <time>2013-06-06T08:14:05Z</time>
      </trkpt>
      <trkpt lat="46.78592" lon="5.61786">
        <ele>409.178345</ele>
        <time>2013-06-06T08:14:19Z</time>
      </trkpt>
      <trkpt lat="46.7858" lon="5.61763">
        <ele>408.697632</ele>
        <time>2013-06-06T08:14:34Z</time>
      </trkpt>
      <trkpt lat="46.78576" lon="5.61774">
        <ele>409.659058</ele>
        <time>2013-06-06T08:14:55Z</time>
      </trkpt>
      <trkpt lat="46.78574" lon="5.61776">
        <ele>409.659058</ele>
        <time>2013-06-06T08:14:57Z</time>
      </trkpt>
      <trkpt lat="46.78579" lon="5.61788">
        <ele>409.659058</ele>
        <time>2013-06-06T08:15:19Z</time>
      </trkpt>
      <trkpt lat="46.78585" lon="5.6178">
        <ele>409.659058</ele>
        <time>2013-06-06T08:15:47Z</time>
      </trkpt>
      <trkpt lat="46.78568" lon="5.61758">
        <ele>408.217041</ele>
        <time>2013-06-06T08:16:15Z</time>
      </trkpt>
      <trkpt lat="46.78569" lon="5.61755">
        <ele>407.736328</ele>
        <time>2013-06-06T08:16:39Z</time>
      </trkpt>
      <trkpt lat="46.78565" lon="5.6175">
        <ele>407.255615</ele>
        <time>2013-06-06T08:17:22Z</time>
      </trkpt>
      <trkpt lat="46.78565" lon="5.61742">
        <ele>406.774902</ele>
        <time>2013-06-06T08:18:02Z</time>
      </trkpt>
      <trkpt lat="46.78567" lon="5.61745">
        <ele>406.774902</ele>
        <time>2013-06-06T08:18:23Z</time>
      </trkpt>
      <trkpt lat="46.78567" lon="5.61745">
        <ele>406.774902</ele>
        <time>2013-06-06T08:18:57Z</time>
      </trkpt>
      <trkpt lat="46.78553" lon="5.6173">
        <ele>406.294312</ele>
        <time>2013-06-06T08:19:13Z</time>
      </trkpt>
      <trkpt lat="46.78552" lon="5.61728">
        <ele>406.294312</ele>
        <time>2013-06-06T08:19:15Z</time>
      </trkpt>
      <trkpt lat="46.78536" lon="5.61708">
        <ele>405.813721</ele>
        <time>2013-06-06T08:19:33Z</time>
      </trkpt>
      <trkpt lat="46.78522" lon="5.61693">
        <ele>404.852295</ele>
        <time>2013-06-06T08:19:48Z</time>
      </trkpt>
      <trkpt lat="46.78517" lon="5.6169">
        <ele>404.371704</ele>
        <time>2013-06-06T08:19:54Z</time>
      </trkpt>
      <trkpt lat="46.78511" lon="5.61687">
        <ele>403.891113</ele>
        <time>2013-06-06T08:19:58Z</time>
      </trkpt>
      <trkpt lat="46.78495" lon="5.61678">
        <ele>403.891113</ele>
        <time>2013-06-06T08:20:14Z</time>
      </trkpt>
      <trkpt lat="46.78484" lon="5.61674">
        <ele>403.4104</ele>
        <time>2013-06-06T08:20:22Z</time>
      </trkpt>
      <trkpt lat="46.78469" lon="5.61669">
        <ele>402.929688</ele>
        <time>2013-06-06T08:20:34Z</time>
      </trkpt>
      <trkpt lat="46.78457" lon="5.61658">
        <ele>400.045898</ele>
        <time>2013-06-06T08:20:50Z</time>
      </trkpt>
      <trkpt lat="46.78441" lon="5.61641">
        <ele>397.161743</ele>
        <time>2013-06-06T08:21:09Z</time>
      </trkpt>
      <trkpt lat="46.78443" lon="5.61625">
        <ele>393.797241</ele>
        <time>2013-06-06T08:21:24Z</time>
      </trkpt>
      <trkpt lat="46.78441" lon="5.61608">
        <ele>391.393799</ele>
        <time>2013-06-06T08:21:33Z</time>
      </trkpt>
      <trkpt lat="46.7844" lon="5.61603">
        <ele>390.913208</ele>
        <time>2013-06-06T08:21:35Z</time>
      </trkpt>
      <trkpt lat="46.78431" lon="5.61591">
        <ele>387.548584</ele>
        <time>2013-06-06T08:21:49Z</time>
      </trkpt>
      <trkpt lat="46.78423" lon="5.61587">
        <ele>384.664795</ele>
        <time>2013-06-06T08:22:02Z</time>
      </trkpt>
      <trkpt lat="46.78411" lon="5.61575">
        <ele>381.78064</ele>
        <time>2013-06-06T08:22:15Z</time>
      </trkpt>
      <trkpt lat="46.78408" lon="5.6157">
        <ele>380.819458</ele>
        <time>2013-06-06T08:22:18Z</time>
      </trkpt>
      <trkpt lat="46.78397" lon="5.61565">
        <ele>378.416138</ele>
        <time>2013-06-06T08:22:29Z</time>
      </trkpt>
      <trkpt lat="46.7839" lon="5.61559">
        <ele>375.051514</ele>
        <time>2013-06-06T08:22:42Z</time>
      </trkpt>
      <trkpt lat="46.78386" lon="5.61558">
        <ele>374.090088</ele>
        <time>2013-06-06T08:22:45Z</time>
      </trkpt>
      <trkpt lat="46.78373" lon="5.6155">
        <ele>371.206299</ele>
        <time>2013-06-06T08:22:58Z</time>
      </trkpt>
      <trkpt lat="46.7836" lon="5.61551">
        <ele>368.802979</ele>
        <time>2013-06-06T08:23:11Z</time>
      </trkpt>
      <trkpt lat="46.78356" lon="5.61566">
        <ele>365.918945</ele>
        <time>2013-06-06T08:23:23Z</time>
      </trkpt>
      <trkpt lat="46.78363" lon="5.61584">
        <ele>363.035034</ele>
        <time>2013-06-06T08:23:36Z</time>
      </trkpt>
      <trkpt lat="46.78371" lon="5.61604">
        <ele>359.67041</ele>
        <time>2013-06-06T08:23:54Z</time>
      </trkpt>
      <trkpt lat="46.78384" lon="5.61628">
        <ele>356.786377</ele>
        <time>2013-06-06T08:24:16Z</time>
      </trkpt>
      <trkpt lat="46.78382" lon="5.61656">
        <ele>353.902588</ele>
        <time>2013-06-06T08:24:30Z</time>
      </trkpt>
      <trkpt lat="46.78369" lon="5.61676">
        <ele>351.018433</ele>
        <time>2013-06-06T08:24:44Z</time>
      </trkpt>
      <trkpt lat="46.78362" lon="5.6169">
        <ele>349.576538</ele>
        <time>2013-06-06T08:24:56Z</time>
      </trkpt>
      <trkpt lat="46.78361" lon="5.61687">
        <ele>349.095825</ele>
        <time>2013-06-06T08:24:58Z</time>
      </trkpt>
      <trkpt lat="46.78359" lon="5.61677">
        <ele>348.134644</ele>
        <time>2013-06-06T08:25:14Z</time>
      </trkpt>
      <trkpt lat="46.78358" lon="5.61675">
        <ele>348.134644</ele>
        <time>2013-06-06T08:25:15Z</time>
      </trkpt>
      <trkpt lat="46.78355" lon="5.61667">
        <ele>347.653931</ele>
        <time>2013-06-06T08:25:21Z</time>
      </trkpt>
      <trkpt lat="46.78345" lon="5.61639">
        <ele>346.692627</ele>
        <time>2013-06-06T08:25:36Z</time>
      </trkpt>
      <trkpt lat="46.7834" lon="5.61625">
        <ele>345.731323</ele>
        <time>2013-06-06T08:25:45Z</time>
      </trkpt>
      <trkpt lat="46.78339" lon="5.61628">
        <ele>344.77002</ele>
        <time>2013-06-06T08:25:53Z</time>
      </trkpt>
      <trkpt lat="46.78337" lon="5.61633">
        <ele>344.77002</ele>
        <time>2013-06-06T08:25:55Z</time>
      </trkpt>
      <trkpt lat="46.78328" lon="5.61643">
        <ele>343.327881</ele>
        <time>2013-06-06T08:26:11Z</time>
      </trkpt>
      <trkpt lat="46.78318" lon="5.61648">
        <ele>343.808594</ele>
        <time>2013-06-06T08:26:22Z</time>
      </trkpt>
      <trkpt lat="46.78298" lon="5.61643">
        <ele>341.885986</ele>
        <time>2013-06-06T08:26:42Z</time>
      </trkpt>
      <trkpt lat="46.7829" lon="5.6163">
        <ele>340.924683</ele>
        <time>2013-06-06T08:26:55Z</time>
      </trkpt>
      <trkpt lat="46.78282" lon="5.61616">
        <ele>339.963379</ele>
        <time>2013-06-06T08:27:10Z</time>
      </trkpt>
      <trkpt lat="46.78273" lon="5.61604">
        <ele>338.521484</ele>
        <time>2013-06-06T08:27:26Z</time>
      </trkpt>
      <trkpt lat="46.78264" lon="5.61596">
        <ele>338.521484</ele>
        <time>2013-06-06T08:27:38Z</time>
      </trkpt>
      <trkpt lat="46.78255" lon="5.61594">
        <ele>339.963379</ele>
        <time>2013-06-06T08:27:58Z</time>
      </trkpt>
      <trkpt lat="46.7824" lon="5.616">
        <ele>340.924683</ele>
        <time>2013-06-06T08:28:13Z</time>
      </trkpt>
      <trkpt lat="46.78227" lon="5.61601">
        <ele>343.327881</ele>
        <time>2013-06-06T08:28:31Z</time>
      </trkpt>
      <trkpt lat="46.78215" lon="5.61596">
        <ele>345.731323</ele>
        <time>2013-06-06T08:28:46Z</time>
      </trkpt>
      <trkpt lat="46.78203" lon="5.61591">
        <ele>348.615234</ele>
        <time>2013-06-06T08:29:06Z</time>
      </trkpt>
      <trkpt lat="46.78186" lon="5.61571">
        <ele>351.018433</ele>
        <time>2013-06-06T08:29:24Z</time>
      </trkpt>
      <trkpt lat="46.78177" lon="5.61555">
        <ele>351.979858</ele>
        <time>2013-06-06T08:29:40Z</time>
      </trkpt>
      <trkpt lat="46.78173" lon="5.6155">
        <ele>351.979858</ele>
        <time>2013-06-06T08:29:45Z</time>
      </trkpt>
      <trkpt lat="46.78161" lon="5.6154">
        <ele>353.421875</ele>
        <time>2013-06-06T08:30:00Z</time>
      </trkpt>
      <trkpt lat="46.78149" lon="5.61531">
        <ele>354.86377</ele>
        <time>2013-06-06T08:30:17Z</time>
      </trkpt>
      <trkpt lat="46.78134" lon="5.61516">
        <ele>356.786377</ele>
        <time>2013-06-06T08:30:37Z</time>
      </trkpt>
      <trkpt lat="46.78124" lon="5.61511">
        <ele>358.228394</ele>
        <time>2013-06-06T08:30:50Z</time>
      </trkpt>
      <trkpt lat="46.78111" lon="5.61504">
        <ele>360.631714</ele>
        <time>2013-06-06T08:31:09Z</time>
      </trkpt>
      <trkpt lat="46.781" lon="5.61504">
        <ele>362.554321</ele>
        <time>2013-06-06T08:31:27Z</time>
      </trkpt>
      <trkpt lat="46.78088" lon="5.61504">
        <ele>365.918945</ele>
        <time>2013-06-06T08:31:42Z</time>
      </trkpt>
      <trkpt lat="46.78076" lon="5.61522">
        <ele>366.399536</ele>
        <time>2013-06-06T08:31:59Z</time>
      </trkpt>
      <trkpt lat="46.78071" lon="5.61515">
        <ele>366.880249</ele>
        <time>2013-06-06T08:32:06Z</time>
      </trkpt>
      <trkpt lat="46.78053" lon="5.615">
        <ele>368.322266</ele>
        <time>2013-06-06T08:32:26Z</time>
      </trkpt>
      <trkpt lat="46.78047" lon="5.61495">
        <ele>368.802979</ele>
        <time>2013-06-06T08:32:37Z</time>
      </trkpt>
      <trkpt lat="46.78029" lon="5.6149">
        <ele>369.764282</ele>
        <time>2013-06-06T08:32:53Z</time>
      </trkpt>
      <trkpt lat="46.78001" lon="5.61484">
        <ele>372.16748</ele>
        <time>2013-06-06T08:33:17Z</time>
      </trkpt>
      <trkpt lat="46.77972" lon="5.61481">
        <ele>373.609497</ele>
        <time>2013-06-06T08:33:39Z</time>
      </trkpt>
      <trkpt lat="46.7795" lon="5.61478">
        <ele>375.051514</ele>
        <time>2013-06-06T08:33:56Z</time>
      </trkpt>
      <trkpt lat="46.77923" lon="5.61469">
        <ele>376.974243</ele>
        <time>2013-06-06T08:34:18Z</time>
      </trkpt>
      <trkpt lat="46.77921" lon="5.61468">
        <ele>376.974243</ele>
        <time>2013-06-06T08:34:19Z</time>
      </trkpt>
      <trkpt lat="46.77923" lon="5.61453">
        <ele>378.416138</ele>
        <time>2013-06-06T08:34:32Z</time>
      </trkpt>
      <trkpt lat="46.77929" lon="5.61439">
        <ele>378.416138</ele>
        <time>2013-06-06T08:34:44Z</time>
      </trkpt>
      <trkpt lat="46.77937" lon="5.61413">
        <ele>379.377441</ele>
        <time>2013-06-06T08:35:01Z</time>
      </trkpt>
      <trkpt lat="46.77939" lon="5.61404">
        <ele>379.377441</ele>
        <time>2013-06-06T08:35:24Z</time>
      </trkpt>
      <trkpt lat="46.7794" lon="5.61384">
        <ele>380.338745</ele>
        <time>2013-06-06T08:35:44Z</time>
      </trkpt>
      <trkpt lat="46.77941" lon="5.61376">
        <ele>381.300049</ele>
        <time>2013-06-06T08:35:50Z</time>
      </trkpt>
      <trkpt lat="46.7794" lon="5.61365">
        <ele>382.261353</ele>
        <time>2013-06-06T08:35:57Z</time>
      </trkpt>
      <trkpt lat="46.77942" lon="5.61343">
        <ele>385.145386</ele>
        <time>2013-06-06T08:36:17Z</time>
      </trkpt>
      <trkpt lat="46.77924" lon="5.61316">
        <ele>386.587402</ele>
        <time>2013-06-06T08:36:44Z</time>
      </trkpt>
      <trkpt lat="46.77902" lon="5.61297">
        <ele>386.106689</ele>
        <time>2013-06-06T08:37:07Z</time>
      </trkpt>
      <trkpt lat="46.77893" lon="5.61276">
        <ele>385.625977</ele>
        <time>2013-06-06T08:37:26Z</time>
      </trkpt>
      <trkpt lat="46.77882" lon="5.61232">
        <ele>383.703247</ele>
        <time>2013-06-06T08:37:50Z</time>
      </trkpt>
      <trkpt lat="46.7788" lon="5.61199">
        <ele>383.222656</ele>
        <time>2013-06-06T08:38:14Z</time>
      </trkpt>
      <trkpt lat="46.77878" lon="5.6117">
        <ele>384.184082</ele>
        <time>2013-06-06T08:38:31Z</time>
      </trkpt>
      <trkpt lat="46.77869" lon="5.61128">
        <ele>385.625977</ele>
        <time>2013-06-06T08:38:54Z</time>
      </trkpt>
      <trkpt lat="46.77851" lon="5.61102">
        <ele>387.067993</ele>
        <time>2013-06-06T08:39:19Z</time>
      </trkpt>
      <trkpt lat="46.77829" lon="5.61093">
        <ele>387.548584</ele>
        <time>2013-06-06T08:39:40Z</time>
      </trkpt>
      <trkpt lat="46.77797" lon="5.61071">
        <ele>388.51001</ele>
        <time>2013-06-06T08:40:09Z</time>
      </trkpt>
      <trkpt lat="46.77777" lon="5.61058">
        <ele>389.471191</ele>
        <time>2013-06-06T08:40:28Z</time>
      </trkpt>
      <trkpt lat="46.77755" lon="5.61039">
        <ele>389.951904</ele>
        <time>2013-06-06T08:40:50Z</time>
      </trkpt>
      <trkpt lat="46.7773" lon="5.61022">
        <ele>390.432617</ele>
        <time>2013-06-06T08:41:14Z</time>
      </trkpt>
      <trkpt lat="46.7771" lon="5.61005">
        <ele>390.432617</ele>
        <time>2013-06-06T08:41:35Z</time>
      </trkpt>
      <trkpt lat="46.77706" lon="5.61002">
        <ele>390.432617</ele>
        <time>2013-06-06T08:41:40Z</time>
      </trkpt>
      <trkpt lat="46.77694" lon="5.60985">
        <ele>391.393799</ele>
        <time>2013-06-06T08:41:50Z</time>
      </trkpt>
      <trkpt lat="46.77677" lon="5.60975">
        <ele>390.913208</ele>
        <time>2013-06-06T08:42:06Z</time>
      </trkpt>
      <trkpt lat="46.77662" lon="5.60962">
        <ele>390.432617</ele>
        <time>2013-06-06T08:42:17Z</time>
      </trkpt>
      <trkpt lat="46.77649" lon="5.60952">
        <ele>389.951904</ele>
        <time>2013-06-06T08:42:36Z</time>
      </trkpt>
      <trkpt lat="46.77629" lon="5.60933">
        <ele>388.51001</ele>
        <time>2013-06-06T08:42:55Z</time>
      </trkpt>
      <trkpt lat="46.77602" lon="5.60914">
        <ele>387.548584</ele>
        <time>2013-06-06T08:43:18Z</time>
      </trkpt>
      <trkpt lat="46.77601" lon="5.60914">
        <ele>387.548584</ele>
        <time>2013-06-06T08:43:19Z</time>
      </trkpt>
      <trkpt lat="46.7758" lon="5.60893">
        <ele>386.587402</ele>
        <time>2013-06-06T08:43:42Z</time>
      </trkpt>
      <trkpt lat="46.77567" lon="5.60886">
        <ele>386.106689</ele>
        <time>2013-06-06T08:43:55Z</time>
      </trkpt>
      <trkpt lat="46.77548" lon="5.60868">
        <ele>385.145386</ele>
        <time>2013-06-06T08:44:13Z</time>
      </trkpt>
      <trkpt lat="46.77526" lon="5.60855">
        <ele>383.703247</ele>
        <time>2013-06-06T08:44:40Z</time>
      </trkpt>
      <trkpt lat="46.7751" lon="5.60841">
        <ele>382.742065</ele>
        <time>2013-06-06T08:44:56Z</time>
      </trkpt>
      <trkpt lat="46.77501" lon="5.60834">
        <ele>381.78064</ele>
        <time>2013-06-06T08:45:08Z</time>
      </trkpt>
      <trkpt lat="46.77484" lon="5.6082">
        <ele>380.338745</ele>
        <time>2013-06-06T08:45:26Z</time>
      </trkpt>
      <trkpt lat="46.77472" lon="5.60808">
        <ele>378.896851</ele>
        <time>2013-06-06T08:45:39Z</time>
      </trkpt>
      <trkpt lat="46.77455" lon="5.60792">
        <ele>375.532104</ele>
        <time>2013-06-06T08:45:57Z</time>
      </trkpt>
      <trkpt lat="46.77432" lon="5.60774">
        <ele>372.648193</ele>
        <time>2013-06-06T08:46:18Z</time>
      </trkpt>
      <trkpt lat="46.77419" lon="5.60786">
        <ele>370.244873</ele>
        <time>2013-06-06T08:46:39Z</time>
      </trkpt>
      <trkpt lat="46.77401" lon="5.60792">
        <ele>368.322266</ele>
        <time>2013-06-06T08:46:57Z</time>
      </trkpt>
      <trkpt lat="46.77383" lon="5.60776">
        <ele>366.399536</ele>
        <time>2013-06-06T08:47:16Z</time>
      </trkpt>
      <trkpt lat="46.77368" lon="5.60754">
        <ele>363.996338</ele>
        <time>2013-06-06T08:47:41Z</time>
      </trkpt>
      <trkpt lat="46.77347" lon="5.6074">
        <ele>361.112427</ele>
        <time>2013-06-06T08:48:01Z</time>
      </trkpt>
      <trkpt lat="46.7733" lon="5.60722">
        <ele>358.228394</ele>
        <time>2013-06-06T08:48:27Z</time>
      </trkpt>
      <trkpt lat="46.77316" lon="5.60717">
        <ele>354.86377</ele>
        <time>2013-06-06T08:48:48Z</time>
      </trkpt>
      <trkpt lat="46.77304" lon="5.60696">
        <ele>352.460571</ele>
        <time>2013-06-06T08:49:10Z</time>
      </trkpt>
      <trkpt lat="46.77297" lon="5.60683">
        <ele>350.057251</ele>
        <time>2013-06-06T08:49:27Z</time>
      </trkpt>
      <trkpt lat="46.77286" lon="5.60667">
        <ele>347.173218</ele>
        <time>2013-06-06T08:49:49Z</time>
      </trkpt>
      <trkpt lat="46.77282" lon="5.60661">
        <ele>345.731323</ele>
        <time>2013-06-06T08:49:53Z</time>
      </trkpt>
      <trkpt lat="46.77281" lon="5.6066">
        <ele>347.173218</ele>
        <time>2013-06-06T08:49:55Z</time>
      </trkpt>
      <trkpt lat="46.77267" lon="5.6066">
        <ele>344.289429</ele>
        <time>2013-06-06T08:50:13Z</time>
      </trkpt>
      <trkpt lat="46.77255" lon="5.60649">
        <ele>340.924683</ele>
        <time>2013-06-06T08:50:33Z</time>
      </trkpt>
      <trkpt lat="46.77249" lon="5.60623">
        <ele>338.040771</ele>
        <time>2013-06-06T08:50:54Z</time>
      </trkpt>
      <trkpt lat="46.77247" lon="5.60603">
        <ele>335.156738</ele>
        <time>2013-06-06T08:51:10Z</time>
      </trkpt>
      <trkpt lat="46.77244" lon="5.60576">
        <ele>332.272827</ele>
        <time>2013-06-06T08:51:28Z</time>
      </trkpt>
      <trkpt lat="46.7725" lon="5.60553">
        <ele>328.908325</ele>
        <time>2013-06-06T08:51:46Z</time>
      </trkpt>
      <trkpt lat="46.77257" lon="5.60533">
        <ele>325.543579</ele>
        <time>2013-06-06T08:52:06Z</time>
      </trkpt>
      <trkpt lat="46.77255" lon="5.60522">
        <ele>322.659668</ele>
        <time>2013-06-06T08:52:28Z</time>
      </trkpt>
      <trkpt lat="46.7725" lon="5.60534">
        <ele>324.101562</ele>
        <time>2013-06-06T08:52:49Z</time>
      </trkpt>
      <trkpt lat="46.77244" lon="5.60543">
        <ele>325.543579</ele>
        <time>2013-06-06T08:53:17Z</time>
      </trkpt>
      <trkpt lat="46.77232" lon="5.60576">
        <ele>325.543579</ele>
        <time>2013-06-06T08:53:42Z</time>
      </trkpt>
      <trkpt lat="46.77222" lon="5.60594">
        <ele>325.062988</ele>
        <time>2013-06-06T08:54:00Z</time>
      </trkpt>
      <trkpt lat="46.77212" lon="5.60628">
        <ele>323.140381</ele>
        <time>2013-06-06T08:54:25Z</time>
      </trkpt>
      <trkpt lat="46.77207" lon="5.60651">
        <ele>321.217773</ele>
        <time>2013-06-06T08:54:45Z</time>
      </trkpt>
      <trkpt lat="46.77203" lon="5.60674">
        <ele>320.256348</ele>
        <time>2013-06-06T08:55:01Z</time>
      </trkpt>
      <trkpt lat="46.77198" lon="5.60687">
        <ele>318.814331</ele>
        <time>2013-06-06T08:55:15Z</time>
      </trkpt>
      <trkpt lat="46.772" lon="5.60722">
        <ele>316.891724</ele>
        <time>2013-06-06T08:55:41Z</time>
      </trkpt>
      <trkpt lat="46.77192" lon="5.60741">
        <ele>314.007812</ele>
        <time>2013-06-06T08:56:00Z</time>
      </trkpt>
      <trkpt lat="46.77185" lon="5.60758">
        <ele>311.604492</ele>
        <time>2013-06-06T08:56:17Z</time>
      </trkpt>
      <trkpt lat="46.77181" lon="5.60759">
        <ele>308.239868</ele>
        <time>2013-06-06T08:56:39Z</time>
      </trkpt>
      <trkpt lat="46.77174" lon="5.60763">
        <ele>306.317261</ele>
        <time>2013-06-06T08:57:12Z</time>
      </trkpt>
      <trkpt lat="46.7717" lon="5.60754">
        <ele>305.83667</ele>
        <time>2013-06-06T08:57:31Z</time>
      </trkpt>
      <trkpt lat="46.77169" lon="5.60747">
        <ele>304.875244</ele>
        <time>2013-06-06T08:58:19Z</time>
      </trkpt>
      <trkpt lat="46.77161" lon="5.60737">
        <ele>303.433228</ele>
        <time>2013-06-06T08:58:58Z</time>
      </trkpt>
      <trkpt lat="46.77151" lon="5.60725">
        <ele>301.51062</ele>
        <time>2013-06-06T08:59:18Z</time>
      </trkpt>
      <trkpt lat="46.77152" lon="5.60703">
        <ele>299.588013</ele>
        <time>2013-06-06T08:59:36Z</time>
      </trkpt>
      <trkpt lat="46.77152" lon="5.60681">
        <ele>297.665405</ele>
        <time>2013-06-06T08:59:52Z</time>
      </trkpt>
      <trkpt lat="46.77148" lon="5.60671">
        <ele>296.223511</ele>
        <time>2013-06-06T09:00:01Z</time>
      </trkpt>
      <trkpt lat="46.77136" lon="5.60637">
        <ele>295.261963</ele>
        <time>2013-06-06T09:00:21Z</time>
      </trkpt>
      <trkpt lat="46.77127" lon="5.60598">
        <ele>296.223511</ele>
        <time>2013-06-06T09:00:43Z</time>
      </trkpt>
      <trkpt lat="46.77122" lon="5.60576">
        <ele>295.261963</ele>
        <time>2013-06-06T09:01:00Z</time>
      </trkpt>
      <trkpt lat="46.77123" lon="5.60551">
        <ele>293.820068</ele>
        <time>2013-06-06T09:01:17Z</time>
      </trkpt>
      <trkpt lat="46.77122" lon="5.60503">
        <ele>291.897461</ele>
        <time>2013-06-06T09:01:43Z</time>
      </trkpt>
      <trkpt lat="46.77126" lon="5.60478">
        <ele>291.897461</ele>
        <time>2013-06-06T09:01:57Z</time>
      </trkpt>
      <trkpt lat="46.77131" lon="5.60449">
        <ele>291.897461</ele>
        <time>2013-06-06T09:02:13Z</time>
      </trkpt>
      <trkpt lat="46.77137" lon="5.6042">
        <ele>291.897461</ele>
        <time>2013-06-06T09:02:31Z</time>
      </trkpt>
      <trkpt lat="46.77135" lon="5.60409">
        <ele>291.897461</ele>
        <time>2013-06-06T09:02:38Z</time>
      </trkpt>
      <trkpt lat="46.77136" lon="5.6038">
        <ele>292.378174</ele>
        <time>2013-06-06T09:02:57Z</time>
      </trkpt>
      <trkpt lat="46.7714" lon="5.60343">
        <ele>293.820068</ele>
        <time>2013-06-06T09:03:19Z</time>
      </trkpt>
      <trkpt lat="46.77138" lon="5.60323">
        <ele>293.339355</ele>
        <time>2013-06-06T09:03:39Z</time>
      </trkpt>
      <trkpt lat="46.77125" lon="5.6032">
        <ele>290.936157</ele>
        <time>2013-06-06T09:03:55Z</time>
      </trkpt>
      <trkpt lat="46.77115" lon="5.60321">
        <ele>289.974854</ele>
        <time>2013-06-06T09:04:03Z</time>
      </trkpt>
      <trkpt lat="46.77095" lon="5.60324">
        <ele>287.571411</ele>
        <time>2013-06-06T09:04:21Z</time>
      </trkpt>
      <trkpt lat="46.77089" lon="5.60324">
        <ele>286.610229</ele>
        <time>2013-06-06T09:04:26Z</time>
      </trkpt>
      <trkpt lat="46.77084" lon="5.60325">
        <ele>285.648804</ele>
        <time>2013-06-06T09:04:30Z</time>
      </trkpt>
      <trkpt lat="46.77076" lon="5.60326">
        <ele>284.687622</ele>
        <time>2013-06-06T09:04:37Z</time>
      </trkpt>
      <trkpt lat="46.77074" lon="5.60324">
        <ele>284.206909</ele>
        <time>2013-06-06T09:04:39Z</time>
      </trkpt>
      <trkpt lat="46.77059" lon="5.60323">
        <ele>282.284302</ele>
        <time>2013-06-06T09:04:52Z</time>
      </trkpt>
      <trkpt lat="46.77052" lon="5.60321">
        <ele>281.322998</ele>
        <time>2013-06-06T09:04:59Z</time>
      </trkpt>
      <trkpt lat="46.77048" lon="5.60322">
        <ele>280.842407</ele>
        <time>2013-06-06T09:05:02Z</time>
      </trkpt>
      <trkpt lat="46.77035" lon="5.60323">
        <ele>279.400269</ele>
        <time>2013-06-06T09:05:13Z</time>
      </trkpt>
      <trkpt lat="46.77033" lon="5.60324">
        <ele>278.919678</ele>
        <time>2013-06-06T09:05:15Z</time>
      </trkpt>
      <trkpt lat="46.77019" lon="5.60326">
        <ele>277.477661</ele>
        <time>2013-06-06T09:05:27Z</time>
      </trkpt>
      <trkpt lat="46.77007" lon="5.60328">
        <ele>276.035645</ele>
        <time>2013-06-06T09:05:38Z</time>
      </trkpt>
      <trkpt lat="46.7699" lon="5.60329">
        <ele>274.113037</ele>
        <time>2013-06-06T09:05:53Z</time>
      </trkpt>
      <trkpt lat="46.76988" lon="5.60328">
        <ele>274.113037</ele>
        <time>2013-06-06T09:05:55Z</time>
      </trkpt>
      <trkpt lat="46.76975" lon="5.60323">
        <ele>272.19043</ele>
        <time>2013-06-06T09:06:09Z</time>
      </trkpt>
      <trkpt lat="46.76961" lon="5.6032">
        <ele>270.748413</ele>
        <time>2013-06-06T09:06:20Z</time>
      </trkpt>
      <trkpt lat="46.76959" lon="5.60317">
        <ele>270.2677</ele>
        <time>2013-06-06T09:06:22Z</time>
      </trkpt>
      <trkpt lat="46.76946" lon="5.60313">
        <ele>266.903198</ele>
        <time>2013-06-06T09:06:38Z</time>
      </trkpt>
      <trkpt lat="46.76933" lon="5.60294">
        <ele>264.019287</ele>
        <time>2013-06-06T09:06:55Z</time>
      </trkpt>
      <trkpt lat="46.76912" lon="5.60282">
        <ele>261.135254</ele>
        <time>2013-06-06T09:07:14Z</time>
      </trkpt>
      <trkpt lat="46.76902" lon="5.60276">
        <ele>259.212646</ele>
        <time>2013-06-06T09:07:24Z</time>
      </trkpt>
      <trkpt lat="46.76893" lon="5.60277">
        <ele>258.731934</ele>
        <time>2013-06-06T09:07:31Z</time>
      </trkpt>
      <trkpt lat="46.76883" lon="5.60268">
        <ele>257.770752</ele>
        <time>2013-06-06T09:07:41Z</time>
      </trkpt>
      <trkpt lat="46.76864" lon="5.60254">
        <ele>256.328735</ele>
        <time>2013-06-06T09:07:57Z</time>
      </trkpt>
      <trkpt lat="46.76847" lon="5.60237">
        <ele>255.848022</ele>
        <time>2013-06-06T09:08:15Z</time>
      </trkpt>
      <trkpt lat="46.76828" lon="5.60216">
        <ele>254.886597</ele>
        <time>2013-06-06T09:08:32Z</time>
      </trkpt>
      <trkpt lat="46.76818" lon="5.60199">
        <ele>254.406006</ele>
        <time>2013-06-06T09:08:45Z</time>
      </trkpt>
      <trkpt lat="46.76798" lon="5.60173">
        <ele>254.406006</ele>
        <time>2013-06-06T09:09:05Z</time>
      </trkpt>
      <trkpt lat="46.7678" lon="5.60141">
        <ele>253.925415</ele>
        <time>2013-06-06T09:09:26Z</time>
      </trkpt>
      <trkpt lat="46.7677" lon="5.60128">
        <ele>253.925415</ele>
        <time>2013-06-06T09:09:38Z</time>
      </trkpt>
      <trkpt lat="46.7676" lon="5.60109">
        <ele>253.925415</ele>
        <time>2013-06-06T09:09:53Z</time>
      </trkpt>
      <trkpt lat="46.76744" lon="5.60086">
        <ele>253.925415</ele>
        <time>2013-06-06T09:10:11Z</time>
      </trkpt>
      <trkpt lat="46.76733" lon="5.60079">
        <ele>255.36731</ele>
        <time>2013-06-06T09:10:24Z</time>
      </trkpt>
      <trkpt lat="46.76722" lon="5.6007">
        <ele>253.925415</ele>
        <time>2013-06-06T09:10:40Z</time>
      </trkpt>
      <trkpt lat="46.76723" lon="5.60071">
        <ele>253.444702</ele>
        <time>2013-06-06T09:11:34Z</time>
      </trkpt>
      <trkpt lat="46.76723" lon="5.60072">
        <ele>253.444702</ele>
        <time>2013-06-06T09:12:27Z</time>
      </trkpt>
      <trkpt lat="46.76724" lon="5.60071">
        <ele>252.963989</ele>
        <time>2013-06-06T09:13:43Z</time>
      </trkpt>
      <trkpt lat="46.76727" lon="5.60071">
        <ele>252.002808</ele>
        <time>2013-06-06T09:18:06Z</time>
      </trkpt>
      <trkpt lat="46.76725" lon="5.6007">
        <ele>252.483398</ele>
        <time>2013-06-06T09:19:05Z</time>
      </trkpt>
      <trkpt lat="46.76713" lon="5.60076">
        <ele>252.002808</ele>
        <time>2013-06-06T09:19:20Z</time>
      </trkpt>
      <trkpt lat="46.76711" lon="5.60079">
        <ele>252.002808</ele>
        <time>2013-06-06T09:19:22Z</time>
      </trkpt>
      <trkpt lat="46.76705" lon="5.601">
        <ele>252.002808</ele>
        <time>2013-06-06T09:19:34Z</time>
      </trkpt>
      <trkpt lat="46.76704" lon="5.60109">
        <ele>252.002808</ele>
        <time>2013-06-06T09:19:39Z</time>
      </trkpt>
      <trkpt lat="46.76704" lon="5.60113">
        <ele>252.002808</ele>
        <time>2013-06-06T09:19:42Z</time>
      </trkpt>
      <trkpt lat="46.76703" lon="5.60121">
        <ele>252.002808</ele>
        <time>2013-06-06T09:19:46Z</time>
      </trkpt>
      <trkpt lat="46.76699" lon="5.60137">
        <ele>252.002808</ele>
        <time>2013-06-06T09:19:58Z</time>
      </trkpt>
      <trkpt lat="46.76694" lon="5.60162">
        <ele>252.002808</ele>
        <time>2013-06-06T09:20:12Z</time>
      </trkpt>
      <trkpt lat="46.76686" lon="5.60186">
        <ele>252.483398</ele>
        <time>2013-06-06T09:20:27Z</time>
      </trkpt>
      <trkpt lat="46.76679" lon="5.60211">
        <ele>252.483398</ele>
        <time>2013-06-06T09:20:41Z</time>
      </trkpt>
      <trkpt lat="46.76675" lon="5.60219">
        <ele>252.483398</ele>
        <time>2013-06-06T09:20:47Z</time>
      </trkpt>
      <trkpt lat="46.76674" lon="5.60227">
        <ele>252.483398</ele>
        <time>2013-06-06T09:20:52Z</time>
      </trkpt>
      <trkpt lat="46.76662" lon="5.60253">
        <ele>252.483398</ele>
        <time>2013-06-06T09:21:07Z</time>
      </trkpt>
      <trkpt lat="46.76653" lon="5.60275">
        <ele>252.483398</ele>
        <time>2013-06-06T09:21:21Z</time>
      </trkpt>
      <trkpt lat="46.76646" lon="5.60301">
        <ele>252.483398</ele>
        <time>2013-06-06T09:21:34Z</time>
      </trkpt>
      <trkpt lat="46.76641" lon="5.60327">
        <ele>252.483398</ele>
        <time>2013-06-06T09:21:50Z</time>
      </trkpt>
      <trkpt lat="46.76633" lon="5.60355">
        <ele>252.963989</ele>
        <time>2013-06-06T09:22:07Z</time>
      </trkpt>
      <trkpt lat="46.76623" lon="5.60381">
        <ele>252.963989</ele>
        <time>2013-06-06T09:22:21Z</time>
      </trkpt>
      <trkpt lat="46.76611" lon="5.60408">
        <ele>252.963989</ele>
        <time>2013-06-06T09:22:39Z</time>
      </trkpt>
      <trkpt lat="46.76604" lon="5.60424">
        <ele>252.963989</ele>
        <time>2013-06-06T09:22:49Z</time>
      </trkpt>
      <trkpt lat="46.76596" lon="5.60449">
        <ele>253.444702</ele>
        <time>2013-06-06T09:23:04Z</time>
      </trkpt>
      <trkpt lat="46.76596" lon="5.60451">
        <ele>253.444702</ele>
        <time>2013-06-06T09:23:05Z</time>
      </trkpt>
      <trkpt lat="46.7659" lon="5.60468">
        <ele>253.444702</ele>
        <time>2013-06-06T09:23:16Z</time>
      </trkpt>
      <trkpt lat="46.76582" lon="5.60492">
        <ele>253.444702</ele>
        <time>2013-06-06T09:23:31Z</time>
      </trkpt>
      <trkpt lat="46.76573" lon="5.60517">
        <ele>253.444702</ele>
        <time>2013-06-06T09:23:45Z</time>
      </trkpt>
      <trkpt lat="46.76561" lon="5.60546">
        <ele>253.444702</ele>
        <time>2013-06-06T09:24:01Z</time>
      </trkpt>
      <trkpt lat="46.76554" lon="5.60565">
        <ele>253.444702</ele>
        <time>2013-06-06T09:24:11Z</time>
      </trkpt>
      <trkpt lat="46.76544" lon="5.60588">
        <ele>253.444702</ele>
        <time>2013-06-06T09:24:24Z</time>
      </trkpt>
      <trkpt lat="46.76522" lon="5.60609">
        <ele>253.444702</ele>
        <time>2013-06-06T09:24:50Z</time>
      </trkpt>
      <trkpt lat="46.76504" lon="5.6063">
        <ele>253.925415</ele>
        <time>2013-06-06T09:25:14Z</time>
      </trkpt>
      <trkpt lat="46.76488" lon="5.60662">
        <ele>253.444702</ele>
        <time>2013-06-06T09:25:32Z</time>
      </trkpt>
      <trkpt lat="46.76482" lon="5.60673">
        <ele>253.444702</ele>
        <time>2013-06-06T09:25:45Z</time>
      </trkpt>
      <trkpt lat="46.76472" lon="5.60688">
        <ele>253.444702</ele>
        <time>2013-06-06T09:26:05Z</time>
      </trkpt>
      <trkpt lat="46.76455" lon="5.60709">
        <ele>253.925415</ele>
        <time>2013-06-06T09:26:22Z</time>
      </trkpt>
      <trkpt lat="46.76441" lon="5.60723">
        <ele>253.925415</ele>
        <time>2013-06-06T09:26:38Z</time>
      </trkpt>
      <trkpt lat="46.76425" lon="5.60745">
        <ele>254.886597</ele>
        <time>2013-06-06T09:26:58Z</time>
      </trkpt>
      <trkpt lat="46.76413" lon="5.6075">
        <ele>254.886597</ele>
        <time>2013-06-06T09:27:11Z</time>
      </trkpt>
      <trkpt lat="46.76393" lon="5.60768">
        <ele>254.886597</ele>
        <time>2013-06-06T09:27:28Z</time>
      </trkpt>
      <trkpt lat="46.7638" lon="5.60785">
        <ele>255.36731</ele>
        <time>2013-06-06T09:27:46Z</time>
      </trkpt>
      <trkpt lat="46.76375" lon="5.60793">
        <ele>255.848022</ele>
        <time>2013-06-06T09:28:05Z</time>
      </trkpt>
      <trkpt lat="46.7638" lon="5.60793">
        <ele>255.848022</ele>
        <time>2013-06-06T09:29:00Z</time>
      </trkpt>
      <trkpt lat="46.7638" lon="5.60793">
        <ele>256.809326</ele>
        <time>2013-06-06T09:30:24Z</time>
      </trkpt>
      <trkpt lat="46.76368" lon="5.608">
        <ele>256.809326</ele>
        <time>2013-06-06T09:30:35Z</time>
      </trkpt>
      <trkpt lat="46.76351" lon="5.60811">
        <ele>257.290039</ele>
        <time>2013-06-06T09:30:52Z</time>
      </trkpt>
      <trkpt lat="46.76334" lon="5.60828">
        <ele>257.770752</ele>
        <time>2013-06-06T09:31:11Z</time>
      </trkpt>
      <trkpt lat="46.76319" lon="5.60853">
        <ele>257.290039</ele>
        <time>2013-06-06T09:31:26Z</time>
      </trkpt>
      <trkpt lat="46.76307" lon="5.60877">
        <ele>258.251343</ele>
        <time>2013-06-06T09:31:42Z</time>
      </trkpt>
      <trkpt lat="46.76298" lon="5.60894">
        <ele>258.251343</ele>
        <time>2013-06-06T09:31:58Z</time>
      </trkpt>
      <trkpt lat="46.7629" lon="5.60912">
        <ele>258.251343</ele>
        <time>2013-06-06T09:32:09Z</time>
      </trkpt>
      <trkpt lat="46.76277" lon="5.60928">
        <ele>258.731934</ele>
        <time>2013-06-06T09:32:28Z</time>
      </trkpt>
      <trkpt lat="46.76278" lon="5.60923">
        <ele>259.212646</ele>
        <time>2013-06-06T09:32:50Z</time>
      </trkpt>
      <trkpt lat="46.76268" lon="5.60944">
        <ele>258.731934</ele>
        <time>2013-06-06T09:33:08Z</time>
      </trkpt>
      <trkpt lat="46.76254" lon="5.60968">
        <ele>259.212646</ele>
        <time>2013-06-06T09:33:26Z</time>
      </trkpt>
      <trkpt lat="46.76243" lon="5.60983">
        <ele>259.693359</ele>
        <time>2013-06-06T09:33:42Z</time>
      </trkpt>
      <trkpt lat="46.7623" lon="5.61005">
        <ele>260.17395</ele>
        <time>2013-06-06T09:34:00Z</time>
      </trkpt>
      <trkpt lat="46.76209" lon="5.61013">
        <ele>260.654541</ele>
        <time>2013-06-06T09:34:23Z</time>
      </trkpt>
      <trkpt lat="46.76204" lon="5.61014">
        <ele>260.17395</ele>
        <time>2013-06-06T09:34:29Z</time>
      </trkpt>
      <trkpt lat="46.76184" lon="5.61021">
        <ele>261.135254</ele>
        <time>2013-06-06T09:34:46Z</time>
      </trkpt>
      <trkpt lat="46.76184" lon="5.61022">
        <ele>261.135254</ele>
        <time>2013-06-06T09:34:47Z</time>
      </trkpt>
      <trkpt lat="46.76169" lon="5.61049">
        <ele>261.615967</ele>
        <time>2013-06-06T09:35:02Z</time>
      </trkpt>
      <trkpt lat="46.76152" lon="5.61079">
        <ele>261.615967</ele>
        <time>2013-06-06T09:35:13Z</time>
      </trkpt>
      <trkpt lat="46.76146" lon="5.61088">
        <ele>262.096558</ele>
        <time>2013-06-06T09:35:22Z</time>
      </trkpt>
      <trkpt lat="46.76132" lon="5.61094">
        <ele>262.096558</ele>
        <time>2013-06-06T09:35:33Z</time>
      </trkpt>
      <trkpt lat="46.76127" lon="5.61099">
        <ele>262.577148</ele>
        <time>2013-06-06T09:35:40Z</time>
      </trkpt>
      <trkpt lat="46.76126" lon="5.61101">
        <ele>262.096558</ele>
        <time>2013-06-06T09:35:42Z</time>
      </trkpt>
      <trkpt lat="46.76121" lon="5.61113">
        <ele>262.577148</ele>
        <time>2013-06-06T09:35:53Z</time>
      </trkpt>
      <trkpt lat="46.76106" lon="5.61134">
        <ele>262.577148</ele>
        <time>2013-06-06T09:36:06Z</time>
      </trkpt>
      <trkpt lat="46.761" lon="5.61142">
        <ele>263.057861</ele>
        <time>2013-06-06T09:36:12Z</time>
      </trkpt>
      <trkpt lat="46.76089" lon="5.61159">
        <ele>263.057861</ele>
        <time>2013-06-06T09:36:23Z</time>
      </trkpt>
      <trkpt lat="46.76081" lon="5.61171">
        <ele>263.057861</ele>
        <time>2013-06-06T09:36:34Z</time>
      </trkpt>
      <trkpt lat="46.76074" lon="5.61185">
        <ele>263.057861</ele>
        <time>2013-06-06T09:36:45Z</time>
      </trkpt>
      <trkpt lat="46.76064" lon="5.61206">
        <ele>263.057861</ele>
        <time>2013-06-06T09:36:57Z</time>
      </trkpt>
      <trkpt lat="46.76055" lon="5.61227">
        <ele>263.057861</ele>
        <time>2013-06-06T09:37:08Z</time>
      </trkpt>
      <trkpt lat="46.7605" lon="5.6123">
        <ele>263.057861</ele>
        <time>2013-06-06T09:37:14Z</time>
      </trkpt>
      <trkpt lat="46.76038" lon="5.61246">
        <ele>263.057861</ele>
        <time>2013-06-06T09:37:27Z</time>
      </trkpt>
      <trkpt lat="46.76027" lon="5.61257">
        <ele>263.057861</ele>
        <time>2013-06-06T09:37:37Z</time>
      </trkpt>
      <trkpt lat="46.76018" lon="5.61271">
        <ele>263.538574</ele>
        <time>2013-06-06T09:37:47Z</time>
      </trkpt>
      <trkpt lat="46.76005" lon="5.61287">
        <ele>264.019287</ele>
        <time>2013-06-06T09:37:59Z</time>
      </trkpt>
      <trkpt lat="46.75998" lon="5.61308">
        <ele>264.499878</ele>
        <time>2013-06-06T09:38:11Z</time>
      </trkpt>
      <trkpt lat="46.75988" lon="5.61334">
        <ele>264.980591</ele>
        <time>2013-06-06T09:38:25Z</time>
      </trkpt>
      <trkpt lat="46.75983" lon="5.6135">
        <ele>264.980591</ele>
        <time>2013-06-06T09:38:33Z</time>
      </trkpt>
      <trkpt lat="46.75981" lon="5.61358">
        <ele>265.461304</ele>
        <time>2013-06-06T09:38:39Z</time>
      </trkpt>
      <trkpt lat="46.75981" lon="5.61371">
        <ele>265.461304</ele>
        <time>2013-06-06T09:38:45Z</time>
      </trkpt>
      <trkpt lat="46.75978" lon="5.61403">
        <ele>265.941895</ele>
        <time>2013-06-06T09:39:03Z</time>
      </trkpt>
      <trkpt lat="46.75976" lon="5.6141">
        <ele>265.941895</ele>
        <time>2013-06-06T09:39:07Z</time>
      </trkpt>
      <trkpt lat="46.75973" lon="5.6142">
        <ele>266.422485</ele>
        <time>2013-06-06T09:39:12Z</time>
      </trkpt>
      <trkpt lat="46.75974" lon="5.61431">
        <ele>266.422485</ele>
        <time>2013-06-06T09:39:17Z</time>
      </trkpt>
      <trkpt lat="46.75974" lon="5.61433">
        <ele>266.422485</ele>
        <time>2013-06-06T09:39:19Z</time>
      </trkpt>
      <trkpt lat="46.75979" lon="5.61441">
        <ele>266.903198</ele>
        <time>2013-06-06T09:39:25Z</time>
      </trkpt>
      <trkpt lat="46.7598" lon="5.6145">
        <ele>267.383911</ele>
        <time>2013-06-06T09:39:30Z</time>
      </trkpt>
      <trkpt lat="46.75984" lon="5.61467">
        <ele>267.383911</ele>
        <time>2013-06-06T09:39:39Z</time>
      </trkpt>
      <trkpt lat="46.75984" lon="5.61471">
        <ele>267.383911</ele>
        <time>2013-06-06T09:39:41Z</time>
      </trkpt>
      <trkpt lat="46.75981" lon="5.61478">
        <ele>267.383911</ele>
        <time>2013-06-06T09:39:46Z</time>
      </trkpt>
      <trkpt lat="46.75976" lon="5.61481">
        <ele>267.383911</ele>
        <time>2013-06-06T09:39:50Z</time>
      </trkpt>
      <trkpt lat="46.75963" lon="5.61482">
        <ele>267.383911</ele>
        <time>2013-06-06T09:40:02Z</time>
      </trkpt>
      <trkpt lat="46.75956" lon="5.61484">
        <ele>266.903198</ele>
        <time>2013-06-06T09:40:06Z</time>
      </trkpt>
      <trkpt lat="46.75931" lon="5.61494">
        <ele>266.422485</ele>
        <time>2013-06-06T09:40:23Z</time>
      </trkpt>
      <trkpt lat="46.75917" lon="5.61501">
        <ele>266.422485</ele>
        <time>2013-06-06T09:40:33Z</time>
      </trkpt>
      <trkpt lat="46.75901" lon="5.61514">
        <ele>265.941895</ele>
        <time>2013-06-06T09:40:46Z</time>
      </trkpt>
      <trkpt lat="46.75889" lon="5.61523">
        <ele>265.941895</ele>
        <time>2013-06-06T09:40:58Z</time>
      </trkpt>
      <trkpt lat="46.75881" lon="5.61528">
        <ele>265.941895</ele>
        <time>2013-06-06T09:41:05Z</time>
      </trkpt>
      <trkpt lat="46.75863" lon="5.61542">
        <ele>265.941895</ele>
        <time>2013-06-06T09:41:21Z</time>
      </trkpt>
      <trkpt lat="46.75852" lon="5.61549">
        <ele>265.941895</ele>
        <time>2013-06-06T09:41:32Z</time>
      </trkpt>
      <trkpt lat="46.75842" lon="5.61561">
        <ele>265.941895</ele>
        <time>2013-06-06T09:41:41Z</time>
      </trkpt>
      <trkpt lat="46.75836" lon="5.61562">
        <ele>265.941895</ele>
        <time>2013-06-06T09:41:46Z</time>
      </trkpt>
      <trkpt lat="46.75818" lon="5.61572">
        <ele>265.941895</ele>
        <time>2013-06-06T09:42:02Z</time>
      </trkpt>
      <trkpt lat="46.75812" lon="5.61575">
        <ele>265.941895</ele>
        <time>2013-06-06T09:42:10Z</time>
      </trkpt>
      <trkpt lat="46.7581" lon="5.6158">
        <ele>265.941895</ele>
        <time>2013-06-06T09:42:13Z</time>
      </trkpt>
      <trkpt lat="46.75805" lon="5.61582">
        <ele>265.941895</ele>
        <time>2013-06-06T09:42:19Z</time>
      </trkpt>
      <trkpt lat="46.75794" lon="5.61568">
        <ele>265.941895</ele>
        <time>2013-06-06T09:42:33Z</time>
      </trkpt>
      <trkpt lat="46.75783" lon="5.6156">
        <ele>266.422485</ele>
        <time>2013-06-06T09:42:46Z</time>
      </trkpt>
      <trkpt lat="46.75774" lon="5.6156">
        <ele>265.941895</ele>
        <time>2013-06-06T09:42:56Z</time>
      </trkpt>
      <trkpt lat="46.75769" lon="5.61568">
        <ele>265.941895</ele>
        <time>2013-06-06T09:43:06Z</time>
      </trkpt>
      <trkpt lat="46.75769" lon="5.61579">
        <ele>265.941895</ele>
        <time>2013-06-06T09:43:11Z</time>
      </trkpt>
      <trkpt lat="46.7577" lon="5.61603">
        <ele>266.422485</ele>
        <time>2013-06-06T09:43:26Z</time>
      </trkpt>
      <trkpt lat="46.7577" lon="5.61612">
        <ele>266.903198</ele>
        <time>2013-06-06T09:43:31Z</time>
      </trkpt>
      <trkpt lat="46.75761" lon="5.61632">
        <ele>267.383911</ele>
        <time>2013-06-06T09:43:45Z</time>
      </trkpt>
      <trkpt lat="46.75747" lon="5.61646">
        <ele>267.864502</ele>
        <time>2013-06-06T09:44:06Z</time>
      </trkpt>
      <trkpt lat="46.75744" lon="5.6165">
        <ele>267.864502</ele>
        <time>2013-06-06T09:44:08Z</time>
      </trkpt>
      <trkpt lat="46.75723" lon="5.6167">
        <ele>267.864502</ele>
        <time>2013-06-06T09:44:20Z</time>
      </trkpt>
      <trkpt lat="46.75702" lon="5.61674">
        <ele>267.383911</ele>
        <time>2013-06-06T09:44:38Z</time>
      </trkpt>
      <trkpt lat="46.75701" lon="5.61674">
        <ele>267.383911</ele>
        <time>2013-06-06T09:44:39Z</time>
      </trkpt>
      <trkpt lat="46.75681" lon="5.61682">
        <ele>267.383911</ele>
        <time>2013-06-06T09:44:55Z</time>
      </trkpt>
      <trkpt lat="46.75666" lon="5.6169">
        <ele>267.383911</ele>
        <time>2013-06-06T09:45:09Z</time>
      </trkpt>
      <trkpt lat="46.75665" lon="5.61691">
        <ele>267.383911</ele>
        <time>2013-06-06T09:45:11Z</time>
      </trkpt>
      <trkpt lat="46.75652" lon="5.61694">
        <ele>267.383911</ele>
        <time>2013-06-06T09:45:21Z</time>
      </trkpt>
      <trkpt lat="46.75648" lon="5.61674">
        <ele>267.383911</ele>
        <time>2013-06-06T09:45:34Z</time>
      </trkpt>
      <trkpt lat="46.75647" lon="5.6167">
        <ele>266.903198</ele>
        <time>2013-06-06T09:45:36Z</time>
      </trkpt>
      <trkpt lat="46.75641" lon="5.61644">
        <ele>266.903198</ele>
        <time>2013-06-06T09:45:53Z</time>
      </trkpt>
      <trkpt lat="46.75636" lon="5.61629">
        <ele>267.383911</ele>
        <time>2013-06-06T09:46:04Z</time>
      </trkpt>
      <trkpt lat="46.75629" lon="5.61625">
        <ele>267.864502</ele>
        <time>2013-06-06T09:46:22Z</time>
      </trkpt>
      <trkpt lat="46.75628" lon="5.61626">
        <ele>267.864502</ele>
        <time>2013-06-06T09:46:23Z</time>
      </trkpt>
      <trkpt lat="46.75618" lon="5.61631">
        <ele>267.864502</ele>
        <time>2013-06-06T09:46:36Z</time>
      </trkpt>
      <trkpt lat="46.75604" lon="5.61638">
        <ele>268.345093</ele>
        <time>2013-06-06T09:46:47Z</time>
      </trkpt>
      <trkpt lat="46.75589" lon="5.61649">
        <ele>268.825806</ele>
        <time>2013-06-06T09:47:04Z</time>
      </trkpt>
      <trkpt lat="46.75569" lon="5.61669">
        <ele>269.306519</ele>
        <time>2013-06-06T09:47:22Z</time>
      </trkpt>
      <trkpt lat="46.75566" lon="5.61673">
        <ele>269.306519</ele>
        <time>2013-06-06T09:47:24Z</time>
      </trkpt>
      <trkpt lat="46.75548" lon="5.61688">
        <ele>270.2677</ele>
        <time>2013-06-06T09:47:41Z</time>
      </trkpt>
      <trkpt lat="46.75545" lon="5.61699">
        <ele>270.748413</ele>
        <time>2013-06-06T09:47:48Z</time>
      </trkpt>
      <trkpt lat="46.75537" lon="5.61716">
        <ele>270.748413</ele>
        <time>2013-06-06T09:47:57Z</time>
      </trkpt>
      <trkpt lat="46.75529" lon="5.61731">
        <ele>269.787109</ele>
        <time>2013-06-06T09:48:08Z</time>
      </trkpt>
      <trkpt lat="46.75527" lon="5.6174">
        <ele>269.787109</ele>
        <time>2013-06-06T09:48:11Z</time>
      </trkpt>
      <trkpt lat="46.75525" lon="5.61751">
        <ele>269.787109</ele>
        <time>2013-06-06T09:48:20Z</time>
      </trkpt>
      <trkpt lat="46.75511" lon="5.61763">
        <ele>269.787109</ele>
        <time>2013-06-06T09:48:36Z</time>
      </trkpt>
      <trkpt lat="46.7551" lon="5.61763">
        <ele>269.787109</ele>
        <time>2013-06-06T09:48:38Z</time>
      </trkpt>
      <trkpt lat="46.75487" lon="5.61768">
        <ele>270.2677</ele>
        <time>2013-06-06T09:48:59Z</time>
      </trkpt>
      <trkpt lat="46.75472" lon="5.61777">
        <ele>270.748413</ele>
        <time>2013-06-06T09:49:09Z</time>
      </trkpt>
      <trkpt lat="46.75466" lon="5.61775">
        <ele>270.748413</ele>
        <time>2013-06-06T09:49:13Z</time>
      </trkpt>
      <trkpt lat="46.75462" lon="5.61775">
        <ele>270.748413</ele>
        <time>2013-06-06T09:49:16Z</time>
      </trkpt>
      <trkpt lat="46.7545" lon="5.61774">
        <ele>270.748413</ele>
        <time>2013-06-06T09:49:26Z</time>
      </trkpt>
      <trkpt lat="46.75424" lon="5.61763">
        <ele>270.748413</ele>
        <time>2013-06-06T09:49:46Z</time>
      </trkpt>
      <trkpt lat="46.7542" lon="5.6176">
        <ele>270.748413</ele>
        <time>2013-06-06T09:49:50Z</time>
      </trkpt>
      <trkpt lat="46.75405" lon="5.61755">
        <ele>271.229126</ele>
        <time>2013-06-06T09:50:04Z</time>
      </trkpt>
      <trkpt lat="46.75397" lon="5.61758">
        <ele>271.229126</ele>
        <time>2013-06-06T09:50:09Z</time>
      </trkpt>
      <trkpt lat="46.75392" lon="5.6176">
        <ele>271.229126</ele>
        <time>2013-06-06T09:50:13Z</time>
      </trkpt>
      <trkpt lat="46.75382" lon="5.61769">
        <ele>271.229126</ele>
        <time>2013-06-06T09:50:21Z</time>
      </trkpt>
      <trkpt lat="46.75371" lon="5.61791">
        <ele>272.19043</ele>
        <time>2013-06-06T09:50:33Z</time>
      </trkpt>
      <trkpt lat="46.7536" lon="5.61807">
        <ele>272.19043</ele>
        <time>2013-06-06T09:50:41Z</time>
      </trkpt>
      <trkpt lat="46.75348" lon="5.61826">
        <ele>271.709717</ele>
        <time>2013-06-06T09:50:51Z</time>
      </trkpt>
      <trkpt lat="46.75341" lon="5.61837">
        <ele>272.19043</ele>
        <time>2013-06-06T09:51:00Z</time>
      </trkpt>
      <trkpt lat="46.75334" lon="5.61851">
        <ele>272.19043</ele>
        <time>2013-06-06T09:51:08Z</time>
      </trkpt>
      <trkpt lat="46.75329" lon="5.61872">
        <ele>272.19043</ele>
        <time>2013-06-06T09:51:16Z</time>
      </trkpt>
      <trkpt lat="46.75322" lon="5.619">
        <ele>272.671143</ele>
        <time>2013-06-06T09:51:30Z</time>
      </trkpt>
      <trkpt lat="46.75322" lon="5.61902">
        <ele>272.19043</ele>
        <time>2013-06-06T09:51:32Z</time>
      </trkpt>
      <trkpt lat="46.75321" lon="5.61908">
        <ele>272.671143</ele>
        <time>2013-06-06T09:51:36Z</time>
      </trkpt>
      <trkpt lat="46.75315" lon="5.61923">
        <ele>272.19043</ele>
        <time>2013-06-06T09:51:50Z</time>
      </trkpt>
      <trkpt lat="46.75304" lon="5.61937">
        <ele>272.671143</ele>
        <time>2013-06-06T09:52:03Z</time>
      </trkpt>
      <trkpt lat="46.75293" lon="5.61941">
        <ele>273.632446</ele>
        <time>2013-06-06T09:52:15Z</time>
      </trkpt>
      <trkpt lat="46.75286" lon="5.61931">
        <ele>274.113037</ele>
        <time>2013-06-06T09:52:23Z</time>
      </trkpt>
      <trkpt lat="46.75283" lon="5.61927">
        <ele>274.113037</ele>
        <time>2013-06-06T09:52:26Z</time>
      </trkpt>
      <trkpt lat="46.75266" lon="5.61904">
        <ele>273.632446</ele>
        <time>2013-06-06T09:52:44Z</time>
      </trkpt>
      <trkpt lat="46.75251" lon="5.6191">
        <ele>273.632446</ele>
        <time>2013-06-06T09:52:57Z</time>
      </trkpt>
      <trkpt lat="46.75232" lon="5.61926">
        <ele>273.632446</ele>
        <time>2013-06-06T09:53:10Z</time>
      </trkpt>
      <trkpt lat="46.75204" lon="5.61952">
        <ele>274.113037</ele>
        <time>2013-06-06T09:53:36Z</time>
      </trkpt>
      <trkpt lat="46.7518" lon="5.61993">
        <ele>274.113037</ele>
        <time>2013-06-06T09:54:02Z</time>
      </trkpt>
      <trkpt lat="46.75161" lon="5.62023">
        <ele>274.59375</ele>
        <time>2013-06-06T09:54:24Z</time>
      </trkpt>
      <trkpt lat="46.75143" lon="5.62054">
        <ele>274.59375</ele>
        <time>2013-06-06T09:54:47Z</time>
      </trkpt>
      <trkpt lat="46.75123" lon="5.62091">
        <ele>275.555054</ele>
        <time>2013-06-06T09:55:13Z</time>
      </trkpt>
      <trkpt lat="46.75111" lon="5.62113">
        <ele>275.555054</ele>
        <time>2013-06-06T09:55:27Z</time>
      </trkpt>
      <trkpt lat="46.75101" lon="5.62131">
        <ele>276.516357</ele>
        <time>2013-06-06T09:55:42Z</time>
      </trkpt>
      <trkpt lat="46.75095" lon="5.62139">
        <ele>276.99707</ele>
        <time>2013-06-06T09:55:55Z</time>
      </trkpt>
      <trkpt lat="46.75093" lon="5.62143">
        <ele>276.99707</ele>
        <time>2013-06-06T09:55:58Z</time>
      </trkpt>
      <trkpt lat="46.75088" lon="5.62156">
        <ele>277.958252</ele>
        <time>2013-06-06T09:56:10Z</time>
      </trkpt>
      <trkpt lat="46.7507" lon="5.6217">
        <ele>277.958252</ele>
        <time>2013-06-06T09:56:26Z</time>
      </trkpt>
      <trkpt lat="46.75067" lon="5.62171">
        <ele>277.477661</ele>
        <time>2013-06-06T09:56:29Z</time>
      </trkpt>
      <trkpt lat="46.75043" lon="5.62178">
        <ele>276.035645</ele>
        <time>2013-06-06T09:56:46Z</time>
      </trkpt>
      <trkpt lat="46.75034" lon="5.62184">
        <ele>276.035645</ele>
        <time>2013-06-06T09:56:53Z</time>
      </trkpt>
      <trkpt lat="46.75012" lon="5.62206">
        <ele>276.516357</ele>
        <time>2013-06-06T09:57:12Z</time>
      </trkpt>
      <trkpt lat="46.74984" lon="5.6223">
        <ele>277.477661</ele>
        <time>2013-06-06T09:57:37Z</time>
      </trkpt>
      <trkpt lat="46.74959" lon="5.62253">
        <ele>277.477661</ele>
        <time>2013-06-06T09:58:00Z</time>
      </trkpt>
      <trkpt lat="46.74952" lon="5.6226">
        <ele>277.958252</ele>
        <time>2013-06-06T09:58:07Z</time>
      </trkpt>
      <trkpt lat="46.7494" lon="5.62276">
        <ele>277.958252</ele>
        <time>2013-06-06T09:58:18Z</time>
      </trkpt>
      <trkpt lat="46.74939" lon="5.62276">
        <ele>277.958252</ele>
        <time>2013-06-06T09:58:21Z</time>
      </trkpt>
      <trkpt lat="46.74926" lon="5.62299">
        <ele>278.919678</ele>
        <time>2013-06-06T09:58:37Z</time>
      </trkpt>
      <trkpt lat="46.74924" lon="5.62311">
        <ele>279.400269</ele>
        <time>2013-06-06T09:58:48Z</time>
      </trkpt>
      <trkpt lat="46.74937" lon="5.62321">
        <ele>280.361694</ele>
        <time>2013-06-06T09:59:01Z</time>
      </trkpt>
      <trkpt lat="46.74954" lon="5.62327">
        <ele>282.284302</ele>
        <time>2013-06-06T09:59:15Z</time>
      </trkpt>
      <trkpt lat="46.74956" lon="5.62333">
        <ele>282.765015</ele>
        <time>2013-06-06T09:59:21Z</time>
      </trkpt>
      <trkpt lat="46.74957" lon="5.62336">
        <ele>282.765015</ele>
        <time>2013-06-06T09:59:23Z</time>
      </trkpt>
      <trkpt lat="46.74948" lon="5.62366">
        <ele>283.245605</ele>
        <time>2013-06-06T09:59:42Z</time>
      </trkpt>
      <trkpt lat="46.74935" lon="5.62391">
        <ele>284.206909</ele>
        <time>2013-06-06T10:00:00Z</time>
      </trkpt>
      <trkpt lat="46.74923" lon="5.62413">
        <ele>285.168213</ele>
        <time>2013-06-06T10:00:16Z</time>
      </trkpt>
      <trkpt lat="46.74916" lon="5.62428">
        <ele>286.129517</ele>
        <time>2013-06-06T10:00:27Z</time>
      </trkpt>
      <trkpt lat="46.74915" lon="5.62432">
        <ele>286.610229</ele>
        <time>2013-06-06T10:00:29Z</time>
      </trkpt>
      <trkpt lat="46.74915" lon="5.62435">
        <ele>286.610229</ele>
        <time>2013-06-06T10:00:32Z</time>
      </trkpt>
      <trkpt lat="46.74915" lon="5.62439">
        <ele>287.09082</ele>
        <time>2013-06-06T10:00:34Z</time>
      </trkpt>
      <trkpt lat="46.74917" lon="5.62448">
        <ele>288.052246</ele>
        <time>2013-06-06T10:00:41Z</time>
      </trkpt>
      <trkpt lat="46.74917" lon="5.62453">
        <ele>288.532959</ele>
        <time>2013-06-06T10:00:44Z</time>
      </trkpt>
      <trkpt lat="46.74918" lon="5.62459">
        <ele>289.01355</ele>
        <time>2013-06-06T10:00:49Z</time>
      </trkpt>
      <trkpt lat="46.74926" lon="5.62482">
        <ele>290.936157</ele>
        <time>2013-06-06T10:01:05Z</time>
      </trkpt>
      <trkpt lat="46.74926" lon="5.62499">
        <ele>292.378174</ele>
        <time>2013-06-06T10:01:16Z</time>
      </trkpt>
      <trkpt lat="46.74936" lon="5.62518">
        <ele>293.820068</ele>
        <time>2013-06-06T10:01:31Z</time>
      </trkpt>
      <trkpt lat="46.7494" lon="5.62529">
        <ele>295.742676</ele>
        <time>2013-06-06T10:01:41Z</time>
      </trkpt>
      <trkpt lat="46.74941" lon="5.62532">
        <ele>295.742676</ele>
        <time>2013-06-06T10:01:43Z</time>
      </trkpt>
      <trkpt lat="46.74944" lon="5.62538">
        <ele>296.704102</ele>
        <time>2013-06-06T10:01:48Z</time>
      </trkpt>
      <trkpt lat="46.74946" lon="5.62543">
        <ele>297.184692</ele>
        <time>2013-06-06T10:01:53Z</time>
      </trkpt>
      <trkpt lat="46.7495" lon="5.62557">
        <ele>299.1073</ele>
        <time>2013-06-06T10:02:04Z</time>
      </trkpt>
      <trkpt lat="46.7495" lon="5.62562">
        <ele>299.588013</ele>
        <time>2013-06-06T10:02:08Z</time>
      </trkpt>
      <trkpt lat="46.74949" lon="5.62569">
        <ele>300.549316</ele>
        <time>2013-06-06T10:02:14Z</time>
      </trkpt>
      <trkpt lat="46.74947" lon="5.62578">
        <ele>301.51062</ele>
        <time>2013-06-06T10:02:21Z</time>
      </trkpt>
      <trkpt lat="46.74948" lon="5.62581">
        <ele>301.991333</ele>
        <time>2013-06-06T10:02:23Z</time>
      </trkpt>
      <trkpt lat="46.7495" lon="5.62585">
        <ele>302.471924</ele>
        <time>2013-06-06T10:02:26Z</time>
      </trkpt>
      <trkpt lat="46.7495" lon="5.62597">
        <ele>303.91394</ele>
        <time>2013-06-06T10:02:34Z</time>
      </trkpt>
      <trkpt lat="46.74953" lon="5.62603">
        <ele>304.875244</ele>
        <time>2013-06-06T10:02:40Z</time>
      </trkpt>
      <trkpt lat="46.74957" lon="5.6262">
        <ele>307.278564</ele>
        <time>2013-06-06T10:02:54Z</time>
      </trkpt>
      <trkpt lat="46.74958" lon="5.62624">
        <ele>307.759277</ele>
        <time>2013-06-06T10:02:57Z</time>
      </trkpt>
      <trkpt lat="46.74959" lon="5.62626">
        <ele>308.720459</ele>
        <time>2013-06-06T10:02:59Z</time>
      </trkpt>
      <trkpt lat="46.74959" lon="5.62634">
        <ele>309.681885</ele>
        <time>2013-06-06T10:03:06Z</time>
      </trkpt>
      <trkpt lat="46.74958" lon="5.62637">
        <ele>310.162476</ele>
        <time>2013-06-06T10:03:09Z</time>
      </trkpt>
      <trkpt lat="46.74972" lon="5.62638">
        <ele>312.085205</ele>
        <time>2013-06-06T10:03:19Z</time>
      </trkpt>
      <trkpt lat="46.74977" lon="5.6264">
        <ele>313.046509</ele>
        <time>2013-06-06T10:03:24Z</time>
      </trkpt>
      <trkpt lat="46.74979" lon="5.62645">
        <ele>313.527222</ele>
        <time>2013-06-06T10:03:30Z</time>
      </trkpt>
      <trkpt lat="46.74985" lon="5.62646">
        <ele>314.488403</ele>
        <time>2013-06-06T10:03:34Z</time>
      </trkpt>
      <trkpt lat="46.74988" lon="5.62652">
        <ele>315.93042</ele>
        <time>2013-06-06T10:03:43Z</time>
      </trkpt>
      <trkpt lat="46.75" lon="5.62658">
        <ele>318.333618</ele>
        <time>2013-06-06T10:03:55Z</time>
      </trkpt>
      <trkpt lat="46.75005" lon="5.62667">
        <ele>319.775635</ele>
        <time>2013-06-06T10:04:05Z</time>
      </trkpt>
      <trkpt lat="46.75004" lon="5.6267">
        <ele>319.775635</ele>
        <time>2013-06-06T10:04:07Z</time>
      </trkpt>
      <trkpt lat="46.75005" lon="5.62676">
        <ele>320.737061</ele>
        <time>2013-06-06T10:04:16Z</time>
      </trkpt>
      <trkpt lat="46.7501" lon="5.62683">
        <ele>321.698364</ele>
        <time>2013-06-06T10:04:23Z</time>
      </trkpt>
      <trkpt lat="46.7501" lon="5.62685">
        <ele>322.178955</ele>
        <time>2013-06-06T10:04:25Z</time>
      </trkpt>
      <trkpt lat="46.75013" lon="5.62694">
        <ele>323.140381</ele>
        <time>2013-06-06T10:04:32Z</time>
      </trkpt>
      <trkpt lat="46.7502" lon="5.62703">
        <ele>324.101562</ele>
        <time>2013-06-06T10:04:42Z</time>
      </trkpt>
      <trkpt lat="46.75021" lon="5.62707">
        <ele>324.582275</ele>
        <time>2013-06-06T10:04:45Z</time>
      </trkpt>
      <trkpt lat="46.75026" lon="5.62716">
        <ele>326.02417</ele>
        <time>2013-06-06T10:04:56Z</time>
      </trkpt>
      <trkpt lat="46.75028" lon="5.62718">
        <ele>326.02417</ele>
        <time>2013-06-06T10:04:58Z</time>
      </trkpt>
      <trkpt lat="46.75034" lon="5.62725">
        <ele>327.466187</ele>
        <time>2013-06-06T10:05:04Z</time>
      </trkpt>
      <trkpt lat="46.75041" lon="5.62735">
        <ele>328.908325</ele>
        <time>2013-06-06T10:05:12Z</time>
      </trkpt>
      <trkpt lat="46.75041" lon="5.62738">
        <ele>329.388916</ele>
        <time>2013-06-06T10:05:14Z</time>
      </trkpt>
      <trkpt lat="46.75039" lon="5.62751">
        <ele>331.311523</ele>
        <time>2013-06-06T10:05:22Z</time>
      </trkpt>
      <trkpt lat="46.75044" lon="5.62759">
        <ele>332.75354</ele>
        <time>2013-06-06T10:05:31Z</time>
      </trkpt>
      <trkpt lat="46.75044" lon="5.62763">
        <ele>333.714722</ele>
        <time>2013-06-06T10:05:33Z</time>
      </trkpt>
      <trkpt lat="46.75055" lon="5.6277">
        <ele>335.156738</ele>
        <time>2013-06-06T10:05:43Z</time>
      </trkpt>
      <trkpt lat="46.75058" lon="5.62782">
        <ele>336.598877</ele>
        <time>2013-06-06T10:05:54Z</time>
      </trkpt>
      <trkpt lat="46.75061" lon="5.62798">
        <ele>338.521484</ele>
        <time>2013-06-06T10:06:08Z</time>
      </trkpt>
      <trkpt lat="46.75061" lon="5.62806">
        <ele>339.482666</ele>
        <time>2013-06-06T10:06:14Z</time>
      </trkpt>
      <trkpt lat="46.75062" lon="5.62807">
        <ele>339.963379</ele>
        <time>2013-06-06T10:06:16Z</time>
      </trkpt>
      <trkpt lat="46.75067" lon="5.62809">
        <ele>340.444092</ele>
        <time>2013-06-06T10:06:21Z</time>
      </trkpt>
      <trkpt lat="46.75067" lon="5.62815">
        <ele>340.924683</ele>
        <time>2013-06-06T10:06:26Z</time>
      </trkpt>
      <trkpt lat="46.75068" lon="5.62818">
        <ele>341.885986</ele>
        <time>2013-06-06T10:06:29Z</time>
      </trkpt>
      <trkpt lat="46.75072" lon="5.6283">
        <ele>342.84729</ele>
        <time>2013-06-06T10:06:37Z</time>
      </trkpt>
      <trkpt lat="46.75081" lon="5.62843">
        <ele>345.25061</ele>
        <time>2013-06-06T10:06:50Z</time>
      </trkpt>
      <trkpt lat="46.75082" lon="5.62844">
        <ele>345.25061</ele>
        <time>2013-06-06T10:06:52Z</time>
      </trkpt>
      <trkpt lat="46.75088" lon="5.62851">
        <ele>346.692627</ele>
        <time>2013-06-06T10:07:00Z</time>
      </trkpt>
      <trkpt lat="46.75095" lon="5.6286">
        <ele>348.615234</ele>
        <time>2013-06-06T10:07:13Z</time>
      </trkpt>
      <trkpt lat="46.75101" lon="5.62866">
        <ele>351.018433</ele>
        <time>2013-06-06T10:07:23Z</time>
      </trkpt>
      <trkpt lat="46.75105" lon="5.62885">
        <ele>353.421875</ele>
        <time>2013-06-06T10:07:43Z</time>
      </trkpt>
      <trkpt lat="46.75103" lon="5.62884">
        <ele>353.421875</ele>
        <time>2013-06-06T10:08:01Z</time>
      </trkpt>
      <trkpt lat="46.75095" lon="5.62885">
        <ele>353.902588</ele>
        <time>2013-06-06T10:08:46Z</time>
      </trkpt>
      <trkpt lat="46.75097" lon="5.62881">
        <ele>353.421875</ele>
        <time>2013-06-06T10:09:56Z</time>
      </trkpt>
      <trkpt lat="46.75089" lon="5.62885">
        <ele>352.941162</ele>
        <time>2013-06-06T10:17:03Z</time>
      </trkpt>
      <trkpt lat="46.7508" lon="5.62888">
        <ele>352.460571</ele>
        <time>2013-06-06T10:17:14Z</time>
      </trkpt>
      <trkpt lat="46.75067" lon="5.62885">
        <ele>351.979858</ele>
        <time>2013-06-06T10:17:31Z</time>
      </trkpt>
      <trkpt lat="46.75051" lon="5.6288">
        <ele>351.018433</ele>
        <time>2013-06-06T10:17:51Z</time>
      </trkpt>
      <trkpt lat="46.75047" lon="5.62884">
        <ele>351.979858</ele>
        <time>2013-06-06T10:18:06Z</time>
      </trkpt>
      <trkpt lat="46.75059" lon="5.62892">
        <ele>352.941162</ele>
        <time>2013-06-06T10:18:21Z</time>
      </trkpt>
      <trkpt lat="46.75072" lon="5.62901">
        <ele>354.383179</ele>
        <time>2013-06-06T10:18:37Z</time>
      </trkpt>
      <trkpt lat="46.75081" lon="5.62902">
        <ele>355.825195</ele>
        <time>2013-06-06T10:18:56Z</time>
      </trkpt>
      <trkpt lat="46.75082" lon="5.62901">
        <ele>355.825195</ele>
        <time>2013-06-06T10:18:57Z</time>
      </trkpt>
      <trkpt lat="46.7509" lon="5.62904">
        <ele>357.26709</ele>
        <time>2013-06-06T10:19:12Z</time>
      </trkpt>
      <trkpt lat="46.75096" lon="5.62912">
        <ele>358.228394</ele>
        <time>2013-06-06T10:19:27Z</time>
      </trkpt>
      <trkpt lat="46.75117" lon="5.62921">
        <ele>361.112427</ele>
        <time>2013-06-06T10:19:52Z</time>
      </trkpt>
      <trkpt lat="46.75124" lon="5.62931">
        <ele>363.035034</ele>
        <time>2013-06-06T10:20:09Z</time>
      </trkpt>
      <trkpt lat="46.75138" lon="5.62941">
        <ele>365.438354</ele>
        <time>2013-06-06T10:20:27Z</time>
      </trkpt>
      <trkpt lat="46.75148" lon="5.62941">
        <ele>366.880249</ele>
        <time>2013-06-06T10:20:44Z</time>
      </trkpt>
      <trkpt lat="46.75165" lon="5.62941">
        <ele>367.841553</ele>
        <time>2013-06-06T10:21:02Z</time>
      </trkpt>
      <trkpt lat="46.75176" lon="5.6294">
        <ele>368.322266</ele>
        <time>2013-06-06T10:21:14Z</time>
      </trkpt>
      <trkpt lat="46.75194" lon="5.62927">
        <ele>369.764282</ele>
        <time>2013-06-06T10:21:34Z</time>
      </trkpt>
      <trkpt lat="46.75196" lon="5.62902">
        <ele>371.68689</ele>
        <time>2013-06-06T10:21:52Z</time>
      </trkpt>
      <trkpt lat="46.75198" lon="5.62882">
        <ele>374.090088</ele>
        <time>2013-06-06T10:22:13Z</time>
      </trkpt>
      <trkpt lat="46.752" lon="5.62866">
        <ele>375.532104</ele>
        <time>2013-06-06T10:22:26Z</time>
      </trkpt>
      <trkpt lat="46.75204" lon="5.62842">
        <ele>377.454834</ele>
        <time>2013-06-06T10:22:45Z</time>
      </trkpt>
      <trkpt lat="46.75209" lon="5.62821">
        <ele>378.896851</ele>
        <time>2013-06-06T10:23:00Z</time>
      </trkpt>
      <trkpt lat="46.75212" lon="5.62803">
        <ele>380.338745</ele>
        <time>2013-06-06T10:23:15Z</time>
      </trkpt>
      <trkpt lat="46.75217" lon="5.62776">
        <ele>381.300049</ele>
        <time>2013-06-06T10:23:38Z</time>
      </trkpt>
      <trkpt lat="46.75216" lon="5.62754">
        <ele>382.261353</ele>
        <time>2013-06-06T10:23:54Z</time>
      </trkpt>
      <trkpt lat="46.75216" lon="5.62745">
        <ele>382.742065</ele>
        <time>2013-06-06T10:24:01Z</time>
      </trkpt>
      <trkpt lat="46.75215" lon="5.62738">
        <ele>383.222656</ele>
        <time>2013-06-06T10:24:05Z</time>
      </trkpt>
      <trkpt lat="46.75213" lon="5.62706">
        <ele>384.664795</ele>
        <time>2013-06-06T10:24:26Z</time>
      </trkpt>
      <trkpt lat="46.75212" lon="5.62683">
        <ele>383.222656</ele>
        <time>2013-06-06T10:24:44Z</time>
      </trkpt>
      <trkpt lat="46.75212" lon="5.6268">
        <ele>382.742065</ele>
        <time>2013-06-06T10:24:46Z</time>
      </trkpt>
      <trkpt lat="46.75215" lon="5.62665">
        <ele>382.742065</ele>
        <time>2013-06-06T10:24:56Z</time>
      </trkpt>
      <trkpt lat="46.75227" lon="5.62637">
        <ele>383.703247</ele>
        <time>2013-06-06T10:25:18Z</time>
      </trkpt>
      <trkpt lat="46.75241" lon="5.6262">
        <ele>385.145386</ele>
        <time>2013-06-06T10:25:36Z</time>
      </trkpt>
      <trkpt lat="46.75254" lon="5.62612">
        <ele>385.625977</ele>
        <time>2013-06-06T10:25:46Z</time>
      </trkpt>
      <trkpt lat="46.75256" lon="5.62609">
        <ele>385.625977</ele>
        <time>2013-06-06T10:25:49Z</time>
      </trkpt>
      <trkpt lat="46.75261" lon="5.62603">
        <ele>385.625977</ele>
        <time>2013-06-06T10:25:59Z</time>
      </trkpt>
      <trkpt lat="46.75269" lon="5.6261">
        <ele>387.548584</ele>
        <time>2013-06-06T10:26:17Z</time>
      </trkpt>
      <trkpt lat="46.7527" lon="5.62617">
        <ele>388.990601</ele>
        <time>2013-06-06T10:26:32Z</time>
      </trkpt>
      <trkpt lat="46.75277" lon="5.62621">
        <ele>392.355347</ele>
        <time>2013-06-06T10:26:50Z</time>
      </trkpt>
      <trkpt lat="46.75286" lon="5.62623">
        <ele>395.719849</ele>
        <time>2013-06-06T10:27:07Z</time>
      </trkpt>
      <trkpt lat="46.75294" lon="5.62622">
        <ele>397.642456</ele>
        <time>2013-06-06T10:27:21Z</time>
      </trkpt>
      <trkpt lat="46.75302" lon="5.62619">
        <ele>400.045898</ele>
        <time>2013-06-06T10:27:36Z</time>
      </trkpt>
      <trkpt lat="46.75309" lon="5.62616">
        <ele>401.00708</ele>
        <time>2013-06-06T10:27:48Z</time>
      </trkpt>
      <trkpt lat="46.75314" lon="5.6261">
        <ele>401.00708</ele>
        <time>2013-06-06T10:28:03Z</time>
      </trkpt>
      <trkpt lat="46.75329" lon="5.62612">
        <ele>404.371704</ele>
        <time>2013-06-06T10:28:25Z</time>
      </trkpt>
      <trkpt lat="46.75334" lon="5.62612">
        <ele>406.774902</ele>
        <time>2013-06-06T10:28:40Z</time>
      </trkpt>
      <trkpt lat="46.75345" lon="5.62613">
        <ele>410.139648</ele>
        <time>2013-06-06T10:29:01Z</time>
      </trkpt>
      <trkpt lat="46.75353" lon="5.62608">
        <ele>413.02356</ele>
        <time>2013-06-06T10:29:25Z</time>
      </trkpt>
      <trkpt lat="46.75367" lon="5.62615">
        <ele>416.388184</ele>
        <time>2013-06-06T10:29:58Z</time>
      </trkpt>
      <trkpt lat="46.75388" lon="5.62606">
        <ele>419.272217</ele>
        <time>2013-06-06T10:30:22Z</time>
      </trkpt>
      <trkpt lat="46.75397" lon="5.6262">
        <ele>421.194824</ele>
        <time>2013-06-06T10:30:56Z</time>
      </trkpt>
      <trkpt lat="46.75403" lon="5.62612">
        <ele>424.078735</ele>
        <time>2013-06-06T10:31:39Z</time>
      </trkpt>
      <trkpt lat="46.75405" lon="5.62604">
        <ele>426.001343</ele>
        <time>2013-06-06T10:32:08Z</time>
      </trkpt>
      <trkpt lat="46.7541" lon="5.62587">
        <ele>428.885376</ele>
        <time>2013-06-06T10:32:30Z</time>
      </trkpt>
      <trkpt lat="46.75397" lon="5.62564">
        <ele>431.288574</ele>
        <time>2013-06-06T10:32:54Z</time>
      </trkpt>
      <trkpt lat="46.75386" lon="5.62545">
        <ele>433.691895</ele>
        <time>2013-06-06T10:33:11Z</time>
      </trkpt>
      <trkpt lat="46.75377" lon="5.62527">
        <ele>436.575928</ele>
        <time>2013-06-06T10:33:29Z</time>
      </trkpt>
      <trkpt lat="46.75371" lon="5.62511">
        <ele>439.94043</ele>
        <time>2013-06-06T10:33:47Z</time>
      </trkpt>
      <trkpt lat="46.75375" lon="5.62508">
        <ele>441.382446</ele>
        <time>2013-06-06T10:34:01Z</time>
      </trkpt>
      <trkpt lat="46.75384" lon="5.62503">
        <ele>442.343872</ele>
        <time>2013-06-06T10:34:16Z</time>
      </trkpt>
      <trkpt lat="46.75402" lon="5.62488">
        <ele>443.785767</ele>
        <time>2013-06-06T10:34:36Z</time>
      </trkpt>
      <trkpt lat="46.75414" lon="5.62481">
        <ele>444.74707</ele>
        <time>2013-06-06T10:34:48Z</time>
      </trkpt>
      <trkpt lat="46.75425" lon="5.62466">
        <ele>443.305054</ele>
        <time>2013-06-06T10:35:05Z</time>
      </trkpt>
      <trkpt lat="46.75414" lon="5.62449">
        <ele>442.343872</ele>
        <time>2013-06-06T10:35:26Z</time>
      </trkpt>
      <trkpt lat="46.75409" lon="5.62446">
        <ele>441.863159</ele>
        <time>2013-06-06T10:35:33Z</time>
      </trkpt>
      <trkpt lat="46.75402" lon="5.62447">
        <ele>441.382446</ele>
        <time>2013-06-06T10:35:43Z</time>
      </trkpt>
      <trkpt lat="46.75383" lon="5.62449">
        <ele>440.901855</ele>
        <time>2013-06-06T10:35:58Z</time>
      </trkpt>
      <trkpt lat="46.75366" lon="5.62448">
        <ele>440.421265</ele>
        <time>2013-06-06T10:36:17Z</time>
      </trkpt>
      <trkpt lat="46.75354" lon="5.62447">
        <ele>439.94043</ele>
        <time>2013-06-06T10:36:30Z</time>
      </trkpt>
      <trkpt lat="46.75349" lon="5.62439">
        <ele>438.979126</ele>
        <time>2013-06-06T10:36:37Z</time>
      </trkpt>
      <trkpt lat="46.75344" lon="5.62426">
        <ele>438.017822</ele>
        <time>2013-06-06T10:36:50Z</time>
      </trkpt>
      <trkpt lat="46.75331" lon="5.62419">
        <ele>435.133911</ele>
        <time>2013-06-06T10:37:04Z</time>
      </trkpt>
      <trkpt lat="46.75323" lon="5.62408">
        <ele>434.65332</ele>
        <time>2013-06-06T10:37:19Z</time>
      </trkpt>
      <trkpt lat="46.75318" lon="5.62399">
        <ele>435.133911</ele>
        <time>2013-06-06T10:37:37Z</time>
      </trkpt>
      <trkpt lat="46.75317" lon="5.62398">
        <ele>435.133911</ele>
        <time>2013-06-06T10:38:07Z</time>
      </trkpt>
      <trkpt lat="46.75317" lon="5.62397">
        <ele>431.769165</ele>
        <time>2013-06-06T10:38:12Z</time>
      </trkpt>
      <trkpt lat="46.75316" lon="5.62398">
        <ele>438.498535</ele>
        <time>2013-06-06T10:38:13Z</time>
      </trkpt>
      <trkpt lat="46.75315" lon="5.62398">
        <ele>437.056519</ele>
        <time>2013-06-06T10:38:14Z</time>
      </trkpt>
      <trkpt lat="46.75316" lon="5.62398">
        <ele>434.65332</ele>
        <time>2013-06-06T10:38:16Z</time>
      </trkpt>
      <trkpt lat="46.75317" lon="5.62397">
        <ele>434.65332</ele>
        <time>2013-06-06T10:38:42Z</time>
      </trkpt>
      <trkpt lat="46.75318" lon="5.62397">
        <ele>435.133911</ele>
        <time>2013-06-06T10:47:01Z</time>
      </trkpt>
      <trkpt lat="46.75317" lon="5.62397">
        <ele>434.65332</ele>
        <time>2013-06-06T11:07:50Z</time>
      </trkpt>
      <trkpt lat="46.75317" lon="5.62396">
        <ele>434.172607</ele>
        <time>2013-06-06T11:08:10Z</time>
      </trkpt>
      <trkpt lat="46.75317" lon="5.62396">
        <ele>434.172607</ele>
        <time>2013-06-06T11:08:40Z</time>
      </trkpt>
      <trkpt lat="46.75316" lon="5.62396">
        <ele>434.172607</ele>
        <time>2013-06-06T11:09:34Z</time>
      </trkpt>
      <trkpt lat="46.75316" lon="5.62396">
        <ele>434.172607</ele>
        <time>2013-06-06T11:10:33Z</time>
      </trkpt>
      <trkpt lat="46.75315" lon="5.62396">
        <ele>434.65332</ele>
        <time>2013-06-06T11:11:05Z</time>
      </trkpt>
      <trkpt lat="46.75315" lon="5.62397">
        <ele>434.65332</ele>
        <time>2013-06-06T11:12:21Z</time>
      </trkpt>
      <trkpt lat="46.75315" lon="5.62396">
        <ele>434.172607</ele>
        <time>2013-06-06T11:13:41Z</time>
      </trkpt>
      <trkpt lat="46.75314" lon="5.62395">
        <ele>434.172607</ele>
        <time>2013-06-06T11:14:12Z</time>
      </trkpt>
      <trkpt lat="46.75313" lon="5.62395">
        <ele>433.691895</ele>
        <time>2013-06-06T11:15:09Z</time>
      </trkpt>
      <trkpt lat="46.75316" lon="5.62402">
        <ele>433.691895</ele>
        <time>2013-06-06T11:16:10Z</time>
      </trkpt>
      <trkpt lat="46.75315" lon="5.62404">
        <ele>434.172607</ele>
        <time>2013-06-06T11:16:12Z</time>
      </trkpt>
      <trkpt lat="46.75311" lon="5.62405">
        <ele>433.691895</ele>
        <time>2013-06-06T11:16:24Z</time>
      </trkpt>
      <trkpt lat="46.75315" lon="5.62403">
        <ele>433.691895</ele>
        <time>2013-06-06T11:16:41Z</time>
      </trkpt>
      <trkpt lat="46.75317" lon="5.62395">
        <ele>433.691895</ele>
        <time>2013-06-06T11:16:58Z</time>
      </trkpt>
      <trkpt lat="46.75317" lon="5.62395">
        <ele>433.691895</ele>
        <time>2013-06-06T11:17:21Z</time>
      </trkpt>
      <trkpt lat="46.75321" lon="5.62396">
        <ele>433.691895</ele>
        <time>2013-06-06T11:18:10Z</time>
      </trkpt>
      <trkpt lat="46.75322" lon="5.62402">
        <ele>433.691895</ele>
        <time>2013-06-06T11:19:13Z</time>
      </trkpt>
      <trkpt lat="46.75325" lon="5.62406">
        <ele>433.211304</ele>
        <time>2013-06-06T11:20:03Z</time>
      </trkpt>
      <trkpt lat="46.75329" lon="5.62414">
        <ele>434.172607</ele>
        <time>2013-06-06T11:20:19Z</time>
      </trkpt>
      <trkpt lat="46.75339" lon="5.62416">
        <ele>437.537109</ele>
        <time>2013-06-06T11:20:38Z</time>
      </trkpt>
      <trkpt lat="46.75342" lon="5.62419">
        <ele>437.537109</ele>
        <time>2013-06-06T11:20:42Z</time>
      </trkpt>
      <trkpt lat="46.75347" lon="5.62433">
        <ele>437.537109</ele>
        <time>2013-06-06T11:20:55Z</time>
      </trkpt>
      <trkpt lat="46.75356" lon="5.62444">
        <ele>438.979126</ele>
        <time>2013-06-06T11:21:09Z</time>
      </trkpt>
      <trkpt lat="46.75358" lon="5.62443">
        <ele>439.94043</ele>
        <time>2013-06-06T11:21:11Z</time>
      </trkpt>
      <trkpt lat="46.75371" lon="5.62437">
        <ele>439.459717</ele>
        <time>2013-06-06T11:21:27Z</time>
      </trkpt>
      <trkpt lat="46.75382" lon="5.62436">
        <ele>438.979126</ele>
        <time>2013-06-06T11:21:42Z</time>
      </trkpt>
      <trkpt lat="46.75388" lon="5.62444">
        <ele>438.979126</ele>
        <time>2013-06-06T11:21:54Z</time>
      </trkpt>
      <trkpt lat="46.75413" lon="5.62445">
        <ele>440.901855</ele>
        <time>2013-06-06T11:22:13Z</time>
      </trkpt>
      <trkpt lat="46.75437" lon="5.62441">
        <ele>440.421265</ele>
        <time>2013-06-06T11:22:35Z</time>
      </trkpt>
      <trkpt lat="46.75445" lon="5.62431">
        <ele>438.979126</ele>
        <time>2013-06-06T11:22:49Z</time>
      </trkpt>
      <trkpt lat="46.75445" lon="5.6243">
        <ele>438.979126</ele>
        <time>2013-06-06T11:22:50Z</time>
      </trkpt>
      <trkpt lat="46.75451" lon="5.62418">
        <ele>438.017822</ele>
        <time>2013-06-06T11:23:02Z</time>
      </trkpt>
      <trkpt lat="46.75455" lon="5.62408">
        <ele>437.056519</ele>
        <time>2013-06-06T11:23:11Z</time>
      </trkpt>
      <trkpt lat="46.75455" lon="5.62398">
        <ele>437.056519</ele>
        <time>2013-06-06T11:23:18Z</time>
      </trkpt>
      <trkpt lat="46.75462" lon="5.62375">
        <ele>436.575928</ele>
        <time>2013-06-06T11:23:34Z</time>
      </trkpt>
      <trkpt lat="46.75471" lon="5.62376">
        <ele>436.575928</ele>
        <time>2013-06-06T11:23:48Z</time>
      </trkpt>
      <trkpt lat="46.75496" lon="5.62382">
        <ele>438.017822</ele>
        <time>2013-06-06T11:24:17Z</time>
      </trkpt>
      <trkpt lat="46.75515" lon="5.62398">
        <ele>438.979126</ele>
        <time>2013-06-06T11:24:41Z</time>
      </trkpt>
      <trkpt lat="46.75517" lon="5.62398">
        <ele>439.459717</ele>
        <time>2013-06-06T11:24:44Z</time>
      </trkpt>
      <trkpt lat="46.75535" lon="5.62404">
        <ele>440.421265</ele>
        <time>2013-06-06T11:25:00Z</time>
      </trkpt>
      <trkpt lat="46.75536" lon="5.62404">
        <ele>440.901855</ele>
        <time>2013-06-06T11:25:02Z</time>
      </trkpt>
      <trkpt lat="46.7554" lon="5.62408">
        <ele>441.382446</ele>
        <time>2013-06-06T11:25:05Z</time>
      </trkpt>
      <trkpt lat="46.75552" lon="5.62414">
        <ele>441.382446</ele>
        <time>2013-06-06T11:25:21Z</time>
      </trkpt>
      <trkpt lat="46.75556" lon="5.62418">
        <ele>441.382446</ele>
        <time>2013-06-06T11:25:26Z</time>
      </trkpt>
      <trkpt lat="46.7558" lon="5.62435">
        <ele>442.343872</ele>
        <time>2013-06-06T11:25:48Z</time>
      </trkpt>
      <trkpt lat="46.75587" lon="5.62448">
        <ele>442.343872</ele>
        <time>2013-06-06T11:25:59Z</time>
      </trkpt>
      <trkpt lat="46.75588" lon="5.6245">
        <ele>442.824463</ele>
        <time>2013-06-06T11:26:00Z</time>
      </trkpt>
      <trkpt lat="46.7559" lon="5.6245">
        <ele>442.824463</ele>
        <time>2013-06-06T11:26:02Z</time>
      </trkpt>
      <trkpt lat="46.75593" lon="5.62454">
        <ele>443.305054</ele>
        <time>2013-06-06T11:26:05Z</time>
      </trkpt>
      <trkpt lat="46.75607" lon="5.62466">
        <ele>443.785767</ele>
        <time>2013-06-06T11:26:22Z</time>
      </trkpt>
      <trkpt lat="46.75622" lon="5.6248">
        <ele>444.74707</ele>
        <time>2013-06-06T11:26:40Z</time>
      </trkpt>
      <trkpt lat="46.75635" lon="5.62482">
        <ele>444.74707</ele>
        <time>2013-06-06T11:26:54Z</time>
      </trkpt>
      <trkpt lat="46.75636" lon="5.62484">
        <ele>444.74707</ele>
        <time>2013-06-06T11:26:56Z</time>
      </trkpt>
      <trkpt lat="46.75641" lon="5.62489">
        <ele>444.74707</ele>
        <time>2013-06-06T11:27:11Z</time>
      </trkpt>
      <trkpt lat="46.75652" lon="5.62495">
        <ele>444.266479</ele>
        <time>2013-06-06T11:27:25Z</time>
      </trkpt>
      <trkpt lat="46.75658" lon="5.625">
        <ele>444.266479</ele>
        <time>2013-06-06T11:27:45Z</time>
      </trkpt>
      <trkpt lat="46.7566" lon="5.62525">
        <ele>444.266479</ele>
        <time>2013-06-06T11:28:03Z</time>
      </trkpt>
      <trkpt lat="46.75658" lon="5.62535">
        <ele>444.266479</ele>
        <time>2013-06-06T11:28:12Z</time>
      </trkpt>
      <trkpt lat="46.75657" lon="5.62556">
        <ele>444.74707</ele>
        <time>2013-06-06T11:28:27Z</time>
      </trkpt>
      <trkpt lat="46.75657" lon="5.62558">
        <ele>444.266479</ele>
        <time>2013-06-06T11:28:28Z</time>
      </trkpt>
      <trkpt lat="46.75655" lon="5.62572">
        <ele>444.266479</ele>
        <time>2013-06-06T11:28:36Z</time>
      </trkpt>
      <trkpt lat="46.75655" lon="5.62589">
        <ele>443.785767</ele>
        <time>2013-06-06T11:28:47Z</time>
      </trkpt>
      <trkpt lat="46.75653" lon="5.62595">
        <ele>443.785767</ele>
        <time>2013-06-06T11:28:51Z</time>
      </trkpt>
      <trkpt lat="46.75645" lon="5.62614">
        <ele>442.824463</ele>
        <time>2013-06-06T11:29:05Z</time>
      </trkpt>
      <trkpt lat="46.75644" lon="5.62616">
        <ele>442.824463</ele>
        <time>2013-06-06T11:29:07Z</time>
      </trkpt>
      <trkpt lat="46.75641" lon="5.62622">
        <ele>442.824463</ele>
        <time>2013-06-06T11:29:14Z</time>
      </trkpt>
      <trkpt lat="46.75639" lon="5.62628">
        <ele>442.824463</ele>
        <time>2013-06-06T11:29:18Z</time>
      </trkpt>
      <trkpt lat="46.75639" lon="5.62632">
        <ele>442.824463</ele>
        <time>2013-06-06T11:29:21Z</time>
      </trkpt>
      <trkpt lat="46.75638" lon="5.62644">
        <ele>441.863159</ele>
        <time>2013-06-06T11:29:29Z</time>
      </trkpt>
      <trkpt lat="46.75639" lon="5.62663">
        <ele>440.421265</ele>
        <time>2013-06-06T11:29:46Z</time>
      </trkpt>
      <trkpt lat="46.75635" lon="5.62678">
        <ele>438.979126</ele>
        <time>2013-06-06T11:30:02Z</time>
      </trkpt>
      <trkpt lat="46.75634" lon="5.62679">
        <ele>438.979126</ele>
        <time>2013-06-06T11:30:03Z</time>
      </trkpt>
      <trkpt lat="46.7562" lon="5.62695">
        <ele>437.056519</ele>
        <time>2013-06-06T11:30:23Z</time>
      </trkpt>
      <trkpt lat="46.75609" lon="5.62697">
        <ele>435.614502</ele>
        <time>2013-06-06T11:30:37Z</time>
      </trkpt>
      <trkpt lat="46.75596" lon="5.62699">
        <ele>434.172607</ele>
        <time>2013-06-06T11:30:53Z</time>
      </trkpt>
      <trkpt lat="46.75585" lon="5.6271">
        <ele>432.730713</ele>
        <time>2013-06-06T11:31:07Z</time>
      </trkpt>
      <trkpt lat="46.75579" lon="5.62727">
        <ele>430.327271</ele>
        <time>2013-06-06T11:31:26Z</time>
      </trkpt>
      <trkpt lat="46.75579" lon="5.62738">
        <ele>429.365967</ele>
        <time>2013-06-06T11:31:33Z</time>
      </trkpt>
      <trkpt lat="46.75584" lon="5.62758">
        <ele>427.443359</ele>
        <time>2013-06-06T11:31:47Z</time>
      </trkpt>
      <trkpt lat="46.75588" lon="5.62784">
        <ele>424.559448</ele>
        <time>2013-06-06T11:32:07Z</time>
      </trkpt>
      <trkpt lat="46.75598" lon="5.62815">
        <ele>421.675415</ele>
        <time>2013-06-06T11:32:31Z</time>
      </trkpt>
      <trkpt lat="46.75611" lon="5.62832">
        <ele>419.272217</ele>
        <time>2013-06-06T11:32:48Z</time>
      </trkpt>
      <trkpt lat="46.75622" lon="5.62854">
        <ele>416.868896</ele>
        <time>2013-06-06T11:33:06Z</time>
      </trkpt>
      <trkpt lat="46.75627" lon="5.6286">
        <ele>415.907471</ele>
        <time>2013-06-06T11:33:11Z</time>
      </trkpt>
      <trkpt lat="46.7563" lon="5.62868">
        <ele>415.907471</ele>
        <time>2013-06-06T11:33:17Z</time>
      </trkpt>
      <trkpt lat="46.75633" lon="5.6289">
        <ele>413.504272</ele>
        <time>2013-06-06T11:33:31Z</time>
      </trkpt>
      <trkpt lat="46.75641" lon="5.62906">
        <ele>412.542847</ele>
        <time>2013-06-06T11:33:47Z</time>
      </trkpt>
      <trkpt lat="46.75665" lon="5.62934">
        <ele>410.620239</ele>
        <time>2013-06-06T11:34:17Z</time>
      </trkpt>
      <trkpt lat="46.75671" lon="5.62963">
        <ele>412.062256</ele>
        <time>2013-06-06T11:34:35Z</time>
      </trkpt>
      <trkpt lat="46.75685" lon="5.62988">
        <ele>413.504272</ele>
        <time>2013-06-06T11:34:58Z</time>
      </trkpt>
      <trkpt lat="46.75691" lon="5.63018">
        <ele>415.42688</ele>
        <time>2013-06-06T11:35:20Z</time>
      </trkpt>
      <trkpt lat="46.75693" lon="5.63045">
        <ele>417.349609</ele>
        <time>2013-06-06T11:35:37Z</time>
      </trkpt>
      <trkpt lat="46.75704" lon="5.63069">
        <ele>418.310791</ele>
        <time>2013-06-06T11:35:53Z</time>
      </trkpt>
      <trkpt lat="46.75715" lon="5.63103">
        <ele>418.791504</ele>
        <time>2013-06-06T11:36:14Z</time>
      </trkpt>
      <trkpt lat="46.75719" lon="5.63111">
        <ele>418.791504</ele>
        <time>2013-06-06T11:36:20Z</time>
      </trkpt>
      <trkpt lat="46.75726" lon="5.6313">
        <ele>419.752808</ele>
        <time>2013-06-06T11:36:38Z</time>
      </trkpt>
      <trkpt lat="46.75739" lon="5.63142">
        <ele>421.675415</ele>
        <time>2013-06-06T11:37:01Z</time>
      </trkpt>
      <trkpt lat="46.75747" lon="5.63159">
        <ele>423.117432</ele>
        <time>2013-06-06T11:37:20Z</time>
      </trkpt>
      <trkpt lat="46.75756" lon="5.63188">
        <ele>425.040161</ele>
        <time>2013-06-06T11:37:44Z</time>
      </trkpt>
      <trkpt lat="46.75773" lon="5.63208">
        <ele>426.962769</ele>
        <time>2013-06-06T11:38:04Z</time>
      </trkpt>
      <trkpt lat="46.75786" lon="5.63247">
        <ele>428.404663</ele>
        <time>2013-06-06T11:38:25Z</time>
      </trkpt>
      <trkpt lat="46.75797" lon="5.63254">
        <ele>430.327271</ele>
        <time>2013-06-06T11:38:47Z</time>
      </trkpt>
      <trkpt lat="46.75806" lon="5.63269">
        <ele>432.25</ele>
        <time>2013-06-06T11:39:04Z</time>
      </trkpt>
      <trkpt lat="46.75822" lon="5.63282">
        <ele>433.691895</ele>
        <time>2013-06-06T11:39:23Z</time>
      </trkpt>
      <trkpt lat="46.75835" lon="5.63307">
        <ele>435.133911</ele>
        <time>2013-06-06T11:39:43Z</time>
      </trkpt>
      <trkpt lat="46.75845" lon="5.63324">
        <ele>437.056519</ele>
        <time>2013-06-06T11:40:01Z</time>
      </trkpt>
      <trkpt lat="46.75854" lon="5.63341">
        <ele>438.017822</ele>
        <time>2013-06-06T11:40:15Z</time>
      </trkpt>
      <trkpt lat="46.75867" lon="5.63361">
        <ele>439.94043</ele>
        <time>2013-06-06T11:40:36Z</time>
      </trkpt>
      <trkpt lat="46.75882" lon="5.63384">
        <ele>441.863159</ele>
        <time>2013-06-06T11:40:57Z</time>
      </trkpt>
      <trkpt lat="46.75889" lon="5.634">
        <ele>442.824463</ele>
        <time>2013-06-06T11:41:16Z</time>
      </trkpt>
      <trkpt lat="46.759" lon="5.63417">
        <ele>444.266479</ele>
        <time>2013-06-06T11:41:31Z</time>
      </trkpt>
      <trkpt lat="46.75908" lon="5.63424">
        <ele>445.708374</ele>
        <time>2013-06-06T11:41:49Z</time>
      </trkpt>
      <trkpt lat="46.75922" lon="5.63432">
        <ele>447.150269</ele>
        <time>2013-06-06T11:42:09Z</time>
      </trkpt>
      <trkpt lat="46.7593" lon="5.63454">
        <ele>448.111816</ele>
        <time>2013-06-06T11:42:26Z</time>
      </trkpt>
      <trkpt lat="46.75941" lon="5.63473">
        <ele>449.072998</ele>
        <time>2013-06-06T11:42:44Z</time>
      </trkpt>
      <trkpt lat="46.7595" lon="5.6348">
        <ele>449.553711</ele>
        <time>2013-06-06T11:42:52Z</time>
      </trkpt>
      <trkpt lat="46.75955" lon="5.6349">
        <ele>450.515015</ele>
        <time>2013-06-06T11:43:00Z</time>
      </trkpt>
      <trkpt lat="46.75975" lon="5.63502">
        <ele>450.995605</ele>
        <time>2013-06-06T11:43:20Z</time>
      </trkpt>
      <trkpt lat="46.75985" lon="5.63521">
        <ele>452.437622</ele>
        <time>2013-06-06T11:43:34Z</time>
      </trkpt>
      <trkpt lat="46.75996" lon="5.63533">
        <ele>452.918213</ele>
        <time>2013-06-06T11:43:49Z</time>
      </trkpt>
      <trkpt lat="46.76009" lon="5.63551">
        <ele>453.879639</ele>
        <time>2013-06-06T11:44:07Z</time>
      </trkpt>
      <trkpt lat="46.76026" lon="5.63576">
        <ele>454.84082</ele>
        <time>2013-06-06T11:44:25Z</time>
      </trkpt>
      <trkpt lat="46.76043" lon="5.63593">
        <ele>456.282959</ele>
        <time>2013-06-06T11:44:47Z</time>
      </trkpt>
      <trkpt lat="46.76056" lon="5.63607">
        <ele>457.724976</ele>
        <time>2013-06-06T11:45:05Z</time>
      </trkpt>
      <trkpt lat="46.7607" lon="5.63629">
        <ele>458.205566</ele>
        <time>2013-06-06T11:45:27Z</time>
      </trkpt>
      <trkpt lat="46.7609" lon="5.6364">
        <ele>459.647583</ele>
        <time>2013-06-06T11:45:49Z</time>
      </trkpt>
      <trkpt lat="46.76094" lon="5.63644">
        <ele>459.647583</ele>
        <time>2013-06-06T11:45:53Z</time>
      </trkpt>
      <trkpt lat="46.76106" lon="5.63657">
        <ele>460.128174</ele>
        <time>2013-06-06T11:46:08Z</time>
      </trkpt>
      <trkpt lat="46.76119" lon="5.6367">
        <ele>461.57019</ele>
        <time>2013-06-06T11:46:25Z</time>
      </trkpt>
      <trkpt lat="46.76126" lon="5.63683">
        <ele>461.57019</ele>
        <time>2013-06-06T11:46:44Z</time>
      </trkpt>
      <trkpt lat="46.76131" lon="5.63692">
        <ele>462.050781</ele>
        <time>2013-06-06T11:46:52Z</time>
      </trkpt>
      <trkpt lat="46.76144" lon="5.6371">
        <ele>462.531372</ele>
        <time>2013-06-06T11:47:05Z</time>
      </trkpt>
      <trkpt lat="46.76157" lon="5.63736">
        <ele>463.973389</ele>
        <time>2013-06-06T11:47:28Z</time>
      </trkpt>
      <trkpt lat="46.7617" lon="5.63758">
        <ele>465.415527</ele>
        <time>2013-06-06T11:47:49Z</time>
      </trkpt>
      <trkpt lat="46.76185" lon="5.63788">
        <ele>466.857422</ele>
        <time>2013-06-06T11:48:11Z</time>
      </trkpt>
      <trkpt lat="46.76198" lon="5.63807">
        <ele>468.299316</ele>
        <time>2013-06-06T11:48:30Z</time>
      </trkpt>
      <trkpt lat="46.76209" lon="5.6383">
        <ele>469.260742</ele>
        <time>2013-06-06T11:48:49Z</time>
      </trkpt>
      <trkpt lat="46.76217" lon="5.6386">
        <ele>470.221924</ele>
        <time>2013-06-06T11:49:08Z</time>
      </trkpt>
      <trkpt lat="46.76219" lon="5.63883">
        <ele>471.18335</ele>
        <time>2013-06-06T11:49:26Z</time>
      </trkpt>
      <trkpt lat="46.7622" lon="5.63918">
        <ele>472.625366</ele>
        <time>2013-06-06T11:49:48Z</time>
      </trkpt>
      <trkpt lat="46.76226" lon="5.6394">
        <ele>474.067261</ele>
        <time>2013-06-06T11:50:06Z</time>
      </trkpt>
      <trkpt lat="46.76232" lon="5.63965">
        <ele>475.028687</ele>
        <time>2013-06-06T11:50:25Z</time>
      </trkpt>
      <trkpt lat="46.76248" lon="5.63988">
        <ele>476.951294</ele>
        <time>2013-06-06T11:50:42Z</time>
      </trkpt>
      <trkpt lat="46.76258" lon="5.64007">
        <ele>477.912476</ele>
        <time>2013-06-06T11:51:01Z</time>
      </trkpt>
      <trkpt lat="46.7627" lon="5.64025">
        <ele>478.873901</ele>
        <time>2013-06-06T11:51:17Z</time>
      </trkpt>
      <trkpt lat="46.76285" lon="5.64039">
        <ele>480.315918</ele>
        <time>2013-06-06T11:51:32Z</time>
      </trkpt>
      <trkpt lat="46.76292" lon="5.64053">
        <ele>480.796631</ele>
        <time>2013-06-06T11:51:50Z</time>
      </trkpt>
      <trkpt lat="46.76294" lon="5.6406">
        <ele>481.277222</ele>
        <time>2013-06-06T11:52:22Z</time>
      </trkpt>
      <trkpt lat="46.76303" lon="5.64067">
        <ele>482.238525</ele>
        <time>2013-06-06T11:52:31Z</time>
      </trkpt>
      <trkpt lat="46.76307" lon="5.64064">
        <ele>482.238525</ele>
        <time>2013-06-06T11:52:36Z</time>
      </trkpt>
      <trkpt lat="46.7633" lon="5.64049">
        <ele>482.719238</ele>
        <time>2013-06-06T11:52:59Z</time>
      </trkpt>
      <trkpt lat="46.76354" lon="5.64034">
        <ele>483.68042</ele>
        <time>2013-06-06T11:53:21Z</time>
      </trkpt>
      <trkpt lat="46.76381" lon="5.64021">
        <ele>485.603027</ele>
        <time>2013-06-06T11:53:46Z</time>
      </trkpt>
      <trkpt lat="46.76404" lon="5.6401">
        <ele>487.045044</ele>
        <time>2013-06-06T11:54:08Z</time>
      </trkpt>
      <trkpt lat="46.7643" lon="5.64004">
        <ele>487.045044</ele>
        <time>2013-06-06T11:54:27Z</time>
      </trkpt>
      <trkpt lat="46.76447" lon="5.64001">
        <ele>487.525635</ele>
        <time>2013-06-06T11:54:44Z</time>
      </trkpt>
      <trkpt lat="46.76463" lon="5.64">
        <ele>488.487183</ele>
        <time>2013-06-06T11:55:00Z</time>
      </trkpt>
      <trkpt lat="46.76471" lon="5.64001">
        <ele>488.487183</ele>
        <time>2013-06-06T11:55:07Z</time>
      </trkpt>
      <trkpt lat="46.76489" lon="5.63997">
        <ele>489.929077</ele>
        <time>2013-06-06T11:55:24Z</time>
      </trkpt>
      <trkpt lat="46.76506" lon="5.64005">
        <ele>490.890381</ele>
        <time>2013-06-06T11:55:40Z</time>
      </trkpt>
      <trkpt lat="46.7653" lon="5.64012">
        <ele>492.332397</ele>
        <time>2013-06-06T11:56:02Z</time>
      </trkpt>
      <trkpt lat="46.76565" lon="5.64024">
        <ele>494.735596</ele>
        <time>2013-06-06T11:56:33Z</time>
      </trkpt>
      <trkpt lat="46.76583" lon="5.64031">
        <ele>496.177734</ele>
        <time>2013-06-06T11:56:51Z</time>
      </trkpt>
      <trkpt lat="46.766" lon="5.64037">
        <ele>497.138916</ele>
        <time>2013-06-06T11:57:07Z</time>
      </trkpt>
      <trkpt lat="46.7662" lon="5.6404">
        <ele>497.619629</ele>
        <time>2013-06-06T11:57:26Z</time>
      </trkpt>
      <trkpt lat="46.76651" lon="5.64045">
        <ele>497.619629</ele>
        <time>2013-06-06T11:57:51Z</time>
      </trkpt>
      <trkpt lat="46.76672" lon="5.6405">
        <ele>497.138916</ele>
        <time>2013-06-06T11:58:10Z</time>
      </trkpt>
      <trkpt lat="46.76695" lon="5.64064">
        <ele>495.696899</ele>
        <time>2013-06-06T11:58:31Z</time>
      </trkpt>
      <trkpt lat="46.76712" lon="5.64072">
        <ele>495.216187</ele>
        <time>2013-06-06T11:58:47Z</time>
      </trkpt>
      <trkpt lat="46.76732" lon="5.64082">
        <ele>494.735596</ele>
        <time>2013-06-06T11:59:07Z</time>
      </trkpt>
      <trkpt lat="46.76751" lon="5.64091">
        <ele>493.774292</ele>
        <time>2013-06-06T11:59:26Z</time>
      </trkpt>
      <trkpt lat="46.76779" lon="5.641">
        <ele>492.332397</ele>
        <time>2013-06-06T11:59:50Z</time>
      </trkpt>
      <trkpt lat="46.76802" lon="5.64103">
        <ele>490.890381</ele>
        <time>2013-06-06T12:00:11Z</time>
      </trkpt>
      <trkpt lat="46.76823" lon="5.64101">
        <ele>490.890381</ele>
        <time>2013-06-06T12:00:30Z</time>
      </trkpt>
      <trkpt lat="46.76842" lon="5.64101">
        <ele>490.40979</ele>
        <time>2013-06-06T12:00:48Z</time>
      </trkpt>
      <trkpt lat="46.76855" lon="5.64098">
        <ele>490.890381</ele>
        <time>2013-06-06T12:01:02Z</time>
      </trkpt>
      <trkpt lat="46.76858" lon="5.64098">
        <ele>490.890381</ele>
        <time>2013-06-06T12:01:04Z</time>
      </trkpt>
      <trkpt lat="46.76866" lon="5.64097">
        <ele>490.890381</ele>
        <time>2013-06-06T12:01:11Z</time>
      </trkpt>
      <trkpt lat="46.76876" lon="5.64095">
        <ele>490.890381</ele>
        <time>2013-06-06T12:01:21Z</time>
      </trkpt>
      <trkpt lat="46.76878" lon="5.64097">
        <ele>490.890381</ele>
        <time>2013-06-06T12:01:23Z</time>
      </trkpt>
      <trkpt lat="46.76892" lon="5.64095">
        <ele>491.370972</ele>
        <time>2013-06-06T12:01:33Z</time>
      </trkpt>
      <trkpt lat="46.76904" lon="5.64086">
        <ele>492.332397</ele>
        <time>2013-06-06T12:01:44Z</time>
      </trkpt>
      <trkpt lat="46.76908" lon="5.6408">
        <ele>492.332397</ele>
        <time>2013-06-06T12:01:50Z</time>
      </trkpt>
      <trkpt lat="46.76919" lon="5.64041">
        <ele>493.774292</ele>
        <time>2013-06-06T12:02:14Z</time>
      </trkpt>
      <trkpt lat="46.76926" lon="5.64012">
        <ele>494.255005</ele>
        <time>2013-06-06T12:02:33Z</time>
      </trkpt>
      <trkpt lat="46.76934" lon="5.6399">
        <ele>494.735596</ele>
        <time>2013-06-06T12:02:49Z</time>
      </trkpt>
      <trkpt lat="46.76938" lon="5.63984">
        <ele>494.735596</ele>
        <time>2013-06-06T12:02:54Z</time>
      </trkpt>
      <trkpt lat="46.7694" lon="5.63977">
        <ele>494.255005</ele>
        <time>2013-06-06T12:02:58Z</time>
      </trkpt>
      <trkpt lat="46.76942" lon="5.63972">
        <ele>493.774292</ele>
        <time>2013-06-06T12:03:01Z</time>
      </trkpt>
      <trkpt lat="46.7695" lon="5.6394">
        <ele>491.851685</ele>
        <time>2013-06-06T12:03:21Z</time>
      </trkpt>
      <trkpt lat="46.76959" lon="5.63914">
        <ele>489.448364</ele>
        <time>2013-06-06T12:03:41Z</time>
      </trkpt>
      <trkpt lat="46.76973" lon="5.63891">
        <ele>488.00647</ele>
        <time>2013-06-06T12:03:57Z</time>
      </trkpt>
      <trkpt lat="46.76976" lon="5.63885">
        <ele>487.045044</ele>
        <time>2013-06-06T12:04:02Z</time>
      </trkpt>
      <trkpt lat="46.76985" lon="5.63859">
        <ele>485.122437</ele>
        <time>2013-06-06T12:04:19Z</time>
      </trkpt>
      <trkpt lat="46.76997" lon="5.63832">
        <ele>485.122437</ele>
        <time>2013-06-06T12:04:36Z</time>
      </trkpt>
      <trkpt lat="46.77001" lon="5.6382">
        <ele>485.122437</ele>
        <time>2013-06-06T12:04:54Z</time>
      </trkpt>
      <trkpt lat="46.76994" lon="5.63824">
        <ele>484.641846</ele>
        <time>2013-06-06T12:05:35Z</time>
      </trkpt>
      <trkpt lat="46.76997" lon="5.6382">
        <ele>485.122437</ele>
        <time>2013-06-06T12:06:42Z</time>
      </trkpt>
      <trkpt lat="46.76992" lon="5.63805">
        <ele>483.68042</ele>
        <time>2013-06-06T12:08:02Z</time>
      </trkpt>
      <trkpt lat="46.76986" lon="5.63788">
        <ele>483.199829</ele>
        <time>2013-06-06T12:08:19Z</time>
      </trkpt>
      <trkpt lat="46.76985" lon="5.63788">
        <ele>483.199829</ele>
        <time>2013-06-06T12:08:23Z</time>
      </trkpt>
      <trkpt lat="46.76974" lon="5.63776">
        <ele>481.757812</ele>
        <time>2013-06-06T12:08:38Z</time>
      </trkpt>
      <trkpt lat="46.76968" lon="5.6377">
        <ele>480.796631</ele>
        <time>2013-06-06T12:08:47Z</time>
      </trkpt>
      <trkpt lat="46.76966" lon="5.63768">
        <ele>480.315918</ele>
        <time>2013-06-06T12:08:51Z</time>
      </trkpt>
      <trkpt lat="46.76961" lon="5.63764">
        <ele>480.796631</ele>
        <time>2013-06-06T12:08:56Z</time>
      </trkpt>
      <trkpt lat="46.76951" lon="5.63748">
        <ele>481.277222</ele>
        <time>2013-06-06T12:09:14Z</time>
      </trkpt>
      <trkpt lat="46.76942" lon="5.63733">
        <ele>481.277222</ele>
        <time>2013-06-06T12:09:32Z</time>
      </trkpt>
      <trkpt lat="46.76934" lon="5.63719">
        <ele>480.315918</ele>
        <time>2013-06-06T12:09:43Z</time>
      </trkpt>
      <trkpt lat="46.76919" lon="5.637">
        <ele>480.315918</ele>
        <time>2013-06-06T12:09:59Z</time>
      </trkpt>
      <trkpt lat="46.76911" lon="5.63691">
        <ele>480.315918</ele>
        <time>2013-06-06T12:10:08Z</time>
      </trkpt>
      <trkpt lat="46.76905" lon="5.6367">
        <ele>480.796631</ele>
        <time>2013-06-06T12:10:21Z</time>
      </trkpt>
      <trkpt lat="46.76896" lon="5.6366">
        <ele>481.757812</ele>
        <time>2013-06-06T12:10:35Z</time>
      </trkpt>
      <trkpt lat="46.76884" lon="5.63643">
        <ele>482.238525</ele>
        <time>2013-06-06T12:10:50Z</time>
      </trkpt>
      <trkpt lat="46.76873" lon="5.63629">
        <ele>482.719238</ele>
        <time>2013-06-06T12:11:04Z</time>
      </trkpt>
      <trkpt lat="46.7687" lon="5.63617">
        <ele>483.199829</ele>
        <time>2013-06-06T12:11:21Z</time>
      </trkpt>
      <trkpt lat="46.76867" lon="5.63608">
        <ele>483.68042</ele>
        <time>2013-06-06T12:11:40Z</time>
      </trkpt>
      <trkpt lat="46.76874" lon="5.63591">
        <ele>482.238525</ele>
        <time>2013-06-06T12:11:56Z</time>
      </trkpt>
      <trkpt lat="46.76877" lon="5.6358">
        <ele>482.238525</ele>
        <time>2013-06-06T12:12:01Z</time>
      </trkpt>
      <trkpt lat="46.76883" lon="5.63565">
        <ele>482.238525</ele>
        <time>2013-06-06T12:12:12Z</time>
      </trkpt>
      <trkpt lat="46.76892" lon="5.63556">
        <ele>483.199829</ele>
        <time>2013-06-06T12:12:26Z</time>
      </trkpt>
      <trkpt lat="46.76908" lon="5.63538">
        <ele>484.161133</ele>
        <time>2013-06-06T12:12:44Z</time>
      </trkpt>
      <trkpt lat="46.76914" lon="5.6352">
        <ele>483.68042</ele>
        <time>2013-06-06T12:12:59Z</time>
      </trkpt>
      <trkpt lat="46.76918" lon="5.63507">
        <ele>483.199829</ele>
        <time>2013-06-06T12:13:06Z</time>
      </trkpt>
      <trkpt lat="46.76918" lon="5.63484">
        <ele>480.796631</ele>
        <time>2013-06-06T12:13:23Z</time>
      </trkpt>
      <trkpt lat="46.76914" lon="5.63456">
        <ele>481.277222</ele>
        <time>2013-06-06T12:13:44Z</time>
      </trkpt>
      <trkpt lat="46.76906" lon="5.63434">
        <ele>479.835083</ele>
        <time>2013-06-06T12:14:00Z</time>
      </trkpt>
      <trkpt lat="46.76901" lon="5.63406">
        <ele>479.354492</ele>
        <time>2013-06-06T12:14:21Z</time>
      </trkpt>
      <trkpt lat="46.76901" lon="5.63378">
        <ele>479.835083</ele>
        <time>2013-06-06T12:14:35Z</time>
      </trkpt>
      <trkpt lat="46.76897" lon="5.6335">
        <ele>479.835083</ele>
        <time>2013-06-06T12:14:53Z</time>
      </trkpt>
      <trkpt lat="46.76883" lon="5.6331">
        <ele>480.315918</ele>
        <time>2013-06-06T12:15:20Z</time>
      </trkpt>
      <trkpt lat="46.76878" lon="5.63283">
        <ele>481.757812</ele>
        <time>2013-06-06T12:15:40Z</time>
      </trkpt>
      <trkpt lat="46.76868" lon="5.63256">
        <ele>483.199829</ele>
        <time>2013-06-06T12:15:58Z</time>
      </trkpt>
      <trkpt lat="46.76859" lon="5.63233">
        <ele>484.641846</ele>
        <time>2013-06-06T12:16:17Z</time>
      </trkpt>
      <trkpt lat="46.76843" lon="5.63208">
        <ele>485.603027</ele>
        <time>2013-06-06T12:16:38Z</time>
      </trkpt>
      <trkpt lat="46.76829" lon="5.63184">
        <ele>486.564453</ele>
        <time>2013-06-06T12:16:59Z</time>
      </trkpt>
      <trkpt lat="46.76809" lon="5.63147">
        <ele>488.00647</ele>
        <time>2013-06-06T12:17:25Z</time>
      </trkpt>
      <trkpt lat="46.76798" lon="5.63126">
        <ele>488.487183</ele>
        <time>2013-06-06T12:17:40Z</time>
      </trkpt>
      <trkpt lat="46.76789" lon="5.63108">
        <ele>487.525635</ele>
        <time>2013-06-06T12:17:56Z</time>
      </trkpt>
      <trkpt lat="46.76771" lon="5.63095">
        <ele>486.08374</ele>
        <time>2013-06-06T12:18:13Z</time>
      </trkpt>
      <trkpt lat="46.76755" lon="5.63084">
        <ele>484.161133</ele>
        <time>2013-06-06T12:18:30Z</time>
      </trkpt>
      <trkpt lat="46.76737" lon="5.63072">
        <ele>482.238525</ele>
        <time>2013-06-06T12:18:48Z</time>
      </trkpt>
      <trkpt lat="46.7672" lon="5.63064">
        <ele>480.315918</ele>
        <time>2013-06-06T12:19:02Z</time>
      </trkpt>
      <trkpt lat="46.76711" lon="5.63044">
        <ele>480.796631</ele>
        <time>2013-06-06T12:19:17Z</time>
      </trkpt>
      <trkpt lat="46.76709" lon="5.63003">
        <ele>483.199829</ele>
        <time>2013-06-06T12:19:40Z</time>
      </trkpt>
      <trkpt lat="46.767" lon="5.62974">
        <ele>482.719238</ele>
        <time>2013-06-06T12:19:59Z</time>
      </trkpt>
      <trkpt lat="46.76701" lon="5.62965">
        <ele>482.719238</ele>
        <time>2013-06-06T12:20:05Z</time>
      </trkpt>
      <trkpt lat="46.76712" lon="5.62941">
        <ele>484.641846</ele>
        <time>2013-06-06T12:20:20Z</time>
      </trkpt>
      <trkpt lat="46.76729" lon="5.62904">
        <ele>487.525635</ele>
        <time>2013-06-06T12:20:40Z</time>
      </trkpt>
      <trkpt lat="46.7674" lon="5.62879">
        <ele>490.890381</ele>
        <time>2013-06-06T12:21:01Z</time>
      </trkpt>
      <trkpt lat="46.76745" lon="5.62853">
        <ele>491.851685</ele>
        <time>2013-06-06T12:21:18Z</time>
      </trkpt>
      <trkpt lat="46.76747" lon="5.62817">
        <ele>491.370972</ele>
        <time>2013-06-06T12:21:38Z</time>
      </trkpt>
      <trkpt lat="46.76741" lon="5.62802">
        <ele>491.370972</ele>
        <time>2013-06-06T12:21:46Z</time>
      </trkpt>
      <trkpt lat="46.76735" lon="5.62788">
        <ele>491.370972</ele>
        <time>2013-06-06T12:21:58Z</time>
      </trkpt>
      <trkpt lat="46.76732" lon="5.62782">
        <ele>490.890381</ele>
        <time>2013-06-06T12:22:01Z</time>
      </trkpt>
      <trkpt lat="46.76713" lon="5.62781">
        <ele>488.00647</ele>
        <time>2013-06-06T12:22:22Z</time>
      </trkpt>
      <trkpt lat="46.76712" lon="5.62759">
        <ele>488.967773</ele>
        <time>2013-06-06T12:22:40Z</time>
      </trkpt>
      <trkpt lat="46.76726" lon="5.62729">
        <ele>491.851685</ele>
        <time>2013-06-06T12:23:07Z</time>
      </trkpt>
      <trkpt lat="46.76744" lon="5.62708">
        <ele>493.774292</ele>
        <time>2013-06-06T12:23:27Z</time>
      </trkpt>
      <trkpt lat="46.76757" lon="5.6269">
        <ele>495.216187</ele>
        <time>2013-06-06T12:23:42Z</time>
      </trkpt>
      <trkpt lat="46.76765" lon="5.62667">
        <ele>495.696899</ele>
        <time>2013-06-06T12:23:59Z</time>
      </trkpt>
      <trkpt lat="46.76765" lon="5.62662">
        <ele>495.696899</ele>
        <time>2013-06-06T12:24:02Z</time>
      </trkpt>
      <trkpt lat="46.7677" lon="5.62631">
        <ele>495.696899</ele>
        <time>2013-06-06T12:24:21Z</time>
      </trkpt>
      <trkpt lat="46.76774" lon="5.62609">
        <ele>495.696899</ele>
        <time>2013-06-06T12:24:34Z</time>
      </trkpt>
      <trkpt lat="46.76784" lon="5.62599">
        <ele>496.658325</ele>
        <time>2013-06-06T12:24:54Z</time>
      </trkpt>
      <trkpt lat="46.76796" lon="5.62598">
        <ele>497.619629</ele>
        <time>2013-06-06T12:25:13Z</time>
      </trkpt>
      <trkpt lat="46.76801" lon="5.62594">
        <ele>497.138916</ele>
        <time>2013-06-06T12:25:46Z</time>
      </trkpt>
      <trkpt lat="46.76803" lon="5.62593">
        <ele>495.696899</ele>
        <time>2013-06-06T12:26:02Z</time>
      </trkpt>
      <trkpt lat="46.76803" lon="5.62594">
        <ele>497.619629</ele>
        <time>2013-06-06T12:26:16Z</time>
      </trkpt>
      <trkpt lat="46.76804" lon="5.62593">
        <ele>497.138916</ele>
        <time>2013-06-06T12:26:52Z</time>
      </trkpt>
      <trkpt lat="46.76807" lon="5.62597">
        <ele>497.138916</ele>
        <time>2013-06-06T12:27:05Z</time>
      </trkpt>
      <trkpt lat="46.76822" lon="5.62608">
        <ele>495.696899</ele>
        <time>2013-06-06T12:27:22Z</time>
      </trkpt>
      <trkpt lat="46.7685" lon="5.6262">
        <ele>494.255005</ele>
        <time>2013-06-06T12:27:42Z</time>
      </trkpt>
      <trkpt lat="46.76872" lon="5.62629">
        <ele>493.293579</ele>
        <time>2013-06-06T12:28:01Z</time>
      </trkpt>
      <trkpt lat="46.76881" lon="5.6263">
        <ele>492.812988</ele>
        <time>2013-06-06T12:28:08Z</time>
      </trkpt>
      <trkpt lat="46.76895" lon="5.62634">
        <ele>491.851685</ele>
        <time>2013-06-06T12:28:18Z</time>
      </trkpt>
      <trkpt lat="46.7691" lon="5.6264">
        <ele>491.851685</ele>
        <time>2013-06-06T12:28:33Z</time>
      </trkpt>
      <trkpt lat="46.7693" lon="5.62648">
        <ele>489.929077</ele>
        <time>2013-06-06T12:28:51Z</time>
      </trkpt>
      <trkpt lat="46.76955" lon="5.62658">
        <ele>488.967773</ele>
        <time>2013-06-06T12:29:12Z</time>
      </trkpt>
      <trkpt lat="46.76972" lon="5.6268">
        <ele>488.487183</ele>
        <time>2013-06-06T12:29:29Z</time>
      </trkpt>
      <trkpt lat="46.76983" lon="5.62685">
        <ele>488.00647</ele>
        <time>2013-06-06T12:29:44Z</time>
      </trkpt>
      <trkpt lat="46.76992" lon="5.62678">
        <ele>484.161133</ele>
        <time>2013-06-06T12:29:58Z</time>
      </trkpt>
      <trkpt lat="46.77005" lon="5.62665">
        <ele>481.277222</ele>
        <time>2013-06-06T12:30:11Z</time>
      </trkpt>
      <trkpt lat="46.77011" lon="5.62659">
        <ele>478.873901</ele>
        <time>2013-06-06T12:30:19Z</time>
      </trkpt>
      <trkpt lat="46.77024" lon="5.62659">
        <ele>475.509277</ele>
        <time>2013-06-06T12:30:35Z</time>
      </trkpt>
      <trkpt lat="46.77028" lon="5.62653">
        <ele>472.625366</ele>
        <time>2013-06-06T12:30:47Z</time>
      </trkpt>
      <trkpt lat="46.77023" lon="5.62644">
        <ele>470.221924</ele>
        <time>2013-06-06T12:30:57Z</time>
      </trkpt>
      <trkpt lat="46.77012" lon="5.62631">
        <ele>466.857422</ele>
        <time>2013-06-06T12:31:13Z</time>
      </trkpt>
      <trkpt lat="46.77007" lon="5.6262">
        <ele>463.492798</ele>
        <time>2013-06-06T12:31:30Z</time>
      </trkpt>
      <trkpt lat="46.77003" lon="5.62608">
        <ele>461.089478</ele>
        <time>2013-06-06T12:31:42Z</time>
      </trkpt>
      <trkpt lat="46.77002" lon="5.62591">
        <ele>459.16687</ele>
        <time>2013-06-06T12:31:54Z</time>
      </trkpt>
      <trkpt lat="46.77" lon="5.62575">
        <ele>456.76355</ele>
        <time>2013-06-06T12:32:09Z</time>
      </trkpt>
      <trkpt lat="46.76995" lon="5.62571">
        <ele>455.321533</ele>
        <time>2013-06-06T12:32:17Z</time>
      </trkpt>
      <trkpt lat="46.76993" lon="5.62558">
        <ele>453.398926</ele>
        <time>2013-06-06T12:32:33Z</time>
      </trkpt>
      <trkpt lat="46.76987" lon="5.62557">
        <ele>450.515015</ele>
        <time>2013-06-06T12:32:48Z</time>
      </trkpt>
      <trkpt lat="46.76982" lon="5.62552">
        <ele>448.111816</ele>
        <time>2013-06-06T12:33:02Z</time>
      </trkpt>
      <trkpt lat="46.7698" lon="5.62536">
        <ele>445.708374</ele>
        <time>2013-06-06T12:33:18Z</time>
      </trkpt>
      <trkpt lat="46.7698" lon="5.62529">
        <ele>444.74707</ele>
        <time>2013-06-06T12:33:23Z</time>
      </trkpt>
      <trkpt lat="46.76979" lon="5.62518">
        <ele>443.305054</ele>
        <time>2013-06-06T12:33:32Z</time>
      </trkpt>
      <trkpt lat="46.76978" lon="5.62504">
        <ele>441.382446</ele>
        <time>2013-06-06T12:33:44Z</time>
      </trkpt>
      <trkpt lat="46.76967" lon="5.62492">
        <ele>439.459717</ele>
        <time>2013-06-06T12:34:00Z</time>
      </trkpt>
      <trkpt lat="46.76955" lon="5.62482">
        <ele>438.979126</ele>
        <time>2013-06-06T12:34:14Z</time>
      </trkpt>
      <trkpt lat="46.76949" lon="5.62474">
        <ele>438.979126</ele>
        <time>2013-06-06T12:34:20Z</time>
      </trkpt>
      <trkpt lat="46.76944" lon="5.62473">
        <ele>438.979126</ele>
        <time>2013-06-06T12:34:24Z</time>
      </trkpt>
      <trkpt lat="46.76942" lon="5.62474">
        <ele>438.979126</ele>
        <time>2013-06-06T12:34:26Z</time>
      </trkpt>
      <trkpt lat="46.76925" lon="5.62467">
        <ele>437.056519</ele>
        <time>2013-06-06T12:34:44Z</time>
      </trkpt>
      <trkpt lat="46.7692" lon="5.62461">
        <ele>436.575928</ele>
        <time>2013-06-06T12:34:50Z</time>
      </trkpt>
      <trkpt lat="46.76907" lon="5.62437">
        <ele>432.730713</ele>
        <time>2013-06-06T12:35:08Z</time>
      </trkpt>
      <trkpt lat="46.769" lon="5.62417">
        <ele>429.846558</ele>
        <time>2013-06-06T12:35:26Z</time>
      </trkpt>
      <trkpt lat="46.76896" lon="5.62409">
        <ele>427.92395</ele>
        <time>2013-06-06T12:35:36Z</time>
      </trkpt>
      <trkpt lat="46.76891" lon="5.62397">
        <ele>426.001343</ele>
        <time>2013-06-06T12:35:48Z</time>
      </trkpt>
      <trkpt lat="46.76892" lon="5.62376">
        <ele>423.598022</ele>
        <time>2013-06-06T12:36:05Z</time>
      </trkpt>
      <trkpt lat="46.76892" lon="5.62356">
        <ele>421.194824</ele>
        <time>2013-06-06T12:36:19Z</time>
      </trkpt>
      <trkpt lat="46.76897" lon="5.62344">
        <ele>420.233398</ele>
        <time>2013-06-06T12:36:29Z</time>
      </trkpt>
      <trkpt lat="46.76899" lon="5.62338">
        <ele>419.272217</ele>
        <time>2013-06-06T12:36:33Z</time>
      </trkpt>
      <trkpt lat="46.76905" lon="5.62314">
        <ele>418.310791</ele>
        <time>2013-06-06T12:36:54Z</time>
      </trkpt>
      <trkpt lat="46.76909" lon="5.62314">
        <ele>417.8302</ele>
        <time>2013-06-06T12:37:00Z</time>
      </trkpt>
      <trkpt lat="46.76911" lon="5.62316">
        <ele>418.310791</ele>
        <time>2013-06-06T12:37:02Z</time>
      </trkpt>
      <trkpt lat="46.76932" lon="5.6232">
        <ele>418.791504</ele>
        <time>2013-06-06T12:37:20Z</time>
      </trkpt>
      <trkpt lat="46.76941" lon="5.62324">
        <ele>418.791504</ele>
        <time>2013-06-06T12:37:31Z</time>
      </trkpt>
      <trkpt lat="46.76965" lon="5.62331">
        <ele>420.233398</ele>
        <time>2013-06-06T12:37:52Z</time>
      </trkpt>
      <trkpt lat="46.76989" lon="5.6233">
        <ele>420.714111</ele>
        <time>2013-06-06T12:38:07Z</time>
      </trkpt>
      <trkpt lat="46.77002" lon="5.62336">
        <ele>421.194824</ele>
        <time>2013-06-06T12:38:21Z</time>
      </trkpt>
      <trkpt lat="46.77005" lon="5.62343">
        <ele>421.194824</ele>
        <time>2013-06-06T12:38:27Z</time>
      </trkpt>
      <trkpt lat="46.77028" lon="5.62341">
        <ele>421.675415</ele>
        <time>2013-06-06T12:38:41Z</time>
      </trkpt>
      <trkpt lat="46.77045" lon="5.62351">
        <ele>422.156006</ele>
        <time>2013-06-06T12:38:56Z</time>
      </trkpt>
      <trkpt lat="46.77047" lon="5.62353">
        <ele>422.156006</ele>
        <time>2013-06-06T12:38:58Z</time>
      </trkpt>
      <trkpt lat="46.77072" lon="5.62369">
        <ele>423.117432</ele>
        <time>2013-06-06T12:39:19Z</time>
      </trkpt>
      <trkpt lat="46.77079" lon="5.62377">
        <ele>423.117432</ele>
        <time>2013-06-06T12:39:26Z</time>
      </trkpt>
      <trkpt lat="46.77083" lon="5.62378">
        <ele>423.117432</ele>
        <time>2013-06-06T12:39:28Z</time>
      </trkpt>
      <trkpt lat="46.77109" lon="5.624">
        <ele>424.559448</ele>
        <time>2013-06-06T12:39:53Z</time>
      </trkpt>
      <trkpt lat="46.77113" lon="5.62401">
        <ele>425.040161</ele>
        <time>2013-06-06T12:39:56Z</time>
      </trkpt>
      <trkpt lat="46.77128" lon="5.62418">
        <ele>425.520752</ele>
        <time>2013-06-06T12:40:11Z</time>
      </trkpt>
      <trkpt lat="46.7715" lon="5.62436">
        <ele>426.962769</ele>
        <time>2013-06-06T12:40:32Z</time>
      </trkpt>
      <trkpt lat="46.77162" lon="5.62449">
        <ele>427.92395</ele>
        <time>2013-06-06T12:40:46Z</time>
      </trkpt>
      <trkpt lat="46.77177" lon="5.62467">
        <ele>429.365967</ele>
        <time>2013-06-06T12:41:02Z</time>
      </trkpt>
      <trkpt lat="46.77195" lon="5.62483">
        <ele>431.769165</ele>
        <time>2013-06-06T12:41:22Z</time>
      </trkpt>
      <trkpt lat="46.77195" lon="5.62486">
        <ele>431.288574</ele>
        <time>2013-06-06T12:41:43Z</time>
      </trkpt>
      <trkpt lat="46.77203" lon="5.62495">
        <ele>432.25</ele>
        <time>2013-06-06T12:41:53Z</time>
      </trkpt>
      <trkpt lat="46.77221" lon="5.62519">
        <ele>434.65332</ele>
        <time>2013-06-06T12:42:13Z</time>
      </trkpt>
      <trkpt lat="46.77226" lon="5.62525">
        <ele>435.133911</ele>
        <time>2013-06-06T12:42:18Z</time>
      </trkpt>
      <trkpt lat="46.77242" lon="5.62547">
        <ele>438.017822</ele>
        <time>2013-06-06T12:42:39Z</time>
      </trkpt>
      <trkpt lat="46.77254" lon="5.62561">
        <ele>439.459717</ele>
        <time>2013-06-06T12:42:56Z</time>
      </trkpt>
      <trkpt lat="46.77264" lon="5.62571">
        <ele>440.421265</ele>
        <time>2013-06-06T12:43:18Z</time>
      </trkpt>
      <trkpt lat="46.77263" lon="5.6257">
        <ele>439.94043</ele>
        <time>2013-06-06T12:43:42Z</time>
      </trkpt>
      <trkpt lat="46.77269" lon="5.62573">
        <ele>440.901855</ele>
        <time>2013-06-06T12:43:58Z</time>
      </trkpt>
      <trkpt lat="46.77273" lon="5.62576">
        <ele>441.382446</ele>
        <time>2013-06-06T12:44:10Z</time>
      </trkpt>
      <trkpt lat="46.77272" lon="5.6258">
        <ele>440.901855</ele>
        <time>2013-06-06T12:44:42Z</time>
      </trkpt>
      <trkpt lat="46.77274" lon="5.6258">
        <ele>440.421265</ele>
        <time>2013-06-06T12:45:13Z</time>
      </trkpt>
      <trkpt lat="46.77272" lon="5.62582">
        <ele>439.94043</ele>
        <time>2013-06-06T12:46:06Z</time>
      </trkpt>
      <trkpt lat="46.7728" lon="5.62602">
        <ele>441.382446</ele>
        <time>2013-06-06T12:50:29Z</time>
      </trkpt>
      <trkpt lat="46.77295" lon="5.6263">
        <ele>443.785767</ele>
        <time>2013-06-06T12:50:51Z</time>
      </trkpt>
      <trkpt lat="46.7731" lon="5.62658">
        <ele>446.189087</ele>
        <time>2013-06-06T12:51:14Z</time>
      </trkpt>
      <trkpt lat="46.77324" lon="5.62673">
        <ele>448.592407</ele>
        <time>2013-06-06T12:51:33Z</time>
      </trkpt>
      <trkpt lat="46.77338" lon="5.62693">
        <ele>450.995605</ele>
        <time>2013-06-06T12:51:54Z</time>
      </trkpt>
      <trkpt lat="46.77359" lon="5.62693">
        <ele>452.918213</ele>
        <time>2013-06-06T12:52:17Z</time>
      </trkpt>
      <trkpt lat="46.77376" lon="5.62696">
        <ele>454.84082</ele>
        <time>2013-06-06T12:52:34Z</time>
      </trkpt>
      <trkpt lat="46.77385" lon="5.627">
        <ele>455.321533</ele>
        <time>2013-06-06T12:52:42Z</time>
      </trkpt>
      <trkpt lat="46.77394" lon="5.62708">
        <ele>456.282959</ele>
        <time>2013-06-06T12:52:52Z</time>
      </trkpt>
      <trkpt lat="46.77397" lon="5.62711">
        <ele>456.76355</ele>
        <time>2013-06-06T12:52:56Z</time>
      </trkpt>
      <trkpt lat="46.774" lon="5.62714">
        <ele>457.244263</ele>
        <time>2013-06-06T12:53:00Z</time>
      </trkpt>
      <trkpt lat="46.77417" lon="5.62733">
        <ele>460.128174</ele>
        <time>2013-06-06T12:53:23Z</time>
      </trkpt>
      <trkpt lat="46.77431" lon="5.62752">
        <ele>462.531372</ele>
        <time>2013-06-06T12:53:45Z</time>
      </trkpt>
      <trkpt lat="46.77444" lon="5.62762">
        <ele>463.492798</ele>
        <time>2013-06-06T12:53:56Z</time>
      </trkpt>
      <trkpt lat="46.77457" lon="5.62776">
        <ele>465.415527</ele>
        <time>2013-06-06T12:54:10Z</time>
      </trkpt>
      <trkpt lat="46.77476" lon="5.62799">
        <ele>466.376709</ele>
        <time>2013-06-06T12:54:28Z</time>
      </trkpt>
      <trkpt lat="46.77488" lon="5.62821">
        <ele>468.299316</ele>
        <time>2013-06-06T12:54:46Z</time>
      </trkpt>
      <trkpt lat="46.77491" lon="5.62825">
        <ele>468.780029</ele>
        <time>2013-06-06T12:54:50Z</time>
      </trkpt>
      <trkpt lat="46.77493" lon="5.62828">
        <ele>469.260742</ele>
        <time>2013-06-06T12:54:53Z</time>
      </trkpt>
      <trkpt lat="46.77512" lon="5.62835">
        <ele>470.702637</ele>
        <time>2013-06-06T12:55:10Z</time>
      </trkpt>
      <trkpt lat="46.77529" lon="5.62839">
        <ele>471.18335</ele>
        <time>2013-06-06T12:55:24Z</time>
      </trkpt>
      <trkpt lat="46.77532" lon="5.62843">
        <ele>471.66394</ele>
        <time>2013-06-06T12:55:27Z</time>
      </trkpt>
      <trkpt lat="46.7755" lon="5.62849">
        <ele>472.625366</ele>
        <time>2013-06-06T12:55:42Z</time>
      </trkpt>
      <trkpt lat="46.77554" lon="5.6285">
        <ele>473.106079</ele>
        <time>2013-06-06T12:55:45Z</time>
      </trkpt>
      <trkpt lat="46.77567" lon="5.62857">
        <ele>474.067261</ele>
        <time>2013-06-06T12:56:01Z</time>
      </trkpt>
      <trkpt lat="46.77571" lon="5.62857">
        <ele>474.067261</ele>
        <time>2013-06-06T12:56:05Z</time>
      </trkpt>
      <trkpt lat="46.77593" lon="5.62859">
        <ele>475.509277</ele>
        <time>2013-06-06T12:56:19Z</time>
      </trkpt>
      <trkpt lat="46.77601" lon="5.6286">
        <ele>475.509277</ele>
        <time>2013-06-06T12:56:24Z</time>
      </trkpt>
      <trkpt lat="46.77619" lon="5.62868">
        <ele>475.028687</ele>
        <time>2013-06-06T12:56:40Z</time>
      </trkpt>
      <trkpt lat="46.77623" lon="5.62868">
        <ele>475.028687</ele>
        <time>2013-06-06T12:56:44Z</time>
      </trkpt>
      <trkpt lat="46.77637" lon="5.62851">
        <ele>475.028687</ele>
        <time>2013-06-06T12:57:02Z</time>
      </trkpt>
      <trkpt lat="46.7766" lon="5.62821">
        <ele>474.067261</ele>
        <time>2013-06-06T12:57:26Z</time>
      </trkpt>
      <trkpt lat="46.77675" lon="5.62789">
        <ele>472.144653</ele>
        <time>2013-06-06T12:57:46Z</time>
      </trkpt>
      <trkpt lat="46.77676" lon="5.62785">
        <ele>471.66394</ele>
        <time>2013-06-06T12:57:48Z</time>
      </trkpt>
      <trkpt lat="46.77686" lon="5.62762">
        <ele>470.221924</ele>
        <time>2013-06-06T12:58:04Z</time>
      </trkpt>
      <trkpt lat="46.77698" lon="5.62736">
        <ele>468.780029</ele>
        <time>2013-06-06T12:58:21Z</time>
      </trkpt>
      <trkpt lat="46.77708" lon="5.62716">
        <ele>468.299316</ele>
        <time>2013-06-06T12:58:34Z</time>
      </trkpt>
      <trkpt lat="46.77719" lon="5.62693">
        <ele>467.338135</ele>
        <time>2013-06-06T12:58:48Z</time>
      </trkpt>
      <trkpt lat="46.77733" lon="5.62665">
        <ele>467.338135</ele>
        <time>2013-06-06T12:59:06Z</time>
      </trkpt>
      <trkpt lat="46.77753" lon="5.62632">
        <ele>466.857422</ele>
        <time>2013-06-06T12:59:28Z</time>
      </trkpt>
      <trkpt lat="46.77777" lon="5.62607">
        <ele>466.376709</ele>
        <time>2013-06-06T12:59:50Z</time>
      </trkpt>
      <trkpt lat="46.77797" lon="5.62589">
        <ele>466.376709</ele>
        <time>2013-06-06T13:00:06Z</time>
      </trkpt>
      <trkpt lat="46.7782" lon="5.62583">
        <ele>466.376709</ele>
        <time>2013-06-06T13:00:27Z</time>
      </trkpt>
      <trkpt lat="46.77822" lon="5.62587">
        <ele>466.376709</ele>
        <time>2013-06-06T13:00:41Z</time>
      </trkpt>
      <trkpt lat="46.77843" lon="5.62589">
        <ele>465.896118</ele>
        <time>2013-06-06T13:00:56Z</time>
      </trkpt>
      <trkpt lat="46.77864" lon="5.62581">
        <ele>466.376709</ele>
        <time>2013-06-06T13:01:11Z</time>
      </trkpt>
      <trkpt lat="46.77892" lon="5.62587">
        <ele>467.338135</ele>
        <time>2013-06-06T13:01:32Z</time>
      </trkpt>
      <trkpt lat="46.77903" lon="5.62597">
        <ele>467.338135</ele>
        <time>2013-06-06T13:01:41Z</time>
      </trkpt>
      <trkpt lat="46.77929" lon="5.62589">
        <ele>465.415527</ele>
        <time>2013-06-06T13:01:59Z</time>
      </trkpt>
      <trkpt lat="46.77947" lon="5.62572">
        <ele>463.973389</ele>
        <time>2013-06-06T13:02:16Z</time>
      </trkpt>
      <trkpt lat="46.77962" lon="5.62561">
        <ele>462.531372</ele>
        <time>2013-06-06T13:02:31Z</time>
      </trkpt>
      <trkpt lat="46.77966" lon="5.62559">
        <ele>462.531372</ele>
        <time>2013-06-06T13:02:38Z</time>
      </trkpt>
      <trkpt lat="46.77991" lon="5.62557">
        <ele>461.57019</ele>
        <time>2013-06-06T13:02:53Z</time>
      </trkpt>
      <trkpt lat="46.78013" lon="5.62558">
        <ele>462.050781</ele>
        <time>2013-06-06T13:03:09Z</time>
      </trkpt>
      <trkpt lat="46.78037" lon="5.6256">
        <ele>463.012085</ele>
        <time>2013-06-06T13:03:27Z</time>
      </trkpt>
      <trkpt lat="46.78055" lon="5.62559">
        <ele>463.012085</ele>
        <time>2013-06-06T13:03:40Z</time>
      </trkpt>
      <trkpt lat="46.78076" lon="5.62557">
        <ele>462.531372</ele>
        <time>2013-06-06T13:03:57Z</time>
      </trkpt>
      <trkpt lat="46.78079" lon="5.62556">
        <ele>462.531372</ele>
        <time>2013-06-06T13:03:59Z</time>
      </trkpt>
      <trkpt lat="46.78099" lon="5.62552">
        <ele>461.57019</ele>
        <time>2013-06-06T13:04:15Z</time>
      </trkpt>
      <trkpt lat="46.78117" lon="5.62547">
        <ele>460.128174</ele>
        <time>2013-06-06T13:04:29Z</time>
      </trkpt>
      <trkpt lat="46.78132" lon="5.62538">
        <ele>459.16687</ele>
        <time>2013-06-06T13:04:41Z</time>
      </trkpt>
      <trkpt lat="46.78148" lon="5.6252">
        <ele>458.205566</ele>
        <time>2013-06-06T13:04:56Z</time>
      </trkpt>
      <trkpt lat="46.78159" lon="5.62509">
        <ele>457.724976</ele>
        <time>2013-06-06T13:05:05Z</time>
      </trkpt>
      <trkpt lat="46.78172" lon="5.62494">
        <ele>457.724976</ele>
        <time>2013-06-06T13:05:18Z</time>
      </trkpt>
      <trkpt lat="46.78197" lon="5.62486">
        <ele>458.686157</ele>
        <time>2013-06-06T13:05:41Z</time>
      </trkpt>
      <trkpt lat="46.78221" lon="5.62488">
        <ele>459.647583</ele>
        <time>2013-06-06T13:05:59Z</time>
      </trkpt>
      <trkpt lat="46.78231" lon="5.6249">
        <ele>460.608765</ele>
        <time>2013-06-06T13:06:07Z</time>
      </trkpt>
      <trkpt lat="46.78236" lon="5.62491">
        <ele>460.608765</ele>
        <time>2013-06-06T13:06:10Z</time>
      </trkpt>
      <trkpt lat="46.78244" lon="5.62501">
        <ele>461.089478</ele>
        <time>2013-06-06T13:06:23Z</time>
      </trkpt>
      <trkpt lat="46.78257" lon="5.62503">
        <ele>461.089478</ele>
        <time>2013-06-06T13:06:36Z</time>
      </trkpt>
      <trkpt lat="46.7825" lon="5.62522">
        <ele>461.089478</ele>
        <time>2013-06-06T13:06:57Z</time>
      </trkpt>
      <trkpt lat="46.78254" lon="5.62533">
        <ele>461.089478</ele>
        <time>2013-06-06T13:08:15Z</time>
      </trkpt>
      <trkpt lat="46.78252" lon="5.62524">
        <ele>456.76355</ele>
        <time>2013-06-06T13:08:17Z</time>
      </trkpt>
      <trkpt lat="46.78253" lon="5.62523">
        <ele>464.934814</ele>
        <time>2013-06-06T13:08:19Z</time>
      </trkpt>
      <trkpt lat="46.78253" lon="5.62523">
        <ele>468.299316</ele>
        <time>2013-06-06T13:08:20Z</time>
      </trkpt>
      <trkpt lat="46.78254" lon="5.62522">
        <ele>463.492798</ele>
        <time>2013-06-06T13:08:21Z</time>
      </trkpt>
      <trkpt lat="46.78257" lon="5.62518">
        <ele>460.608765</ele>
        <time>2013-06-06T13:08:23Z</time>
      </trkpt>
      <trkpt lat="46.78279" lon="5.62522">
        <ele>459.16687</ele>
        <time>2013-06-06T13:08:47Z</time>
      </trkpt>
      <trkpt lat="46.78298" lon="5.62546">
        <ele>458.686157</ele>
        <time>2013-06-06T13:09:15Z</time>
      </trkpt>
      <trkpt lat="46.78341" lon="5.62563">
        <ele>459.16687</ele>
        <time>2013-06-06T13:09:43Z</time>
      </trkpt>
      <trkpt lat="46.78364" lon="5.62587">
        <ele>460.128174</ele>
        <time>2013-06-06T13:10:07Z</time>
      </trkpt>
      <trkpt lat="46.78388" lon="5.62602">
        <ele>461.089478</ele>
        <time>2013-06-06T13:10:28Z</time>
      </trkpt>
      <trkpt lat="46.78403" lon="5.62622">
        <ele>462.050781</ele>
        <time>2013-06-06T13:10:45Z</time>
      </trkpt>
      <trkpt lat="46.78429" lon="5.62644">
        <ele>463.492798</ele>
        <time>2013-06-06T13:11:10Z</time>
      </trkpt>
      <trkpt lat="46.78451" lon="5.62655">
        <ele>465.415527</ele>
        <time>2013-06-06T13:11:33Z</time>
      </trkpt>
      <trkpt lat="46.78473" lon="5.6266">
        <ele>466.857422</ele>
        <time>2013-06-06T13:11:53Z</time>
      </trkpt>
      <trkpt lat="46.78498" lon="5.62664">
        <ele>468.299316</ele>
        <time>2013-06-06T13:12:12Z</time>
      </trkpt>
      <trkpt lat="46.7852" lon="5.62666">
        <ele>469.260742</ele>
        <time>2013-06-06T13:12:36Z</time>
      </trkpt>
      <trkpt lat="46.78536" lon="5.62673">
        <ele>470.702637</ele>
        <time>2013-06-06T13:12:55Z</time>
      </trkpt>
      <trkpt lat="46.78558" lon="5.62672">
        <ele>471.18335</ele>
        <time>2013-06-06T13:13:12Z</time>
      </trkpt>
      <trkpt lat="46.78579" lon="5.62668">
        <ele>470.221924</ele>
        <time>2013-06-06T13:13:32Z</time>
      </trkpt>
      <trkpt lat="46.78598" lon="5.62656">
        <ele>470.221924</ele>
        <time>2013-06-06T13:13:55Z</time>
      </trkpt>
      <trkpt lat="46.78626" lon="5.62647">
        <ele>470.221924</ele>
        <time>2013-06-06T13:14:19Z</time>
      </trkpt>
      <trkpt lat="46.78644" lon="5.62636">
        <ele>471.18335</ele>
        <time>2013-06-06T13:14:35Z</time>
      </trkpt>
      <trkpt lat="46.78671" lon="5.62606">
        <ele>471.66394</ele>
        <time>2013-06-06T13:14:56Z</time>
      </trkpt>
      <trkpt lat="46.78691" lon="5.62591">
        <ele>472.625366</ele>
        <time>2013-06-06T13:15:13Z</time>
      </trkpt>
      <trkpt lat="46.78714" lon="5.62572">
        <ele>472.625366</ele>
        <time>2013-06-06T13:15:35Z</time>
      </trkpt>
      <trkpt lat="46.78732" lon="5.62548">
        <ele>471.66394</ele>
        <time>2013-06-06T13:15:55Z</time>
      </trkpt>
      <trkpt lat="46.78754" lon="5.62508">
        <ele>472.625366</ele>
        <time>2013-06-06T13:16:19Z</time>
      </trkpt>
      <trkpt lat="46.78776" lon="5.62489">
        <ele>472.625366</ele>
        <time>2013-06-06T13:16:42Z</time>
      </trkpt>
      <trkpt lat="46.788" lon="5.62485">
        <ele>469.260742</ele>
        <time>2013-06-06T13:17:02Z</time>
      </trkpt>
      <trkpt lat="46.78809" lon="5.6248">
        <ele>470.702637</ele>
        <time>2013-06-06T13:17:09Z</time>
      </trkpt>
      <trkpt lat="46.78829" lon="5.6246">
        <ele>468.780029</ele>
        <time>2013-06-06T13:17:27Z</time>
      </trkpt>
      <trkpt lat="46.78843" lon="5.62443">
        <ele>466.376709</ele>
        <time>2013-06-06T13:17:42Z</time>
      </trkpt>
      <trkpt lat="46.78872" lon="5.62422">
        <ele>463.973389</ele>
        <time>2013-06-06T13:18:06Z</time>
      </trkpt>
      <trkpt lat="46.78889" lon="5.62399">
        <ele>462.531372</ele>
        <time>2013-06-06T13:18:24Z</time>
      </trkpt>
      <trkpt lat="46.78901" lon="5.62377">
        <ele>460.608765</ele>
        <time>2013-06-06T13:18:41Z</time>
      </trkpt>
      <trkpt lat="46.78914" lon="5.62367">
        <ele>458.686157</ele>
        <time>2013-06-06T13:18:59Z</time>
      </trkpt>
      <trkpt lat="46.78915" lon="5.62388">
        <ele>461.57019</ele>
        <time>2013-06-06T13:19:17Z</time>
      </trkpt>
      <trkpt lat="46.78925" lon="5.62418">
        <ele>464.934814</ele>
        <time>2013-06-06T13:19:46Z</time>
      </trkpt>
      <trkpt lat="46.78939" lon="5.62439">
        <ele>467.338135</ele>
        <time>2013-06-06T13:20:14Z</time>
      </trkpt>
      <trkpt lat="46.78947" lon="5.62482">
        <ele>470.221924</ele>
        <time>2013-06-06T13:20:35Z</time>
      </trkpt>
      <trkpt lat="46.78956" lon="5.62511">
        <ele>471.66394</ele>
        <time>2013-06-06T13:21:00Z</time>
      </trkpt>
      <trkpt lat="46.78977" lon="5.62535">
        <ele>474.547974</ele>
        <time>2013-06-06T13:21:29Z</time>
      </trkpt>
      <trkpt lat="46.78999" lon="5.62538">
        <ele>474.547974</ele>
        <time>2013-06-06T13:21:48Z</time>
      </trkpt>
      <trkpt lat="46.79018" lon="5.62551">
        <ele>473.58667</ele>
        <time>2013-06-06T13:22:08Z</time>
      </trkpt>
      <trkpt lat="46.79034" lon="5.62576">
        <ele>473.106079</ele>
        <time>2013-06-06T13:22:32Z</time>
      </trkpt>
      <trkpt lat="46.79048" lon="5.62587">
        <ele>473.106079</ele>
        <time>2013-06-06T13:22:54Z</time>
      </trkpt>
      <trkpt lat="46.79081" lon="5.62597">
        <ele>473.58667</ele>
        <time>2013-06-06T13:23:22Z</time>
      </trkpt>
      <trkpt lat="46.79102" lon="5.62601">
        <ele>474.067261</ele>
        <time>2013-06-06T13:23:44Z</time>
      </trkpt>
      <trkpt lat="46.79129" lon="5.62597">
        <ele>475.028687</ele>
        <time>2013-06-06T13:24:07Z</time>
      </trkpt>
      <trkpt lat="46.79162" lon="5.62594">
        <ele>474.547974</ele>
        <time>2013-06-06T13:24:29Z</time>
      </trkpt>
      <trkpt lat="46.79187" lon="5.62587">
        <ele>474.547974</ele>
        <time>2013-06-06T13:24:44Z</time>
      </trkpt>
      <trkpt lat="46.79204" lon="5.62594">
        <ele>473.58667</ele>
        <time>2013-06-06T13:25:06Z</time>
      </trkpt>
      <trkpt lat="46.79228" lon="5.62591">
        <ele>473.58667</ele>
        <time>2013-06-06T13:25:26Z</time>
      </trkpt>
      <trkpt lat="46.79239" lon="5.62592">
        <ele>473.106079</ele>
        <time>2013-06-06T13:25:32Z</time>
      </trkpt>
      <trkpt lat="46.79253" lon="5.62587">
        <ele>473.106079</ele>
        <time>2013-06-06T13:25:46Z</time>
      </trkpt>
      <trkpt lat="46.79278" lon="5.62585">
        <ele>474.547974</ele>
        <time>2013-06-06T13:26:06Z</time>
      </trkpt>
      <trkpt lat="46.79298" lon="5.62584">
        <ele>475.028687</ele>
        <time>2013-06-06T13:26:24Z</time>
      </trkpt>
      <trkpt lat="46.79321" lon="5.62593">
        <ele>474.547974</ele>
        <time>2013-06-06T13:26:40Z</time>
      </trkpt>
      <trkpt lat="46.79345" lon="5.62589">
        <ele>473.58667</ele>
        <time>2013-06-06T13:26:59Z</time>
      </trkpt>
      <trkpt lat="46.79366" lon="5.62593">
        <ele>473.106079</ele>
        <time>2013-06-06T13:27:16Z</time>
      </trkpt>
      <trkpt lat="46.79399" lon="5.62608">
        <ele>472.144653</ele>
        <time>2013-06-06T13:27:38Z</time>
      </trkpt>
      <trkpt lat="46.79424" lon="5.62616">
        <ele>471.18335</ele>
        <time>2013-06-06T13:27:56Z</time>
      </trkpt>
      <trkpt lat="46.79446" lon="5.62616">
        <ele>470.702637</ele>
        <time>2013-06-06T13:28:13Z</time>
      </trkpt>
      <trkpt lat="46.79474" lon="5.62633">
        <ele>469.741333</ele>
        <time>2013-06-06T13:28:36Z</time>
      </trkpt>
      <trkpt lat="46.79496" lon="5.62649">
        <ele>469.260742</ele>
        <time>2013-06-06T13:28:58Z</time>
      </trkpt>
      <trkpt lat="46.79516" lon="5.62651">
        <ele>469.260742</ele>
        <time>2013-06-06T13:29:16Z</time>
      </trkpt>
      <trkpt lat="46.79538" lon="5.62651">
        <ele>468.780029</ele>
        <time>2013-06-06T13:29:34Z</time>
      </trkpt>
      <trkpt lat="46.79561" lon="5.6266">
        <ele>467.818726</ele>
        <time>2013-06-06T13:29:52Z</time>
      </trkpt>
      <trkpt lat="46.79573" lon="5.62666">
        <ele>465.415527</ele>
        <time>2013-06-06T13:30:05Z</time>
      </trkpt>
      <trkpt lat="46.79594" lon="5.62674">
        <ele>463.492798</ele>
        <time>2013-06-06T13:30:26Z</time>
      </trkpt>
      <trkpt lat="46.79619" lon="5.62682">
        <ele>463.492798</ele>
        <time>2013-06-06T13:30:49Z</time>
      </trkpt>
      <trkpt lat="46.79643" lon="5.62687">
        <ele>464.934814</ele>
        <time>2013-06-06T13:31:08Z</time>
      </trkpt>
      <trkpt lat="46.79668" lon="5.62695">
        <ele>463.492798</ele>
        <time>2013-06-06T13:31:34Z</time>
      </trkpt>
      <trkpt lat="46.79681" lon="5.62674">
        <ele>462.050781</ele>
        <time>2013-06-06T13:31:56Z</time>
      </trkpt>
      <trkpt lat="46.79697" lon="5.62665">
        <ele>461.089478</ele>
        <time>2013-06-06T13:32:11Z</time>
      </trkpt>
      <trkpt lat="46.79715" lon="5.62648">
        <ele>459.647583</ele>
        <time>2013-06-06T13:32:31Z</time>
      </trkpt>
      <trkpt lat="46.79725" lon="5.62635">
        <ele>458.205566</ele>
        <time>2013-06-06T13:32:45Z</time>
      </trkpt>
      <trkpt lat="46.7973" lon="5.62627">
        <ele>457.724976</ele>
        <time>2013-06-06T13:32:51Z</time>
      </trkpt>
      <trkpt lat="46.79744" lon="5.62613">
        <ele>456.76355</ele>
        <time>2013-06-06T13:33:07Z</time>
      </trkpt>
      <trkpt lat="46.79747" lon="5.62612">
        <ele>456.282959</ele>
        <time>2013-06-06T13:33:10Z</time>
      </trkpt>
      <trkpt lat="46.79759" lon="5.62601">
        <ele>455.321533</ele>
        <time>2013-06-06T13:33:23Z</time>
      </trkpt>
      <trkpt lat="46.79766" lon="5.62587">
        <ele>453.879639</ele>
        <time>2013-06-06T13:33:38Z</time>
      </trkpt>
      <trkpt lat="46.79768" lon="5.62585">
        <ele>453.879639</ele>
        <time>2013-06-06T13:33:41Z</time>
      </trkpt>
      <trkpt lat="46.79778" lon="5.62572">
        <ele>452.918213</ele>
        <time>2013-06-06T13:33:55Z</time>
      </trkpt>
      <trkpt lat="46.79781" lon="5.62569">
        <ele>452.437622</ele>
        <time>2013-06-06T13:33:59Z</time>
      </trkpt>
      <trkpt lat="46.79786" lon="5.62562">
        <ele>452.437622</ele>
        <time>2013-06-06T13:34:05Z</time>
      </trkpt>
      <trkpt lat="46.79786" lon="5.62553">
        <ele>451.957031</ele>
        <time>2013-06-06T13:34:21Z</time>
      </trkpt>
      <trkpt lat="46.79787" lon="5.62551">
        <ele>451.476318</ele>
        <time>2013-06-06T13:34:46Z</time>
      </trkpt>
      <trkpt lat="46.79794" lon="5.62537">
        <ele>448.592407</ele>
        <time>2013-06-06T13:38:34Z</time>
      </trkpt>
      <trkpt lat="46.79808" lon="5.62516">
        <ele>448.111816</ele>
        <time>2013-06-06T13:38:44Z</time>
      </trkpt>
      <trkpt lat="46.79811" lon="5.62513">
        <ele>447.630981</ele>
        <time>2013-06-06T13:38:47Z</time>
      </trkpt>
      <trkpt lat="46.79826" lon="5.62502">
        <ele>446.669678</ele>
        <time>2013-06-06T13:39:00Z</time>
      </trkpt>
      <trkpt lat="46.7984" lon="5.62501">
        <ele>446.669678</ele>
        <time>2013-06-06T13:39:13Z</time>
      </trkpt>
      <trkpt lat="46.7985" lon="5.62495">
        <ele>445.227661</ele>
        <time>2013-06-06T13:39:21Z</time>
      </trkpt>
      <trkpt lat="46.79858" lon="5.62498">
        <ele>445.227661</ele>
        <time>2013-06-06T13:39:28Z</time>
      </trkpt>
      <trkpt lat="46.79863" lon="5.62499">
        <ele>444.74707</ele>
        <time>2013-06-06T13:39:35Z</time>
      </trkpt>
      <trkpt lat="46.79865" lon="5.62502">
        <ele>444.266479</ele>
        <time>2013-06-06T13:39:39Z</time>
      </trkpt>
      <trkpt lat="46.79869" lon="5.62504">
        <ele>444.266479</ele>
        <time>2013-06-06T13:39:42Z</time>
      </trkpt>
      <trkpt lat="46.79885" lon="5.62515">
        <ele>443.785767</ele>
        <time>2013-06-06T13:39:56Z</time>
      </trkpt>
      <trkpt lat="46.7991" lon="5.62523">
        <ele>441.863159</ele>
        <time>2013-06-06T13:40:25Z</time>
      </trkpt>
      <trkpt lat="46.7994" lon="5.62499">
        <ele>439.94043</ele>
        <time>2013-06-06T13:40:58Z</time>
      </trkpt>
      <trkpt lat="46.79962" lon="5.6248">
        <ele>438.498535</ele>
        <time>2013-06-06T13:41:14Z</time>
      </trkpt>
      <trkpt lat="46.79966" lon="5.62477">
        <ele>435.614502</ele>
        <time>2013-06-06T13:41:31Z</time>
      </trkpt>
      <trkpt lat="46.7997" lon="5.62452">
        <ele>432.730713</ele>
        <time>2013-06-06T13:41:51Z</time>
      </trkpt>
      <trkpt lat="46.79966" lon="5.62436">
        <ele>429.365967</ele>
        <time>2013-06-06T13:42:12Z</time>
      </trkpt>
      <trkpt lat="46.79948" lon="5.62414">
        <ele>426.482056</ele>
        <time>2013-06-06T13:42:31Z</time>
      </trkpt>
      <trkpt lat="46.79921" lon="5.62403">
        <ele>424.078735</ele>
        <time>2013-06-06T13:42:54Z</time>
      </trkpt>
      <trkpt lat="46.79901" lon="5.62406">
        <ele>420.714111</ele>
        <time>2013-06-06T13:43:09Z</time>
      </trkpt>
      <trkpt lat="46.79887" lon="5.62414">
        <ele>417.8302</ele>
        <time>2013-06-06T13:43:25Z</time>
      </trkpt>
      <trkpt lat="46.79873" lon="5.62409">
        <ele>414.946167</ele>
        <time>2013-06-06T13:43:38Z</time>
      </trkpt>
      <trkpt lat="46.7985" lon="5.62407">
        <ele>411.581665</ele>
        <time>2013-06-06T13:43:52Z</time>
      </trkpt>
      <trkpt lat="46.79837" lon="5.62402">
        <ele>409.178345</ele>
        <time>2013-06-06T13:44:03Z</time>
      </trkpt>
      <trkpt lat="46.79824" lon="5.624">
        <ele>405.813721</ele>
        <time>2013-06-06T13:44:17Z</time>
      </trkpt>
      <trkpt lat="46.79802" lon="5.62409">
        <ele>402.929688</ele>
        <time>2013-06-06T13:44:37Z</time>
      </trkpt>
      <trkpt lat="46.79776" lon="5.62414">
        <ele>400.045898</ele>
        <time>2013-06-06T13:44:59Z</time>
      </trkpt>
      <trkpt lat="46.79754" lon="5.62429">
        <ele>397.642456</ele>
        <time>2013-06-06T13:45:20Z</time>
      </trkpt>
      <trkpt lat="46.79739" lon="5.62437">
        <ele>395.719849</ele>
        <time>2013-06-06T13:45:36Z</time>
      </trkpt>
      <trkpt lat="46.7972" lon="5.62443">
        <ele>393.797241</ele>
        <time>2013-06-06T13:45:56Z</time>
      </trkpt>
      <trkpt lat="46.79708" lon="5.62459">
        <ele>394.277954</ele>
        <time>2013-06-06T13:46:12Z</time>
      </trkpt>
      <trkpt lat="46.79694" lon="5.62472">
        <ele>393.316528</ele>
        <time>2013-06-06T13:46:33Z</time>
      </trkpt>
      <trkpt lat="46.79696" lon="5.62453">
        <ele>390.432617</ele>
        <time>2013-06-06T13:46:48Z</time>
      </trkpt>
      <trkpt lat="46.79679" lon="5.62463">
        <ele>388.51001</ele>
        <time>2013-06-06T13:47:11Z</time>
      </trkpt>
      <trkpt lat="46.79661" lon="5.62485">
        <ele>385.145386</ele>
        <time>2013-06-06T13:47:35Z</time>
      </trkpt>
      <trkpt lat="46.79649" lon="5.62472">
        <ele>382.261353</ele>
        <time>2013-06-06T13:47:55Z</time>
      </trkpt>
      <trkpt lat="46.79642" lon="5.62452">
        <ele>378.896851</ele>
        <time>2013-06-06T13:48:12Z</time>
      </trkpt>
      <trkpt lat="46.79648" lon="5.62432">
        <ele>376.012817</ele>
        <time>2013-06-06T13:48:25Z</time>
      </trkpt>
      <trkpt lat="46.79653" lon="5.62411">
        <ele>372.648193</ele>
        <time>2013-06-06T13:48:40Z</time>
      </trkpt>
      <trkpt lat="46.79655" lon="5.6239">
        <ele>369.764282</ele>
        <time>2013-06-06T13:48:57Z</time>
      </trkpt>
      <trkpt lat="46.79653" lon="5.62371">
        <ele>368.802979</ele>
        <time>2013-06-06T13:49:06Z</time>
      </trkpt>
      <trkpt lat="46.79653" lon="5.62336">
        <ele>365.438354</ele>
        <time>2013-06-06T13:49:27Z</time>
      </trkpt>
      <trkpt lat="46.79642" lon="5.62302">
        <ele>362.07373</ele>
        <time>2013-06-06T13:49:45Z</time>
      </trkpt>
      <trkpt lat="46.79631" lon="5.62289">
        <ele>359.67041</ele>
        <time>2013-06-06T13:49:58Z</time>
      </trkpt>
      <trkpt lat="46.79624" lon="5.62259">
        <ele>356.305786</ele>
        <time>2013-06-06T13:50:15Z</time>
      </trkpt>
      <trkpt lat="46.79627" lon="5.62237">
        <ele>355.825195</ele>
        <time>2013-06-06T13:50:26Z</time>
      </trkpt>
      <trkpt lat="46.79627" lon="5.62233">
        <ele>355.825195</ele>
        <time>2013-06-06T13:50:30Z</time>
      </trkpt>
      <trkpt lat="46.79638" lon="5.62211">
        <ele>356.305786</ele>
        <time>2013-06-06T13:50:49Z</time>
      </trkpt>
      <trkpt lat="46.79639" lon="5.62201">
        <ele>356.786377</ele>
        <time>2013-06-06T13:50:55Z</time>
      </trkpt>
      <trkpt lat="46.7964" lon="5.62183">
        <ele>357.747803</ele>
        <time>2013-06-06T13:51:08Z</time>
      </trkpt>
      <trkpt lat="46.79645" lon="5.62181">
        <ele>357.26709</ele>
        <time>2013-06-06T13:51:38Z</time>
      </trkpt>
      <trkpt lat="46.79645" lon="5.62176">
        <ele>356.786377</ele>
        <time>2013-06-06T13:51:54Z</time>
      </trkpt>
      <trkpt lat="46.79646" lon="5.62174">
        <ele>357.26709</ele>
        <time>2013-06-06T13:52:27Z</time>
      </trkpt>
      <trkpt lat="46.79649" lon="5.62172">
        <ele>356.786377</ele>
        <time>2013-06-06T13:52:45Z</time>
      </trkpt>
      <trkpt lat="46.79651" lon="5.62173">
        <ele>356.786377</ele>
        <time>2013-06-06T13:53:19Z</time>
      </trkpt>
      <trkpt lat="46.79655" lon="5.6217">
        <ele>356.305786</ele>
        <time>2013-06-06T13:54:14Z</time>
      </trkpt>
      <trkpt lat="46.79657" lon="5.6216">
        <ele>355.825195</ele>
        <time>2013-06-06T13:54:28Z</time>
      </trkpt>
      <trkpt lat="46.79663" lon="5.62143">
        <ele>352.941162</ele>
        <time>2013-06-06T13:54:49Z</time>
      </trkpt>
      <trkpt lat="46.79661" lon="5.62103">
        <ele>351.018433</ele>
        <time>2013-06-06T13:55:07Z</time>
      </trkpt>
      <trkpt lat="46.79663" lon="5.62082">
        <ele>348.134644</ele>
        <time>2013-06-06T13:55:26Z</time>
      </trkpt>
      <trkpt lat="46.79663" lon="5.62077">
        <ele>347.653931</ele>
        <time>2013-06-06T13:55:30Z</time>
      </trkpt>
      <trkpt lat="46.7966" lon="5.62054">
        <ele>344.289429</ele>
        <time>2013-06-06T13:55:53Z</time>
      </trkpt>
      <trkpt lat="46.79656" lon="5.6203">
        <ele>342.366699</ele>
        <time>2013-06-06T13:56:10Z</time>
      </trkpt>
      <trkpt lat="46.79653" lon="5.62009">
        <ele>339.963379</ele>
        <time>2013-06-06T13:56:24Z</time>
      </trkpt>
      <trkpt lat="46.79653" lon="5.62006">
        <ele>339.963379</ele>
        <time>2013-06-06T13:56:26Z</time>
      </trkpt>
      <trkpt lat="46.7965" lon="5.61987">
        <ele>337.560059</ele>
        <time>2013-06-06T13:56:42Z</time>
      </trkpt>
      <trkpt lat="46.7965" lon="5.61985">
        <ele>337.079468</ele>
        <time>2013-06-06T13:56:44Z</time>
      </trkpt>
      <trkpt lat="46.79648" lon="5.61967">
        <ele>332.75354</ele>
        <time>2013-06-06T13:57:00Z</time>
      </trkpt>
      <trkpt lat="46.79648" lon="5.6196">
        <ele>335.156738</ele>
        <time>2013-06-06T13:57:04Z</time>
      </trkpt>
      <trkpt lat="46.79649" lon="5.61955">
        <ele>335.156738</ele>
        <time>2013-06-06T13:57:08Z</time>
      </trkpt>
      <trkpt lat="46.79649" lon="5.61942">
        <ele>334.195435</ele>
        <time>2013-06-06T13:57:19Z</time>
      </trkpt>
      <trkpt lat="46.79658" lon="5.61927">
        <ele>333.234131</ele>
        <time>2013-06-06T13:57:30Z</time>
      </trkpt>
      <trkpt lat="46.79664" lon="5.61915">
        <ele>332.75354</ele>
        <time>2013-06-06T13:57:40Z</time>
      </trkpt>
      <trkpt lat="46.79668" lon="5.61904">
        <ele>332.272827</ele>
        <time>2013-06-06T13:57:48Z</time>
      </trkpt>
      <trkpt lat="46.79672" lon="5.61903">
        <ele>332.272827</ele>
        <time>2013-06-06T13:57:51Z</time>
      </trkpt>
      <trkpt lat="46.79674" lon="5.619">
        <ele>332.272827</ele>
        <time>2013-06-06T13:57:58Z</time>
      </trkpt>
      <trkpt lat="46.79674" lon="5.61898">
        <ele>332.75354</ele>
        <time>2013-06-06T13:58:04Z</time>
      </trkpt>
      <trkpt lat="46.79692" lon="5.61888">
        <ele>332.75354</ele>
        <time>2013-06-06T13:58:16Z</time>
      </trkpt>
      <trkpt lat="46.79703" lon="5.61871">
        <ele>331.792114</ele>
        <time>2013-06-06T13:58:31Z</time>
      </trkpt>
      <trkpt lat="46.79711" lon="5.61865">
        <ele>329.869507</ele>
        <time>2013-06-06T13:58:45Z</time>
      </trkpt>
      <trkpt lat="46.79711" lon="5.61848">
        <ele>328.427612</ele>
        <time>2013-06-06T13:58:59Z</time>
      </trkpt>
      <trkpt lat="46.79714" lon="5.61829">
        <ele>327.466187</ele>
        <time>2013-06-06T13:59:15Z</time>
      </trkpt>
      <trkpt lat="46.79714" lon="5.6181">
        <ele>326.02417</ele>
        <time>2013-06-06T13:59:31Z</time>
      </trkpt>
      <trkpt lat="46.79713" lon="5.61792">
        <ele>325.543579</ele>
        <time>2013-06-06T13:59:40Z</time>
      </trkpt>
      <trkpt lat="46.79713" lon="5.61779">
        <ele>325.543579</ele>
        <time>2013-06-06T13:59:44Z</time>
      </trkpt>
      <trkpt lat="46.79718" lon="5.61751">
        <ele>324.582275</ele>
        <time>2013-06-06T13:59:59Z</time>
      </trkpt>
      <trkpt lat="46.79718" lon="5.6175">
        <ele>324.101562</ele>
        <time>2013-06-06T14:00:00Z</time>
      </trkpt>
      <trkpt lat="46.79718" lon="5.61733">
        <ele>324.101562</ele>
        <time>2013-06-06T14:00:07Z</time>
      </trkpt>
      <trkpt lat="46.79718" lon="5.61722">
        <ele>323.140381</ele>
        <time>2013-06-06T14:00:12Z</time>
      </trkpt>
      <trkpt lat="46.79727" lon="5.61709">
        <ele>322.659668</ele>
        <time>2013-06-06T14:00:22Z</time>
      </trkpt>
      <trkpt lat="46.79731" lon="5.61698">
        <ele>322.178955</ele>
        <time>2013-06-06T14:00:29Z</time>
      </trkpt>
      <trkpt lat="46.79737" lon="5.61682">
        <ele>320.737061</ele>
        <time>2013-06-06T14:00:44Z</time>
      </trkpt>
      <trkpt lat="46.7974" lon="5.6168">
        <ele>320.737061</ele>
        <time>2013-06-06T14:00:47Z</time>
      </trkpt>
      <trkpt lat="46.79741" lon="5.61674">
        <ele>320.737061</ele>
        <time>2013-06-06T14:00:50Z</time>
      </trkpt>
      <trkpt lat="46.79745" lon="5.61662">
        <ele>319.775635</ele>
        <time>2013-06-06T14:00:58Z</time>
      </trkpt>
      <trkpt lat="46.7975" lon="5.61648">
        <ele>319.775635</ele>
        <time>2013-06-06T14:01:08Z</time>
      </trkpt>
      <trkpt lat="46.79754" lon="5.61646">
        <ele>319.775635</ele>
        <time>2013-06-06T14:01:12Z</time>
      </trkpt>
      <trkpt lat="46.79756" lon="5.61638">
        <ele>319.295044</ele>
        <time>2013-06-06T14:01:15Z</time>
      </trkpt>
      <trkpt lat="46.79761" lon="5.61635">
        <ele>319.295044</ele>
        <time>2013-06-06T14:01:19Z</time>
      </trkpt>
      <trkpt lat="46.79766" lon="5.61637">
        <ele>319.295044</ele>
        <time>2013-06-06T14:01:25Z</time>
      </trkpt>
      <trkpt lat="46.79776" lon="5.61642">
        <ele>319.775635</ele>
        <time>2013-06-06T14:01:36Z</time>
      </trkpt>
      <trkpt lat="46.79793" lon="5.6164">
        <ele>319.295044</ele>
        <time>2013-06-06T14:01:51Z</time>
      </trkpt>
      <trkpt lat="46.798" lon="5.61631">
        <ele>318.814331</ele>
        <time>2013-06-06T14:01:59Z</time>
      </trkpt>
      <trkpt lat="46.79806" lon="5.61627">
        <ele>318.814331</ele>
        <time>2013-06-06T14:02:06Z</time>
      </trkpt>
      <trkpt lat="46.7981" lon="5.61604">
        <ele>317.853027</ele>
        <time>2013-06-06T14:02:18Z</time>
      </trkpt>
      <trkpt lat="46.79813" lon="5.61596">
        <ele>316.891724</ele>
        <time>2013-06-06T14:02:29Z</time>
      </trkpt>
      <trkpt lat="46.79821" lon="5.61587">
        <ele>314.969116</ele>
        <time>2013-06-06T14:02:44Z</time>
      </trkpt>
      <trkpt lat="46.79823" lon="5.61585">
        <ele>314.969116</ele>
        <time>2013-06-06T14:02:46Z</time>
      </trkpt>
      <trkpt lat="46.79828" lon="5.61578">
        <ele>314.488403</ele>
        <time>2013-06-06T14:02:55Z</time>
      </trkpt>
      <trkpt lat="46.79833" lon="5.61556">
        <ele>313.046509</ele>
        <time>2013-06-06T14:03:08Z</time>
      </trkpt>
      <trkpt lat="46.79828" lon="5.6154">
        <ele>312.085205</ele>
        <time>2013-06-06T14:03:19Z</time>
      </trkpt>
      <trkpt lat="46.79828" lon="5.61522">
        <ele>311.604492</ele>
        <time>2013-06-06T14:03:33Z</time>
      </trkpt>
      <trkpt lat="46.79831" lon="5.61519">
        <ele>311.123779</ele>
        <time>2013-06-06T14:03:37Z</time>
      </trkpt>
      <trkpt lat="46.7984" lon="5.61505">
        <ele>310.643066</ele>
        <time>2013-06-06T14:03:52Z</time>
      </trkpt>
      <trkpt lat="46.79851" lon="5.61497">
        <ele>309.681885</ele>
        <time>2013-06-06T14:04:06Z</time>
      </trkpt>
      <trkpt lat="46.79861" lon="5.61487">
        <ele>308.239868</ele>
        <time>2013-06-06T14:04:20Z</time>
      </trkpt>
      <trkpt lat="46.79865" lon="5.61484">
        <ele>308.239868</ele>
        <time>2013-06-06T14:04:24Z</time>
      </trkpt>
      <trkpt lat="46.79868" lon="5.61481">
        <ele>307.759277</ele>
        <time>2013-06-06T14:04:27Z</time>
      </trkpt>
      <trkpt lat="46.79874" lon="5.61475">
        <ele>307.278564</ele>
        <time>2013-06-06T14:04:34Z</time>
      </trkpt>
      <trkpt lat="46.79881" lon="5.61452">
        <ele>305.83667</ele>
        <time>2013-06-06T14:04:52Z</time>
      </trkpt>
      <trkpt lat="46.79882" lon="5.61451">
        <ele>306.317261</ele>
        <time>2013-06-06T14:04:53Z</time>
      </trkpt>
      <trkpt lat="46.79888" lon="5.61443">
        <ele>305.355957</ele>
        <time>2013-06-06T14:05:02Z</time>
      </trkpt>
      <trkpt lat="46.79889" lon="5.61433">
        <ele>304.875244</ele>
        <time>2013-06-06T14:05:10Z</time>
      </trkpt>
      <trkpt lat="46.79896" lon="5.61415">
        <ele>303.433228</ele>
        <time>2013-06-06T14:05:26Z</time>
      </trkpt>
      <trkpt lat="46.79901" lon="5.614">
        <ele>302.471924</ele>
        <time>2013-06-06T14:05:41Z</time>
      </trkpt>
      <trkpt lat="46.79906" lon="5.61396">
        <ele>301.991333</ele>
        <time>2013-06-06T14:05:49Z</time>
      </trkpt>
      <trkpt lat="46.79909" lon="5.61395">
        <ele>301.51062</ele>
        <time>2013-06-06T14:05:52Z</time>
      </trkpt>
      <trkpt lat="46.79916" lon="5.61391">
        <ele>301.51062</ele>
        <time>2013-06-06T14:05:59Z</time>
      </trkpt>
      <trkpt lat="46.79941" lon="5.61382">
        <ele>301.991333</ele>
        <time>2013-06-06T14:06:22Z</time>
      </trkpt>
      <trkpt lat="46.79956" lon="5.61389">
        <ele>302.471924</ele>
        <time>2013-06-06T14:06:35Z</time>
      </trkpt>
      <trkpt lat="46.79979" lon="5.61399">
        <ele>303.433228</ele>
        <time>2013-06-06T14:06:52Z</time>
      </trkpt>
      <trkpt lat="46.79998" lon="5.61414">
        <ele>304.394653</ele>
        <time>2013-06-06T14:07:07Z</time>
      </trkpt>
      <trkpt lat="46.80018" lon="5.61426">
        <ele>305.355957</ele>
        <time>2013-06-06T14:07:24Z</time>
      </trkpt>
      <trkpt lat="46.80033" lon="5.61431">
        <ele>306.317261</ele>
        <time>2013-06-06T14:07:37Z</time>
      </trkpt>
      <trkpt lat="46.80049" lon="5.61427">
        <ele>306.317261</ele>
        <time>2013-06-06T14:07:53Z</time>
      </trkpt>
      <trkpt lat="46.8005" lon="5.61422">
        <ele>305.83667</ele>
        <time>2013-06-06T14:08:03Z</time>
      </trkpt>
      <trkpt lat="46.8004" lon="5.61368">
        <ele>305.83667</ele>
        <time>2013-06-06T14:08:23Z</time>
      </trkpt>
      <trkpt lat="46.80031" lon="5.61322">
        <ele>306.317261</ele>
        <time>2013-06-06T14:08:43Z</time>
      </trkpt>
    </trkseg>
  </trk>
</gpx>